Darstellungsparameter: Aktuell verwendete Einstellungen:
Skalierung der Graphiken ... ?
xyx+y,   Skalierungsfaktor:      Skalierung: Modus: x, Faktor: 1
Darstellungszeitraum ... ?
Vom - - bis: - -   Zeitraum: 25.02.2016 - 24.08.2016
Min/Max/Avg-Anzeige ... ?
Zeige MMA aktuell
Zeige MMA Monat
Zeige MMA alles
Zeige --A aktuell
Zeige --A Monat
Zeige --A alles
Keine MMA-Anzeige
MMA:
Keine MMA-Graphiken
MMA-Basis: 25.02.2016 - 24.08.2016
Quicknavigation für Darstellung... ?
Tage:      1T, 2T, 3T, 5T -1T -2T -3T -5T +1T +2T +3T +5T
Wochen: 1W, 2W, 3W -1W -2W -3W +1W +2W +3W
Monate: 1M, 3M, 6M -1M -3M -6M +1M +3M +6M
Jahre:    1J, 3J, 5J, 10J -1J -3J -5J -10J +1J +3J +5J +10J
Nutze für die Darstellung ... ?
Originaldaten oder Mittelwerte auf ...
Stundenbasis Tagesbasis Wochenbasis
Monatsbasis Jahresbasis      Datenbasis: Original-Daten
Darstellen als:
Statistik (Auto) Statistik J:M      Darstellung:
Zur Graphik,    zurück zur Übersicht aller Sensoren.
 
Tabellarische Datenbersicht: ?
 
Sensor: Nr:Datum:Temp:Feuchte:Taupunkt:
Aussen-T/F 1 25-02-2016 00:00:00 -0.8 C 94 % -1.64 C
2 25-02-2016 00:05:00 -0.8 C 94 % -1.64 C
3 25-02-2016 00:10:00 -0.8 C 94 % -1.64 C
4 25-02-2016 00:15:00 -0.8 C 94 % -1.64 C
5 25-02-2016 00:20:00 -0.9 C 94 % -1.74 C
6 25-02-2016 00:25:00 -0.9 C 94 % -1.74 C
7 25-02-2016 00:30:00 -0.9 C 94 % -1.74 C
8 25-02-2016 00:35:00 -0.9 C 94 % -1.74 C
9 25-02-2016 00:40:00 -1.1 C 94 % -1.94 C
10 25-02-2016 00:45:00 -1.1 C 94 % -1.94 C
11 25-02-2016 00:50:00 -1.1 C 94 % -1.94 C
12 25-02-2016 00:55:00 -1.1 C 94 % -1.94 C
13 25-02-2016 01:00:00 -1.2 C 94 % -2.04 C
14 25-02-2016 01:05:00 -1.2 C 94 % -2.04 C
15 25-02-2016 01:10:00 -1.2 C 94 % -2.04 C
16 25-02-2016 01:15:00 -1.2 C 94 % -2.04 C
17 25-02-2016 01:20:00 -1.2 C 94 % -2.04 C
18 25-02-2016 01:25:00 -1.2 C 95 % -1.9 C
19 25-02-2016 01:30:00 -1.2 C 95 % -1.9 C
20 25-02-2016 01:35:00 -1.2 C 95 % -1.9 C
21 25-02-2016 01:40:00 -1.3 C 95 % -2 C
22 25-02-2016 01:45:00 -1.3 C 95 % -2 C
23 25-02-2016 01:50:00 -1.3 C 95 % -2 C
24 25-02-2016 01:55:00 -1.4 C 95 % -2.1 C
25 25-02-2016 02:00:00 -1.4 C 95 % -2.1 C
Sensor: Nr:Datum:Temp:Feuchte:Taupunkt:
Aussen-T/F 26 25-02-2016 02:05:00 -1.4 C 95 % -2.1 C
27 25-02-2016 02:10:00 -1.4 C 95 % -2.1 C
28 25-02-2016 02:15:00 -1.3 C 95 % -2 C
29 25-02-2016 02:20:00 -1.3 C 95 % -2 C
30 25-02-2016 02:25:00 -1.3 C 95 % -2 C
31 25-02-2016 02:30:00 -1.4 C 95 % -2.1 C
32 25-02-2016 02:35:00 -1.4 C 95 % -2.1 C
33 25-02-2016 02:40:00 -1.5 C 95 % -2.19 C
34 25-02-2016 02:45:00 -1.6 C 95 % -2.29 C
35 25-02-2016 02:50:00 -1.7 C 95 % -2.39 C
36 25-02-2016 02:55:00 -1.7 C 95 % -2.39 C
37 25-02-2016 03:00:00 -1.7 C 95 % -2.39 C
38 25-02-2016 03:05:00 -1.7 C 95 % -2.39 C
39 25-02-2016 03:10:00 -1.7 C 95 % -2.39 C
40 25-02-2016 03:15:00 -1.7 C 95 % -2.39 C
41 25-02-2016 03:20:00 -1.7 C 95 % -2.39 C
42 25-02-2016 03:25:00 -1.7 C 95 % -2.39 C
43 25-02-2016 03:30:00 -1.7 C 95 % -2.39 C
44 25-02-2016 03:35:00 -1.8 C 95 % -2.49 C
45 25-02-2016 03:40:00 -1.8 C 95 % -2.49 C
46 25-02-2016 03:45:00 -1.8 C 95 % -2.49 C
47 25-02-2016 03:50:00 -1.8 C 95 % -2.49 C
48 25-02-2016 03:55:00 -1.8 C 95 % -2.49 C
49 25-02-2016 04:00:00 -1.7 C 95 % -2.39 C
50 25-02-2016 04:05:00 -1.7 C 95 % -2.39 C
Sensor: Nr:Datum:Temp:Feuchte:Taupunkt:
Aussen-T/F 51 25-02-2016 04:10:00 -1.7 C 96 % -2.25 C
52 25-02-2016 04:15:00 -1.6 C 96 % -2.15 C
53 25-02-2016 04:20:00 -1.6 C 96 % -2.15 C
54 25-02-2016 04:25:00 -1.5 C 96 % -2.05 C
55 25-02-2016 04:30:00 -1.5 C 96 % -2.05 C
56 25-02-2016 04:35:00 -1.5 C 96 % -2.05 C
57 25-02-2016 04:40:00 -1.5 C 96 % -2.05 C
58 25-02-2016 04:45:00 -1.6 C 96 % -2.15 C
59 25-02-2016 04:50:00 -1.6 C 96 % -2.15 C
60 25-02-2016 04:55:00 -1.6 C 96 % -2.15 C
61 25-02-2016 05:00:00 -1.7 C 96 % -2.25 C
62 25-02-2016 05:05:00 -1.7 C 96 % -2.25 C
63 25-02-2016 05:10:00 -1.8 C 96 % -2.35 C
64 25-02-2016 05:15:00 -1.8 C 96 % -2.35 C
65 25-02-2016 05:20:00 -1.8 C 96 % -2.35 C
66 25-02-2016 05:25:00 -1.8 C 96 % -2.35 C
67 25-02-2016 05:30:00 -1.8 C 96 % -2.35 C
68 25-02-2016 05:35:00 -1.8 C 96 % -2.35 C
69 25-02-2016 05:40:00 -1.8 C 96 % -2.35 C
70 25-02-2016 05:45:00 -1.9 C 96 % -2.45 C
71 25-02-2016 05:50:00 -1.9 C 96 % -2.45 C
72 25-02-2016 05:55:00 -1.9 C 96 % -2.45 C
73 25-02-2016 06:00:00 -2 C 96 % -2.55 C
74 25-02-2016 06:05:00 -2 C 96 % -2.55 C
75 25-02-2016 06:10:00 -2 C 96 % -2.55 C
Sensor: Nr:Datum:Temp:Feuchte:Taupunkt:
Aussen-T/F 76 25-02-2016 06:15:00 -1.9 C 96 % -2.45 C
77 25-02-2016 06:20:00 -2 C 96 % -2.55 C
78 25-02-2016 06:25:00 -1.9 C 96 % -2.45 C
79 25-02-2016 06:30:00 -1.9 C 96 % -2.45 C
80 25-02-2016 06:35:00 -2 C 96 % -2.55 C
81 25-02-2016 06:40:00 -2 C 96 % -2.55 C
82 25-02-2016 06:45:00 -2 C 96 % -2.55 C
83 25-02-2016 06:50:00 -2.1 C 96 % -2.65 C
84 25-02-2016 06:55:00 -2.1 C 96 % -2.65 C
85 25-02-2016 07:00:00 -2.2 C 96 % -2.75 C
86 25-02-2016 07:05:00 -2.2 C 96 % -2.75 C
87 25-02-2016 07:10:00 -2.2 C 96 % -2.75 C
88 25-02-2016 07:15:00 -2.2 C 96 % -2.75 C
89 25-02-2016 07:20:00 -2.3 C 96 % -2.85 C
90 25-02-2016 07:25:00 -2.3 C 96 % -2.85 C
91 25-02-2016 07:30:00 -2.2 C 96 % -2.75 C
92 25-02-2016 07:35:00 -2.2 C 96 % -2.75 C
93 25-02-2016 07:40:00 -2.3 C 96 % -2.85 C
94 25-02-2016 07:45:00 -2.3 C 96 % -2.85 C
95 25-02-2016 07:50:00 -2.2 C 96 % -2.75 C
96 25-02-2016 07:55:00 -2.2 C 96 % -2.75 C
97 25-02-2016 08:00:00 -2.2 C 96 % -2.75 C
98 25-02-2016 08:05:00 -2.2 C 96 % -2.75 C
99 25-02-2016 08:10:00 -2.2 C 96 % -2.75 C
100 25-02-2016 08:15:00 -2.2 C 96 % -2.75 C
Sensor: Nr:Datum:Temp:Feuchte:Taupunkt:
Aussen-T/F 101 25-02-2016 08:20:00 -2.2 C 96 % -2.75 C
102 25-02-2016 08:25:00 -2.2 C 96 % -2.75 C
103 25-02-2016 08:30:00 -2.2 C 96 % -2.75 C
104 25-02-2016 08:35:00 -2.2 C 96 % -2.75 C
105 25-02-2016 08:40:00 -2.1 C 96 % -2.65 C
106 25-02-2016 08:45:00 -2.1 C 96 % -2.65 C
107 25-02-2016 08:50:00 -2.1 C 96 % -2.65 C
108 25-02-2016 08:55:00 -2 C 96 % -2.55 C
109 25-02-2016 09:00:00 -1.9 C 96 % -2.45 C
110 25-02-2016 09:05:00 -1.9 C 96 % -2.45 C
111 25-02-2016 09:10:00 -1.9 C 97 % -2.31 C
112 25-02-2016 09:15:00 -1.9 C 96 % -2.45 C
113 25-02-2016 09:20:00 -1.9 C 96 % -2.45 C
114 25-02-2016 09:25:00 -1.9 C 96 % -2.45 C
115 25-02-2016 09:30:00 -1.9 C 96 % -2.45 C
116 25-02-2016 09:35:00 -1.8 C 97 % -2.21 C
117 25-02-2016 09:40:00 -1.8 C 97 % -2.21 C
118 25-02-2016 09:45:00 -1.8 C 97 % -2.21 C
119 25-02-2016 09:50:00 -1.8 C 97 % -2.21 C
120 25-02-2016 09:55:00 -1.8 C 97 % -2.21 C
121 25-02-2016 10:00:00 -1.7 C 97 % -2.11 C
122 25-02-2016 10:05:00 -1.7 C 97 % -2.11 C
123 25-02-2016 10:10:00 -1.7 C 97 % -2.11 C
124 25-02-2016 10:15:00 -1.7 C 97 % -2.11 C
125 25-02-2016 10:20:00 -1.7 C 97 % -2.11 C
Sensor: Nr:Datum:Temp:Feuchte:Taupunkt:
Aussen-T/F 126 25-02-2016 10:25:00 -1.6 C 97 % -2.01 C
127 25-02-2016 10:30:00 -1.6 C 97 % -2.01 C
128 25-02-2016 10:35:00 -1.5 C 97 % -1.91 C
129 25-02-2016 10:40:00 -1.4 C 97 % -1.81 C
130 25-02-2016 10:45:00 -1.3 C 97 % -1.71 C
131 25-02-2016 10:50:00 -1.2 C 97 % -1.61 C
132 25-02-2016 10:55:00 -1.1 C 97 % -1.51 C
133 25-02-2016 11:00:00 -1.1 C 97 % -1.51 C
134 25-02-2016 11:05:00 -1 C 97 % -1.41 C
135 25-02-2016 11:10:00 -1 C 97 % -1.41 C
136 25-02-2016 11:15:00 -0.9 C 97 % -1.32 C
137 25-02-2016 11:20:00 -0.7 C 97 % -1.12 C
138 25-02-2016 11:25:00 -0.6 C 97 % -1.02 C
139 25-02-2016 11:30:00 -0.7 C 97 % -1.12 C
140 25-02-2016 11:35:00 -0.6 C 97 % -1.02 C
141 25-02-2016 11:40:00 -0.6 C 97 % -1.02 C
142 25-02-2016 11:45:00 -0.5 C 97 % -0.92 C
143 25-02-2016 11:50:00 -0.4 C 97 % -0.82 C
144 25-02-2016 11:55:00 -0.4 C 97 % -0.82 C
145 25-02-2016 12:00:00 -0.3 C 97 % -0.72 C
146 25-02-2016 12:05:00 -0.3 C 97 % -0.72 C
147 25-02-2016 12:10:00 -0.2 C 97 % -0.62 C
148 25-02-2016 12:15:00 -0.1 C 97 % -0.52 C
149 25-02-2016 12:20:00 0.1 C 97 % -0.32 C
150 25-02-2016 12:25:00 0.3 C 97 % -0.12 C
Sensor: Nr:Datum:Temp:Feuchte:Taupunkt:
Aussen-T/F 151 25-02-2016 12:30:00 0.4 C 97 % -0.02 C
152 25-02-2016 12:35:00 0.7 C 97 % 0.28 C
153 25-02-2016 12:40:00 0.9 C 97 % 0.48 C
154 25-02-2016 12:45:00 1.1 C 97 % 0.68 C
155 25-02-2016 12:50:00 1.3 C 97 % 0.88 C
156 25-02-2016 12:55:00 1.5 C 97 % 1.08 C
157 25-02-2016 13:00:00 1.7 C 97 % 1.28 C
158 25-02-2016 13:05:00 1.8 C 97 % 1.38 C
159 25-02-2016 13:10:00 1.9 C 97 % 1.48 C
160 25-02-2016 13:15:00 2.1 C 97 % 1.67 C
161 25-02-2016 13:20:00 2.3 C 97 % 1.87 C
162 25-02-2016 13:25:00 2.7 C 97 % 2.27 C
163 25-02-2016 13:30:00 2.9 C 97 % 2.47 C
164 25-02-2016 13:35:00 3.2 C 97 % 2.77 C
165 25-02-2016 13:40:00 3.3 C 96 % 2.72 C
166 25-02-2016 13:45:00 3.4 C 96 % 2.82 C
167 25-02-2016 13:50:00 3.4 C 95 % 2.68 C
168 25-02-2016 13:55:00 3.5 C 95 % 2.78 C
169 25-02-2016 14:00:00 3.5 C 94 % 2.63 C
170 25-02-2016 14:05:00 3.6 C 93 % 2.58 C
171 25-02-2016 14:10:00 3.7 C 93 % 2.68 C
172 25-02-2016 14:15:00 3.8 C 92 % 2.62 C
173 25-02-2016 14:20:00 4 C 85 % 1.71 C
174 25-02-2016 14:25:00 4.4 C 79 % 1.09 C
175 25-02-2016 14:30:00 4.6 C 77 % 0.92 C
Sensor: Nr:Datum:Temp:Feuchte:Taupunkt:
Aussen-T/F 176 25-02-2016 14:35:00 4.8 C 74 % 0.57 C
177 25-02-2016 14:40:00 4.9 C 74 % 0.67 C
178 25-02-2016 14:45:00 5 C 73 % 0.57 C
179 25-02-2016 14:50:00 5.2 C 71 % 0.38 C
180 25-02-2016 14:55:00 5.2 C 69 % -0.01 C
181 25-02-2016 15:00:00 5.1 C 69 % -0.11 C
182 25-02-2016 15:05:00 4.9 C 71 % 0.09 C
183 25-02-2016 15:10:00 4.9 C 72 % 0.29 C
184 25-02-2016 15:15:00 4.9 C 70 % -0.1 C
185 25-02-2016 15:20:00 5 C 73 % 0.57 C
186 25-02-2016 15:25:00 5.2 C 73 % 0.77 C
187 25-02-2016 15:30:00 5.3 C 70 % 0.28 C
188 25-02-2016 15:35:00 5.4 C 69 % 0.18 C
189 25-02-2016 15:40:00 5.5 C 68 % 0.08 C
190 25-02-2016 15:45:00 5.5 C 68 % 0.08 C
191 25-02-2016 15:50:00 5.6 C 67 % -0.03 C
192 25-02-2016 15:55:00 5.5 C 66 % -0.33 C
193 25-02-2016 16:00:00 5.3 C 69 % 0.09 C
194 25-02-2016 16:05:00 5.3 C 70 % 0.28 C
195 25-02-2016 16:10:00 5.2 C 73 % 0.77 C
196 25-02-2016 16:15:00 5.1 C 69 % -0.11 C
197 25-02-2016 16:20:00 5 C 69 % -0.2 C
198 25-02-2016 16:25:00 5.1 C 69 % -0.11 C
199 25-02-2016 16:30:00 5.2 C 70 % 0.19 C
200 25-02-2016 16:35:00 5.3 C 68 % -0.12 C
Sensor: Nr:Datum:Temp:Feuchte:Taupunkt:
Aussen-T/F 201 25-02-2016 16:40:00 5.3 C 68 % -0.12 C
202 25-02-2016 16:45:00 5.2 C 70 % 0.19 C
203 25-02-2016 16:50:00 5.3 C 70 % 0.28 C
204 25-02-2016 16:55:00 5.2 C 70 % 0.19 C
205 25-02-2016 17:00:00 5.2 C 68 % -0.21 C
206 25-02-2016 17:05:00 5.2 C 71 % 0.38 C
207 25-02-2016 17:10:00 4.9 C 67 % -0.7 C
208 25-02-2016 17:15:00 4.8 C 69 % -0.39 C
209 25-02-2016 17:20:00 4.7 C 68 % -0.69 C
210 25-02-2016 17:25:00 4.7 C 69 % -0.49 C
211 25-02-2016 17:30:00 4.7 C 69 % -0.49 C
212 25-02-2016 17:35:00 4.7 C 70 % -0.29 C
213 25-02-2016 17:40:00 4.7 C 70 % -0.29 C
214 25-02-2016 17:45:00 4.6 C 73 % 0.19 C
215 25-02-2016 17:50:00 4.4 C 73 % 0 C
216 25-02-2016 17:55:00 4.3 C 75 % 0.27 C
217 25-02-2016 18:00:00 4.1 C 77 % 0.44 C
218 25-02-2016 18:05:00 3.8 C 78 % 0.33 C
219 25-02-2016 18:10:00 3.4 C 79 % 0.11 C
220 25-02-2016 18:15:00 3.1 C 81 % 0.16 C
221 25-02-2016 18:20:00 2.8 C 83 % 0.21 C
222 25-02-2016 18:25:00 2.6 C 84 % 0.18 C
223 25-02-2016 18:30:00 2.4 C 85 % 0.14 C
224 25-02-2016 18:35:00 2.2 C 85 % -0.05 C
225 25-02-2016 18:40:00 2.1 C 86 % 0.01 C
Sensor: Nr:Datum:Temp:Feuchte:Taupunkt:
Aussen-T/F 226 25-02-2016 18:45:00 1.9 C 87 % -0.03 C
227 25-02-2016 18:50:00 1.8 C 87 % -0.13 C
228 25-02-2016 18:55:00 1.8 C 88 % 0.03 C
229 25-02-2016 19:00:00 1.8 C 88 % 0.03 C
230 25-02-2016 19:05:00 1.8 C 89 % 0.19 C
231 25-02-2016 19:10:00 1.9 C 89 % 0.28 C
232 25-02-2016 19:15:00 1.9 C 89 % 0.28 C
233 25-02-2016 19:20:00 2 C 89 % 0.38 C
234 25-02-2016 19:25:00 2.2 C 88 % 0.42 C
235 25-02-2016 19:30:00 2.4 C 87 % 0.46 C
236 25-02-2016 19:35:00 2.7 C 86 % 0.6 C
237 25-02-2016 19:40:00 2.9 C 85 % 0.63 C
238 25-02-2016 19:45:00 2.9 C 86 % 0.8 C
239 25-02-2016 19:50:00 2.9 C 86 % 0.8 C
240 25-02-2016 19:55:00 2.8 C 87 % 0.86 C
241 25-02-2016 20:00:00 2.8 C 87 % 0.86 C
242 25-02-2016 20:05:00 2.7 C 88 % 0.92 C
243 25-02-2016 20:10:00 2.6 C 88 % 0.82 C
244 25-02-2016 20:15:00 2.5 C 89 % 0.88 C
245 25-02-2016 20:20:00 2.4 C 89 % 0.78 C
246 25-02-2016 20:25:00 2.3 C 89 % 0.68 C
247 25-02-2016 20:30:00 2.3 C 90 % 0.83 C
248 25-02-2016 20:35:00 2.3 C 90 % 0.83 C
249 25-02-2016 20:40:00 2.2 C 90 % 0.73 C
250 25-02-2016 20:45:00 2.2 C 90 % 0.73 C
Sensor: Nr:Datum:Temp:Feuchte:Taupunkt:
Aussen-T/F 251 25-02-2016 20:50:00 2.2 C 90 % 0.73 C
252 25-02-2016 20:55:00 2.2 C 90 % 0.73 C
253 25-02-2016 21:00:00 2.2 C 90 % 0.73 C
254 25-02-2016 21:05:00 2.2 C 90 % 0.73 C
255 25-02-2016 21:10:00 2.1 C 90 % 0.64 C
256 25-02-2016 21:15:00 2.1 C 91 % 0.79 C
257 25-02-2016 21:20:00 1.9 C 91 % 0.59 C
258 25-02-2016 21:25:00 1.9 C 91 % 0.59 C
259 25-02-2016 21:30:00 1.9 C 91 % 0.59 C
260 25-02-2016 21:35:00 1.9 C 91 % 0.59 C
261 25-02-2016 21:40:00 1.9 C 91 % 0.59 C
262 25-02-2016 21:45:00 1.9 C 91 % 0.59 C
263 25-02-2016 21:50:00 1.8 C 91 % 0.49 C
264 25-02-2016 21:55:00 1.8 C 91 % 0.49 C
265 25-02-2016 22:00:00 1.8 C 91 % 0.49 C
266 25-02-2016 22:05:00 1.7 C 92 % 0.54 C
267 25-02-2016 22:10:00 1.7 C 92 % 0.54 C
268 25-02-2016 22:15:00 1.7 C 92 % 0.54 C
269 25-02-2016 22:20:00 1.7 C 92 % 0.54 C
270 25-02-2016 22:25:00 1.7 C 92 % 0.54 C
271 25-02-2016 22:30:00 1.7 C 92 % 0.54 C
272 25-02-2016 22:35:00 1.7 C 92 % 0.54 C
273 25-02-2016 22:40:00 1.6 C 92 % 0.44 C
274 25-02-2016 22:45:00 1.6 C 93 % 0.59 C
275 25-02-2016 22:50:00 1.6 C 93 % 0.59 C
Sensor: Nr:Datum:Temp:Feuchte:Taupunkt:
Aussen-T/F 276 25-02-2016 22:55:00 1.6 C 93 % 0.59 C
277 25-02-2016 23:00:00 1.6 C 93 % 0.59 C
278 25-02-2016 23:05:00 1.6 C 93 % 0.59 C
279 25-02-2016 23:10:00 1.6 C 93 % 0.59 C
280 25-02-2016 23:15:00 1.6 C 93 % 0.59 C
281 25-02-2016 23:20:00 1.5 C 93 % 0.49 C
282 25-02-2016 23:25:00 1.5 C 93 % 0.49 C
283 25-02-2016 23:30:00 1.5 C 93 % 0.49 C
284 25-02-2016 23:35:00 1.4 C 92 % 0.25 C
285 25-02-2016 23:40:00 1.4 C 92 % 0.25 C
286 25-02-2016 23:45:00 1.3 C 92 % 0.15 C
287 25-02-2016 23:50:00 1.3 C 92 % 0.15 C
288 25-02-2016 23:55:00 1.2 C 92 % 0.05 C
289 26-02-2016 00:00:00 1.3 C 92 % 0.15 C
290 26-02-2016 00:05:00 1.3 C 93 % 0.3 C
291 26-02-2016 00:10:00 1.3 C 93 % 0.3 C
292 26-02-2016 00:15:00 1.4 C 93 % 0.4 C
293 26-02-2016 00:20:00 1.4 C 93 % 0.4 C
294 26-02-2016 00:25:00 1.4 C 93 % 0.4 C
295 26-02-2016 00:30:00 1.4 C 92 % 0.25 C
296 26-02-2016 00:35:00 1.4 C 92 % 0.25 C
297 26-02-2016 00:40:00 1.4 C 92 % 0.25 C
298 26-02-2016 00:45:00 1.5 C 92 % 0.35 C
299 26-02-2016 00:50:00 1.5 C 92 % 0.35 C
300 26-02-2016 00:55:00 1.5 C 92 % 0.35 C
Sensor: Nr:Datum:Temp:Feuchte:Taupunkt:
Aussen-T/F 301 26-02-2016 01:00:00 1.5 C 92 % 0.35 C
302 26-02-2016 01:05:00 1.5 C 92 % 0.35 C
303 26-02-2016 01:10:00 1.4 C 92 % 0.25 C
304 26-02-2016 01:15:00 1.4 C 92 % 0.25 C
305 26-02-2016 01:20:00 1.3 C 92 % 0.15 C
306 26-02-2016 01:25:00 1.3 C 92 % 0.15 C
307 26-02-2016 01:30:00 1.3 C 92 % 0.15 C
308 26-02-2016 01:35:00 1.2 C 92 % 0.05 C
309 26-02-2016 01:40:00 1.2 C 92 % 0.05 C
310 26-02-2016 01:45:00 1.2 C 92 % 0.05 C
311 26-02-2016 01:50:00 1.1 C 92 % -0.05 C
312 26-02-2016 01:55:00 1.1 C 92 % -0.05 C
313 26-02-2016 02:00:00 1.1 C 93 % 0.1 C
314 26-02-2016 02:05:00 1.1 C 93 % 0.1 C
315 26-02-2016 02:10:00 1.1 C 93 % 0.1 C
316 26-02-2016 02:15:00 1.1 C 92 % -0.05 C
317 26-02-2016 02:20:00 1.1 C 93 % 0.1 C
318 26-02-2016 02:25:00 1.1 C 92 % -0.05 C
319 26-02-2016 02:30:00 1.1 C 92 % -0.05 C
320 26-02-2016 02:35:00 1.1 C 92 % -0.05 C
321 26-02-2016 02:40:00 1.1 C 93 % 0.1 C
322 26-02-2016 02:45:00 1.2 C 93 % 0.2 C
323 26-02-2016 02:50:00 1.2 C 93 % 0.2 C
324 26-02-2016 02:55:00 1.2 C 93 % 0.2 C
325 26-02-2016 03:00:00 1.2 C 93 % 0.2 C
Sensor: Nr:Datum:Temp:Feuchte:Taupunkt:
Aussen-T/F 326 26-02-2016 03:05:00 1.2 C 93 % 0.2 C
327 26-02-2016 03:10:00 1.2 C 93 % 0.2 C
328 26-02-2016 03:15:00 1.3 C 93 % 0.3 C
329 26-02-2016 03:20:00 1.3 C 93 % 0.3 C
330 26-02-2016 03:25:00 1.3 C 93 % 0.3 C
331 26-02-2016 03:30:00 1.3 C 93 % 0.3 C
332 26-02-2016 03:35:00 1.3 C 93 % 0.3 C
333 26-02-2016 03:40:00 1.3 C 93 % 0.3 C
334 26-02-2016 03:45:00 1.3 C 93 % 0.3 C
335 26-02-2016 03:50:00 1.3 C 93 % 0.3 C
336 26-02-2016 03:55:00 1.3 C 93 % 0.3 C
337 26-02-2016 04:00:00 1.4 C 93 % 0.4 C
338 26-02-2016 04:05:00 1.4 C 93 % 0.4 C
339 26-02-2016 04:10:00 1.4 C 93 % 0.4 C
340 26-02-2016 04:15:00 1.4 C 93 % 0.4 C
341 26-02-2016 04:20:00 1.3 C 93 % 0.3 C
342 26-02-2016 04:25:00 1.3 C 93 % 0.3 C
343 26-02-2016 04:30:00 1.2 C 93 % 0.2 C
344 26-02-2016 04:35:00 1.2 C 93 % 0.2 C
345 26-02-2016 04:40:00 1.1 C 93 % 0.1 C
346 26-02-2016 04:45:00 0.9 C 93 % -0.1 C
347 26-02-2016 04:50:00 0.8 C 93 % -0.2 C
348 26-02-2016 04:55:00 0.7 C 93 % -0.3 C
349 26-02-2016 05:00:00 0.7 C 93 % -0.3 C
350 26-02-2016 05:05:00 0.6 C 93 % -0.4 C
Sensor: Nr:Datum:Temp:Feuchte:Taupunkt:
Aussen-T/F 351 26-02-2016 05:10:00 0.5 C 93 % -0.5 C
352 26-02-2016 05:15:00 0.4 C 93 % -0.6 C
353 26-02-2016 05:20:00 0.3 C 93 % -0.7 C
354 26-02-2016 05:25:00 0.2 C 93 % -0.79 C
355 26-02-2016 05:30:00 0.2 C 93 % -0.79 C
356 26-02-2016 05:35:00 0.1 C 93 % -0.89 C
357 26-02-2016 05:40:00 0.1 C 93 % -0.89 C
358 26-02-2016 05:45:00 0 C 93 % -0.99 C
359 26-02-2016 05:50:00 -0.1 C 93 % -1.09 C
360 26-02-2016 05:55:00 -0.1 C 93 % -1.09 C
361 26-02-2016 06:00:00 -0.1 C 93 % -1.09 C
362 26-02-2016 06:05:00 -0.1 C 94 % -0.95 C
363 26-02-2016 06:10:00 0 C 94 % -0.85 C
364 26-02-2016 06:15:00 0.1 C 94 % -0.75 C
365 26-02-2016 06:20:00 0.1 C 94 % -0.75 C
366 26-02-2016 06:25:00 0.1 C 94 % -0.75 C
367 26-02-2016 06:30:00 0.1 C 94 % -0.75 C
368 26-02-2016 06:35:00 0.2 C 94 % -0.65 C
369 26-02-2016 06:40:00 0.2 C 94 % -0.65 C
370 26-02-2016 06:45:00 0.2 C 94 % -0.65 C
371 26-02-2016 06:50:00 0.2 C 94 % -0.65 C
372 26-02-2016 06:55:00 0.2 C 94 % -0.65 C
373 26-02-2016 07:00:00 0.2 C 94 % -0.65 C
374 26-02-2016 07:05:00 0.2 C 94 % -0.65 C
375 26-02-2016 07:10:00 0.2 C 94 % -0.65 C
Sensor: Nr:Datum:Temp:Feuchte:Taupunkt:
Aussen-T/F 376 26-02-2016 07:15:00 0.2 C 94 % -0.65 C
377 26-02-2016 07:20:00 0.2 C 94 % -0.65 C
378 26-02-2016 07:25:00 0.2 C 94 % -0.65 C
379 26-02-2016 07:30:00 0.2 C 94 % -0.65 C
380 26-02-2016 07:35:00 0.2 C 94 % -0.65 C
381 26-02-2016 07:40:00 0.2 C 94 % -0.65 C
382 26-02-2016 07:45:00 0.2 C 94 % -0.65 C
383 26-02-2016 07:50:00 0.2 C 94 % -0.65 C
384 26-02-2016 07:55:00 0.2 C 95 % -0.5 C
385 26-02-2016 08:00:00 0.3 C 95 % -0.4 C
386 26-02-2016 08:05:00 0.3 C 95 % -0.4 C
387 26-02-2016 08:10:00 0.4 C 95 % -0.31 C
388 26-02-2016 08:15:00 0.5 C 95 % -0.21 C
389 26-02-2016 08:20:00 0.6 C 95 % -0.11 C
390 26-02-2016 08:25:00 0.6 C 95 % -0.11 C
391 26-02-2016 08:30:00 0.7 C 95 % -0.01 C
392 26-02-2016 08:35:00 0.8 C 95 % 0.09 C
393 26-02-2016 08:40:00 0.8 C 95 % 0.09 C
394 26-02-2016 08:45:00 0.8 C 95 % 0.09 C
395 26-02-2016 08:50:00 0.9 C 95 % 0.19 C
396 26-02-2016 08:55:00 0.9 C 95 % 0.19 C
397 26-02-2016 09:00:00 1 C 95 % 0.29 C
398 26-02-2016 09:05:00 1.1 C 94 % 0.24 C
399 26-02-2016 09:10:00 1.2 C 94 % 0.34 C
400 26-02-2016 09:15:00 1.2 C 94 % 0.34 C
Sensor: Nr:Datum:Temp:Feuchte:Taupunkt:
Aussen-T/F 401 26-02-2016 09:20:00 1.3 C 94 % 0.44 C
402 26-02-2016 09:25:00 1.3 C 94 % 0.44 C
403 26-02-2016 09:30:00 1.4 C 94 % 0.54 C
404 26-02-2016 09:35:00 1.6 C 94 % 0.74 C
405 26-02-2016 09:40:00 1.6 C 94 % 0.74 C
406 26-02-2016 09:45:00 1.7 C 93 % 0.69 C
407 26-02-2016 09:50:00 1.8 C 93 % 0.79 C
408 26-02-2016 09:55:00 1.9 C 93 % 0.89 C
409 26-02-2016 10:00:00 2 C 92 % 0.84 C
410 26-02-2016 10:05:00 2.1 C 92 % 0.94 C
411 26-02-2016 10:10:00 2.3 C 91 % 0.99 C
412 26-02-2016 10:15:00 2.4 C 91 % 1.08 C
413 26-02-2016 10:20:00 2.5 C 90 % 1.03 C
414 26-02-2016 10:25:00 2.6 C 90 % 1.13 C
415 26-02-2016 10:30:00 2.7 C 90 % 1.23 C
416 26-02-2016 10:35:00 2.8 C 89 % 1.17 C
417 26-02-2016 10:40:00 2.9 C 88 % 1.11 C
418 26-02-2016 10:45:00 3.1 C 87 % 1.15 C
419 26-02-2016 10:50:00 3.2 C 86 % 1.09 C
420 26-02-2016 10:55:00 3.3 C 85 % 1.03 C
421 26-02-2016 11:00:00 3.4 C 85 % 1.12 C
422 26-02-2016 11:05:00 3.6 C 85 % 1.32 C
423 26-02-2016 11:10:00 3.7 C 83 % 1.09 C
424 26-02-2016 11:15:00 3.8 C 83 % 1.19 C
425 26-02-2016 11:20:00 3.9 C 82 % 1.12 C
Sensor: Nr:Datum:Temp:Feuchte:Taupunkt:
Aussen-T/F 426 26-02-2016 11:25:00 4.1 C 83 % 1.48 C
427 26-02-2016 11:30:00 4.3 C 82 % 1.51 C
428 26-02-2016 11:35:00 4.4 C 80 % 1.26 C
429 26-02-2016 11:40:00 4.4 C 79 % 1.09 C
430 26-02-2016 11:45:00 4.4 C 78 % 0.91 C
431 26-02-2016 11:50:00 4.4 C 76 % 0.55 C
432 26-02-2016 11:55:00 4.4 C 77 % 0.73 C
433 26-02-2016 12:00:00 4.4 C 75 % 0.37 C
434 26-02-2016 12:05:00 4.4 C 75 % 0.37 C
435 26-02-2016 12:10:00 4.5 C 75 % 0.46 C
436 26-02-2016 12:15:00 4.6 C 75 % 0.56 C
437 26-02-2016 12:20:00 4.6 C 75 % 0.56 C
438 26-02-2016 12:25:00 4.6 C 77 % 0.92 C
439 26-02-2016 12:30:00 4.7 C 77 % 1.02 C
440 26-02-2016 12:35:00 4.7 C 77 % 1.02 C
441 26-02-2016 12:40:00 4.7 C 76 % 0.84 C
442 26-02-2016 12:45:00 4.6 C 77 % 0.92 C
443 26-02-2016 12:50:00 4.6 C 76 % 0.74 C
444 26-02-2016 12:55:00 4.6 C 78 % 1.1 C
445 26-02-2016 13:00:00 4.6 C 76 % 0.74 C
446 26-02-2016 13:05:00 4.7 C 77 % 1.02 C
447 26-02-2016 13:10:00 4.7 C 77 % 1.02 C
448 26-02-2016 13:15:00 4.7 C 76 % 0.84 C
449 26-02-2016 13:20:00 4.7 C 77 % 1.02 C
450 26-02-2016 13:25:00 4.7 C 76 % 0.84 C
Sensor: Nr:Datum:Temp:Feuchte:Taupunkt:
Aussen-T/F 451 26-02-2016 13:30:00 4.7 C 77 % 1.02 C
452 26-02-2016 13:35:00 4.8 C 76 % 0.94 C
453 26-02-2016 13:40:00 4.8 C 76 % 0.94 C
454 26-02-2016 13:45:00 4.9 C 76 % 1.03 C
455 26-02-2016 13:50:00 4.9 C 76 % 1.03 C
456 26-02-2016 13:55:00 4.9 C 75 % 0.85 C
457 26-02-2016 14:00:00 4.9 C 75 % 0.85 C
458 26-02-2016 14:05:00 4.9 C 75 % 0.85 C
459 26-02-2016 14:10:00 5 C 75 % 0.95 C
460 26-02-2016 14:15:00 5 C 75 % 0.95 C
461 26-02-2016 14:20:00 5 C 75 % 0.95 C
462 26-02-2016 14:25:00 5 C 74 % 0.76 C
463 26-02-2016 14:30:00 5.1 C 72 % 0.48 C
464 26-02-2016 14:35:00 5.1 C 74 % 0.86 C
465 26-02-2016 14:40:00 5.1 C 74 % 0.86 C
466 26-02-2016 14:45:00 5.1 C 73 % 0.67 C
467 26-02-2016 14:50:00 5.1 C 73 % 0.67 C
468 26-02-2016 14:55:00 5.1 C 73 % 0.67 C
469 26-02-2016 15:00:00 5.1 C 73 % 0.67 C
470 26-02-2016 15:05:00 5.1 C 73 % 0.67 C
471 26-02-2016 15:10:00 5.1 C 72 % 0.48 C
472 26-02-2016 15:15:00 5.2 C 72 % 0.58 C
473 26-02-2016 15:20:00 5.2 C 69 % -0.01 C
474 26-02-2016 15:25:00 5.2 C 68 % -0.21 C
475 26-02-2016 15:30:00 5.2 C 68 % -0.21 C
Sensor: Nr:Datum:Temp:Feuchte:Taupunkt:
Aussen-T/F 476 26-02-2016 15:35:00 5.2 C 68 % -0.21 C
477 26-02-2016 15:40:00 5.2 C 68 % -0.21 C
478 26-02-2016 15:45:00 5.2 C 68 % -0.21 C
479 26-02-2016 15:50:00 5.2 C 68 % -0.21 C
480 26-02-2016 15:55:00 5.2 C 70 % 0.19 C
481 26-02-2016 16:00:00 5.1 C 72 % 0.48 C
482 26-02-2016 16:05:00 5.1 C 72 % 0.48 C
483 26-02-2016 16:10:00 5 C 72 % 0.38 C
484 26-02-2016 16:15:00 4.9 C 73 % 0.48 C
485 26-02-2016 16:20:00 4.9 C 74 % 0.67 C
486 26-02-2016 16:25:00 4.8 C 73 % 0.38 C
487 26-02-2016 16:30:00 4.8 C 73 % 0.38 C
488 26-02-2016 16:35:00 4.7 C 73 % 0.28 C
489 26-02-2016 16:40:00 4.7 C 74 % 0.47 C
490 26-02-2016 16:45:00 4.7 C 76 % 0.84 C
491 26-02-2016 16:50:00 4.7 C 76 % 0.84 C
492 26-02-2016 16:55:00 4.6 C 75 % 0.56 C
493 26-02-2016 17:00:00 4.6 C 73 % 0.19 C
494 26-02-2016 17:05:00 4.6 C 74 % 0.38 C
495 26-02-2016 17:10:00 4.6 C 74 % 0.38 C
496 26-02-2016 17:15:00 4.6 C 74 % 0.38 C
497 26-02-2016 17:20:00 4.5 C 75 % 0.46 C
498 26-02-2016 17:25:00 4.5 C 74 % 0.28 C
499 26-02-2016 17:30:00 4.4 C 77 % 0.73 C
500 26-02-2016 17:35:00 4.4 C 76 % 0.55 C
Sensor: Nr:Datum:Temp:Feuchte:Taupunkt:
Aussen-T/F 501 26-02-2016 17:40:00 4.3 C 76 % 0.45 C
502 26-02-2016 17:45:00 4.2 C 74 % -0.01 C
503 26-02-2016 17:50:00 4.2 C 73 % -0.2 C
504 26-02-2016 17:55:00 4.1 C 75 % 0.08 C
505 26-02-2016 18:00:00 4.1 C 77 % 0.44 C
506 26-02-2016 18:05:00 3.9 C 75 % -0.12 C
507 26-02-2016 18:10:00 3.8 C 76 % -0.03 C
508 26-02-2016 18:15:00 3.8 C 77 % 0.15 C
509 26-02-2016 18:20:00 3.7 C 78 % 0.23 C
510 26-02-2016 18:25:00 3.6 C 79 % 0.31 C
511 26-02-2016 18:30:00 3.4 C 80 % 0.29 C
512 26-02-2016 18:35:00 3.2 C 79 % -0.08 C
513 26-02-2016 18:40:00 3 C 80 % -0.1 C
514 26-02-2016 18:45:00 2.8 C 80 % -0.3 C
515 26-02-2016 18:50:00 2.6 C 80 % -0.49 C
516 26-02-2016 18:55:00 2.3 C 81 % -0.62 C
517 26-02-2016 19:00:00 2.1 C 81 % -0.81 C
518 26-02-2016 19:05:00 1.9 C 82 % -0.84 C
519 26-02-2016 19:10:00 1.8 C 84 % -0.61 C
520 26-02-2016 19:15:00 1.8 C 84 % -0.61 C
521 26-02-2016 19:20:00 1.8 C 85 % -0.45 C
522 26-02-2016 19:25:00 1.8 C 85 % -0.45 C
523 26-02-2016 19:30:00 1.9 C 86 % -0.19 C
524 26-02-2016 19:35:00 1.9 C 85 % -0.35 C
525 26-02-2016 19:40:00 1.9 C 85 % -0.35 C
Sensor: Nr:Datum:Temp:Feuchte:Taupunkt:
Aussen-T/F 526 26-02-2016 19:45:00 1.9 C 85 % -0.35 C
527 26-02-2016 19:50:00 1.8 C 85 % -0.45 C
528 26-02-2016 19:55:00 1.7 C 85 % -0.54 C
529 26-02-2016 20:00:00 1.7 C 85 % -0.54 C
530 26-02-2016 20:05:00 1.6 C 86 % -0.48 C
531 26-02-2016 20:10:00 1.6 C 86 % -0.48 C
532 26-02-2016 20:15:00 1.6 C 87 % -0.32 C
533 26-02-2016 20:20:00 1.6 C 87 % -0.32 C
534 26-02-2016 20:25:00 1.7 C 87 % -0.23 C
535 26-02-2016 20:30:00 1.7 C 87 % -0.23 C
536 26-02-2016 20:35:00 1.8 C 87 % -0.13 C
537 26-02-2016 20:40:00 1.8 C 87 % -0.13 C
538 26-02-2016 20:45:00 1.8 C 87 % -0.13 C
539 26-02-2016 20:50:00 1.9 C 87 % -0.03 C
540 26-02-2016 20:55:00 1.9 C 87 % -0.03 C
541 26-02-2016 21:00:00 2 C 86 % -0.09 C
542 26-02-2016 21:05:00 2 C 86 % -0.09 C
543 26-02-2016 21:10:00 2 C 86 % -0.09 C
544 26-02-2016 21:15:00 2 C 86 % -0.09 C
545 26-02-2016 21:20:00 2.1 C 86 % 0.01 C
546 26-02-2016 21:25:00 2 C 86 % -0.09 C
547 26-02-2016 21:30:00 2 C 86 % -0.09 C
548 26-02-2016 21:35:00 2 C 86 % -0.09 C
549 26-02-2016 21:40:00 2 C 85 % -0.25 C
550 26-02-2016 21:45:00 2 C 86 % -0.09 C
Sensor: Nr:Datum:Temp:Feuchte:Taupunkt:
Aussen-T/F 551 26-02-2016 21:50:00 1.9 C 86 % -0.19 C
552 26-02-2016 21:55:00 1.9 C 86 % -0.19 C
553 26-02-2016 22:00:00 1.9 C 86 % -0.19 C
554 26-02-2016 22:05:00 1.9 C 86 % -0.19 C
555 26-02-2016 22:10:00 1.9 C 85 % -0.35 C
556 26-02-2016 22:15:00 1.9 C 85 % -0.35 C
557 26-02-2016 22:20:00 1.8 C 84 % -0.61 C
558 26-02-2016 22:25:00 1.8 C 84 % -0.61 C
559 26-02-2016 22:30:00 1.7 C 84 % -0.71 C
560 26-02-2016 22:35:00 1.7 C 84 % -0.71 C
561 26-02-2016 22:40:00 1.7 C 85 % -0.54 C
562 26-02-2016 22:45:00 1.7 C 85 % -0.54 C
563 26-02-2016 22:50:00 1.7 C 85 % -0.54 C
564 26-02-2016 22:55:00 1.7 C 85 % -0.54 C
565 26-02-2016 23:00:00 1.7 C 85 % -0.54 C
566 26-02-2016 23:05:00 1.7 C 84 % -0.71 C
567 26-02-2016 23:10:00 1.7 C 84 % -0.71 C
568 26-02-2016 23:15:00 1.7 C 84 % -0.71 C
569 26-02-2016 23:20:00 1.7 C 83 % -0.87 C
570 26-02-2016 23:25:00 1.8 C 84 % -0.61 C
571 26-02-2016 23:30:00 1.8 C 84 % -0.61 C
572 26-02-2016 23:35:00 1.8 C 84 % -0.61 C
573 26-02-2016 23:40:00 1.7 C 85 % -0.54 C
574 26-02-2016 23:45:00 1.7 C 84 % -0.71 C
575 26-02-2016 23:50:00 1.7 C 84 % -0.71 C
Sensor: Nr:Datum:Temp:Feuchte:Taupunkt:
Aussen-T/F 576 26-02-2016 23:55:00 1.7 C 84 % -0.71 C
577 27-02-2016 00:00:00 1.7 C 84 % -0.71 C
578 27-02-2016 00:05:00 1.7 C 84 % -0.71 C
579 27-02-2016 00:10:00 1.7 C 83 % -0.87 C
580 27-02-2016 00:15:00 1.7 C 83 % -0.87 C
581 27-02-2016 00:20:00 1.8 C 83 % -0.77 C
582 27-02-2016 00:25:00 1.8 C 83 % -0.77 C
583 27-02-2016 00:30:00 1.8 C 83 % -0.77 C
584 27-02-2016 00:35:00 1.8 C 83 % -0.77 C
585 27-02-2016 00:40:00 1.8 C 84 % -0.61 C
586 27-02-2016 00:45:00 1.8 C 84 % -0.61 C
587 27-02-2016 00:50:00 1.8 C 84 % -0.61 C
588 27-02-2016 00:55:00 1.8 C 84 % -0.61 C
589 27-02-2016 01:00:00 1.8 C 85 % -0.45 C
590 27-02-2016 01:05:00 1.8 C 85 % -0.45 C
591 27-02-2016 01:10:00 1.8 C 85 % -0.45 C
592 27-02-2016 01:15:00 1.8 C 86 % -0.29 C
593 27-02-2016 01:20:00 1.8 C 85 % -0.45 C
594 27-02-2016 01:25:00 1.7 C 85 % -0.54 C
595 27-02-2016 01:30:00 1.8 C 85 % -0.45 C
596 27-02-2016 01:35:00 1.7 C 85 % -0.54 C
597 27-02-2016 01:40:00 1.7 C 84 % -0.71 C
598 27-02-2016 01:45:00 1.7 C 84 % -0.71 C
599 27-02-2016 01:50:00 1.7 C 84 % -0.71 C
600 27-02-2016 01:55:00 1.7 C 84 % -0.71 C
Sensor: Nr:Datum:Temp:Feuchte:Taupunkt:
Aussen-T/F 601 27-02-2016 02:00:00 1.7 C 84 % -0.71 C
602 27-02-2016 02:05:00 1.7 C 84 % -0.71 C
603 27-02-2016 02:10:00 1.7 C 84 % -0.71 C
604 27-02-2016 02:15:00 1.7 C 84 % -0.71 C
605 27-02-2016 02:20:00 1.7 C 85 % -0.54 C
606 27-02-2016 02:25:00 1.7 C 84 % -0.71 C
607 27-02-2016 02:30:00 1.7 C 85 % -0.54 C
608 27-02-2016 02:35:00 1.7 C 85 % -0.54 C
609 27-02-2016 02:40:00 1.6 C 85 % -0.64 C
610 27-02-2016 02:45:00 1.6 C 85 % -0.64 C
611 27-02-2016 02:50:00 1.6 C 85 % -0.64 C
612 27-02-2016 02:55:00 1.6 C 85 % -0.64 C
613 27-02-2016 03:00:00 1.6 C 85 % -0.64 C
614 27-02-2016 03:05:00 1.5 C 85 % -0.74 C
615 27-02-2016 03:10:00 1.4 C 85 % -0.84 C
616 27-02-2016 03:15:00 1.4 C 85 % -0.84 C
617 27-02-2016 03:20:00 1.4 C 85 % -0.84 C
618 27-02-2016 03:25:00 1.4 C 85 % -0.84 C
619 27-02-2016 03:30:00 1.3 C 85 % -0.94 C
620 27-02-2016 03:35:00 1.3 C 85 % -0.94 C
621 27-02-2016 03:40:00 1.2 C 85 % -1.03 C
622 27-02-2016 03:45:00 1.1 C 85 % -1.13 C
623 27-02-2016 03:50:00 1 C 85 % -1.23 C
624 27-02-2016 03:55:00 0.9 C 85 % -1.33 C
625 27-02-2016 04:00:00 0.9 C 85 % -1.33 C
Sensor: Nr:Datum:Temp:Feuchte:Taupunkt:
Aussen-T/F 626 27-02-2016 04:05:00 0.8 C 85 % -1.43 C
627 27-02-2016 04:10:00 0.7 C 85 % -1.53 C
628 27-02-2016 04:15:00 0.5 C 84 % -1.88 C
629 27-02-2016 04:20:00 0.4 C 85 % -1.82 C
630 27-02-2016 04:25:00 0.3 C 85 % -1.92 C
631 27-02-2016 04:30:00 0.2 C 86 % -1.86 C
632 27-02-2016 04:35:00 0.1 C 86 % -1.96 C
633 27-02-2016 04:40:00 -0.1 C 86 % -2.16 C
634 27-02-2016 04:45:00 -0.2 C 86 % -2.25 C
635 27-02-2016 04:50:00 -0.2 C 87 % -2.1 C
636 27-02-2016 04:55:00 -0.3 C 87 % -2.2 C
637 27-02-2016 05:00:00 -0.3 C 87 % -2.2 C
638 27-02-2016 05:05:00 -0.4 C 87 % -2.29 C
639 27-02-2016 05:10:00 -0.4 C 87 % -2.29 C
640 27-02-2016 05:15:00 -0.5 C 87 % -2.39 C
641 27-02-2016 05:20:00 -0.6 C 87 % -2.49 C
642 27-02-2016 05:25:00 -0.6 C 87 % -2.49 C
643 27-02-2016 05:30:00 -0.7 C 87 % -2.59 C
644 27-02-2016 05:35:00 -0.7 C 87 % -2.59 C
645 27-02-2016 05:40:00 -0.7 C 88 % -2.44 C
646 27-02-2016 05:45:00 -0.7 C 87 % -2.59 C
647 27-02-2016 05:50:00 -0.7 C 87 % -2.59 C
648 27-02-2016 05:55:00 -0.7 C 88 % -2.44 C
649 27-02-2016 06:00:00 -0.7 C 88 % -2.44 C
650 27-02-2016 06:05:00 -0.8 C 87 % -2.69 C
Sensor: Nr:Datum:Temp:Feuchte:Taupunkt:
Aussen-T/F 651 27-02-2016 06:10:00 -0.8 C 88 % -2.53 C
652 27-02-2016 06:15:00 -0.8 C 87 % -2.69 C
653 27-02-2016 06:20:00 -0.8 C 87 % -2.69 C
654 27-02-2016 06:25:00 -0.8 C 88 % -2.53 C
655 27-02-2016 06:30:00 -0.7 C 87 % -2.59 C
656 27-02-2016 06:35:00 -0.7 C 87 % -2.59 C
657 27-02-2016 06:40:00 -0.7 C 87 % -2.59 C
658 27-02-2016 06:45:00 -0.7 C 87 % -2.59 C
659 27-02-2016 06:50:00 -0.8 C 87 % -2.69 C
660 27-02-2016 06:55:00 -0.8 C 87 % -2.69 C
661 27-02-2016 07:00:00 -0.8 C 87 % -2.69 C
662 27-02-2016 07:05:00 -0.8 C 87 % -2.69 C
663 27-02-2016 07:10:00 -0.8 C 88 % -2.53 C
664 27-02-2016 07:15:00 -0.8 C 87 % -2.69 C
665 27-02-2016 07:20:00 -0.8 C 87 % -2.69 C
666 27-02-2016 07:25:00 -0.8 C 88 % -2.53 C
667 27-02-2016 07:30:00 -0.8 C 87 % -2.69 C
668 27-02-2016 07:35:00 -0.9 C 87 % -2.79 C
669 27-02-2016 07:40:00 -0.8 C 87 % -2.69 C
670 27-02-2016 07:45:00 -0.8 C 87 % -2.69 C
671 27-02-2016 07:50:00 -0.8 C 87 % -2.69 C
672 27-02-2016 07:55:00 -0.7 C 87 % -2.59 C
673 27-02-2016 08:00:00 -0.7 C 87 % -2.59 C
674 27-02-2016 08:05:00 -0.7 C 87 % -2.59 C
675 27-02-2016 08:10:00 -0.7 C 87 % -2.59 C
Sensor: Nr:Datum:Temp:Feuchte:Taupunkt:
Aussen-T/F 676 27-02-2016 08:15:00 -0.6 C 88 % -2.34 C
677 27-02-2016 08:20:00 -0.6 C 88 % -2.34 C
678 27-02-2016 08:25:00 -0.6 C 87 % -2.49 C
679 27-02-2016 08:30:00 -0.6 C 88 % -2.34 C
680 27-02-2016 08:35:00 -0.6 C 88 % -2.34 C
681 27-02-2016 08:40:00 -0.6 C 88 % -2.34 C
682 27-02-2016 08:45:00 -0.6 C 88 % -2.34 C
683 27-02-2016 08:50:00 -0.6 C 88 % -2.34 C
684 27-02-2016 08:55:00 -0.6 C 88 % -2.34 C
685 27-02-2016 09:00:00 -0.6 C 88 % -2.34 C
686 27-02-2016 09:05:00 -0.5 C 88 % -2.24 C
687 27-02-2016 09:10:00 -0.5 C 88 % -2.24 C
688 27-02-2016 09:15:00 -0.4 C 88 % -2.14 C
689 27-02-2016 09:20:00 -0.4 C 88 % -2.14 C
690 27-02-2016 09:25:00 -0.3 C 88 % -2.04 C
691 27-02-2016 09:30:00 -0.3 C 88 % -2.04 C
692 27-02-2016 09:35:00 -0.2 C 88 % -1.94 C
693 27-02-2016 09:40:00 -0.2 C 88 % -1.94 C
694 27-02-2016 09:45:00 -0.1 C 88 % -1.84 C
695 27-02-2016 09:50:00 -0.1 C 87 % -2 C
696 27-02-2016 09:55:00 0 C 87 % -1.9 C
697 27-02-2016 10:00:00 0.1 C 87 % -1.8 C
698 27-02-2016 10:05:00 0.1 C 87 % -1.8 C
699 27-02-2016 10:10:00 0.2 C 86 % -1.86 C
700 27-02-2016 10:15:00 0.3 C 86 % -1.76 C
Sensor: Nr:Datum:Temp:Feuchte:Taupunkt:
Aussen-T/F 701 27-02-2016 10:20:00 0.3 C 86 % -1.76 C
702 27-02-2016 10:25:00 0.4 C 86 % -1.66 C
703 27-02-2016 10:30:00 0.6 C 86 % -1.46 C
704 27-02-2016 10:35:00 0.7 C 86 % -1.37 C
705 27-02-2016 10:40:00 1 C 82 % -1.72 C
706 27-02-2016 10:45:00 1.4 C 83 % -1.16 C
707 27-02-2016 10:50:00 1.7 C 83 % -0.87 C
708 27-02-2016 10:55:00 1.8 C 82 % -0.94 C
709 27-02-2016 11:00:00 2.1 C 80 % -0.98 C
710 27-02-2016 11:05:00 2.4 C 78 % -1.03 C
711 27-02-2016 11:10:00 2.8 C 79 % -0.47 C
712 27-02-2016 11:15:00 3.2 C 77 % -0.43 C
713 27-02-2016 11:20:00 3.5 C 72 % -1.06 C
714 27-02-2016 11:25:00 3.6 C 72 % -0.96 C
715 27-02-2016 11:30:00 3.6 C 74 % -0.59 C
716 27-02-2016 11:35:00 3.6 C 74 % -0.59 C
717 27-02-2016 11:40:00 3.6 C 71 % -1.15 C
718 27-02-2016 11:45:00 3.7 C 71 % -1.06 C
719 27-02-2016 11:50:00 3.7 C 71 % -1.06 C
720 27-02-2016 11:55:00 3.8 C 68 % -1.55 C
721 27-02-2016 12:00:00 3.9 C 69 % -1.26 C
722 27-02-2016 12:05:00 4.1 C 66 % -1.67 C
723 27-02-2016 12:10:00 4.3 C 70 % -0.68 C
724 27-02-2016 12:15:00 4.4 C 66 % -1.38 C
725 27-02-2016 12:20:00 4.6 C 65 % -1.4 C
Sensor: Nr:Datum:Temp:Feuchte:Taupunkt:
Aussen-T/F 726 27-02-2016 12:25:00 4.7 C 63 % -1.73 C
727 27-02-2016 12:30:00 4.8 C 62 % -1.85 C
728 27-02-2016 12:35:00 5.1 C 61 % -1.79 C
729 27-02-2016 12:40:00 5.2 C 60 % -1.92 C
730 27-02-2016 12:45:00 5.2 C 61 % -1.69 C
731 27-02-2016 12:50:00 5.3 C 61 % -1.6 C
732 27-02-2016 12:55:00 5.3 C 58 % -2.28 C
733 27-02-2016 13:00:00 5.4 C 58 % -2.18 C
734 27-02-2016 13:05:00 5.6 C 58 % -2 C
735 27-02-2016 13:10:00 5.7 C 60 % -1.44 C
736 27-02-2016 13:15:00 5.7 C 57 % -2.14 C
737 27-02-2016 13:20:00 5.8 C 57 % -2.04 C
738 27-02-2016 13:25:00 5.9 C 57 % -1.95 C
739 27-02-2016 13:30:00 6.1 C 56 % -2 C
740 27-02-2016 13:35:00 6.2 C 57 % -1.67 C
741 27-02-2016 13:40:00 6.2 C 55 % -2.15 C
742 27-02-2016 13:45:00 6.5 C 55 % -1.87 C
743 27-02-2016 13:50:00 6.5 C 53 % -2.37 C
744 27-02-2016 13:55:00 6.6 C 54 % -2.03 C
745 27-02-2016 14:00:00 6.6 C 53 % -2.28 C
746 27-02-2016 14:05:00 6.7 C 54 % -1.94 C
747 27-02-2016 14:10:00 6.7 C 54 % -1.94 C
748 27-02-2016 14:15:00 6.7 C 55 % -1.69 C
749 27-02-2016 14:20:00 6.7 C 55 % -1.69 C
750 27-02-2016 14:25:00 6.8 C 55 % -1.59 C
Sensor: Nr:Datum:Temp:Feuchte:Taupunkt:
Aussen-T/F 751 27-02-2016 14:30:00 6.8 C 54 % -1.84 C
752 27-02-2016 14:35:00 6.8 C 53 % -2.09 C
753 27-02-2016 14:40:00 6.9 C 54 % -1.75 C
754 27-02-2016 14:45:00 6.9 C 54 % -1.75 C
755 27-02-2016 14:50:00 6.9 C 53 % -2 C
756 27-02-2016 14:55:00 6.8 C 53 % -2.09 C
757 27-02-2016 15:00:00 6.8 C 54 % -1.84 C
758 27-02-2016 15:05:00 6.9 C 55 % -1.5 C
759 27-02-2016 15:10:00 6.9 C 55 % -1.5 C
760 27-02-2016 15:15:00 7 C 55 % -1.41 C
761 27-02-2016 15:20:00 7.1 C 55 % -1.31 C
762 27-02-2016 15:25:00 7.1 C 55 % -1.31 C
763 27-02-2016 15:30:00 7.2 C 56 % -0.98 C
764 27-02-2016 15:35:00 7.3 C 54 % -1.38 C
765 27-02-2016 15:40:00 7.3 C 55 % -1.13 C
766 27-02-2016 15:45:00 7.3 C 56 % -0.88 C
767 27-02-2016 15:50:00 7.3 C 54 % -1.38 C
768 27-02-2016 15:55:00 7.3 C 54 % -1.38 C
769 27-02-2016 16:00:00 7.3 C 56 % -0.88 C
770 27-02-2016 16:05:00 7.4 C 55 % -1.03 C
771 27-02-2016 16:10:00 7.4 C 55 % -1.03 C
772 27-02-2016 16:15:00 7.4 C 55 % -1.03 C
773 27-02-2016 16:20:00 7.4 C 55 % -1.03 C
774 27-02-2016 16:25:00 7.4 C 55 % -1.03 C
775 27-02-2016 16:30:00 7.4 C 55 % -1.03 C
Sensor: Nr:Datum:Temp:Feuchte:Taupunkt:
Aussen-T/F 776 27-02-2016 16:35:00 7.3 C 55 % -1.13 C
777 27-02-2016 16:40:00 7.3 C 57 % -0.64 C
778 27-02-2016 16:45:00 7.2 C 57 % -0.73 C
779 27-02-2016 16:50:00 7.3 C 57 % -0.64 C
780 27-02-2016 16:55:00 7.2 C 56 % -0.98 C
781 27-02-2016 17:00:00 7.2 C 60 % -0.03 C
782 27-02-2016 17:05:00 6.9 C 61 % -0.09 C
783 27-02-2016 17:10:00 6.8 C 59 % -0.64 C
784 27-02-2016 17:15:00 6.8 C 61 % -0.18 C
785 27-02-2016 17:20:00 6.8 C 58 % -0.87 C
786 27-02-2016 17:25:00 6.8 C 60 % -0.41 C
787 27-02-2016 17:30:00 6.6 C 60 % -0.6 C
788 27-02-2016 17:35:00 6.4 C 64 % 0.1 C
789 27-02-2016 17:40:00 6 C 66 % 0.14 C
790 27-02-2016 17:45:00 5.6 C 66 % -0.24 C
791 27-02-2016 17:50:00 5.3 C 68 % -0.12 C
792 27-02-2016 17:55:00 4.9 C 68 % -0.5 C
793 27-02-2016 18:00:00 4.7 C 71 % -0.1 C
794 27-02-2016 18:05:00 4.4 C 72 % -0.19 C
795 27-02-2016 18:10:00 4.1 C 73 % -0.29 C
796 27-02-2016 18:15:00 3.8 C 74 % -0.4 C
797 27-02-2016 18:20:00 3.6 C 74 % -0.59 C
798 27-02-2016 18:25:00 3.3 C 76 % -0.52 C
799 27-02-2016 18:30:00 3.2 C 76 % -0.61 C
800 27-02-2016 18:35:00 3.1 C 77 % -0.53 C
Sensor: Nr:Datum:Temp:Feuchte:Taupunkt:
Aussen-T/F 801 27-02-2016 18:40:00 2.9 C 78 % -0.55 C
802 27-02-2016 18:45:00 2.8 C 78 % -0.65 C
803 27-02-2016 18:50:00 2.8 C 78 % -0.65 C
804 27-02-2016 18:55:00 2.8 C 78 % -0.65 C
805 27-02-2016 19:00:00 2.7 C 78 % -0.74 C
806 27-02-2016 19:05:00 2.7 C 78 % -0.74 C
807 27-02-2016 19:10:00 2.6 C 79 % -0.67 C
808 27-02-2016 19:15:00 2.6 C 79 % -0.67 C
809 27-02-2016 19:20:00 2.5 C 79 % -0.76 C
810 27-02-2016 19:25:00 2.5 C 79 % -0.76 C
811 27-02-2016 19:30:00 2.4 C 79 % -0.86 C
812 27-02-2016 19:35:00 2.4 C 79 % -0.86 C
813 27-02-2016 19:40:00 2.3 C 80 % -0.79 C
814 27-02-2016 19:45:00 2.3 C 79 % -0.96 C
815 27-02-2016 19:50:00 2.2 C 80 % -0.88 C
816 27-02-2016 19:55:00 2.2 C 80 % -0.88 C
817 27-02-2016 20:00:00 2.2 C 80 % -0.88 C
818 27-02-2016 20:05:00 2.2 C 81 % -0.71 C
819 27-02-2016 20:10:00 2.1 C 81 % -0.81 C
820 27-02-2016 20:15:00 1.9 C 81 % -1.01 C
821 27-02-2016 20:20:00 1.8 C 81 % -1.1 C
822 27-02-2016 20:25:00 1.7 C 82 % -1.03 C
823 27-02-2016 20:30:00 1.6 C 82 % -1.13 C
824 27-02-2016 20:35:00 1.6 C 82 % -1.13 C
825 27-02-2016 20:40:00 1.6 C 82 % -1.13 C
Sensor: Nr:Datum:Temp:Feuchte:Taupunkt:
Aussen-T/F 826 27-02-2016 20:45:00 1.6 C 82 % -1.13 C
827 27-02-2016 20:50:00 1.6 C 82 % -1.13 C
828 27-02-2016 20:55:00 1.6 C 82 % -1.13 C
829 27-02-2016 21:00:00 1.5 C 82 % -1.23 C
830 27-02-2016 21:05:00 1.5 C 82 % -1.23 C
831 27-02-2016 21:10:00 1.4 C 82 % -1.33 C
832 27-02-2016 21:15:00 1.4 C 82 % -1.33 C
833 27-02-2016 21:20:00 1.4 C 82 % -1.33 C
834 27-02-2016 21:25:00 1.3 C 82 % -1.43 C
835 27-02-2016 21:30:00 1.3 C 82 % -1.43 C
836 27-02-2016 21:35:00 1.2 C 82 % -1.52 C
837 27-02-2016 21:40:00 1.2 C 83 % -1.36 C
838 27-02-2016 21:45:00 1.1 C 83 % -1.46 C
839 27-02-2016 21:50:00 1.1 C 83 % -1.46 C
840 27-02-2016 21:55:00 1.1 C 84 % -1.29 C
841 27-02-2016 22:00:00 1.1 C 84 % -1.29 C
842 27-02-2016 22:05:00 0.9 C 84 % -1.49 C
843 27-02-2016 22:10:00 0.8 C 84 % -1.59 C
844 27-02-2016 22:15:00 0.9 C 85 % -1.33 C
845 27-02-2016 22:20:00 0.9 C 85 % -1.33 C
846 27-02-2016 22:25:00 0.8 C 85 % -1.43 C
847 27-02-2016 22:30:00 0.8 C 85 % -1.43 C
848 27-02-2016 22:35:00 0.8 C 86 % -1.27 C
849 27-02-2016 22:40:00 0.8 C 86 % -1.27 C
850 27-02-2016 22:45:00 0.8 C 85 % -1.43 C
Sensor: Nr:Datum:Temp:Feuchte:Taupunkt:
Aussen-T/F 851 27-02-2016 22:50:00 0.8 C 86 % -1.27 C
852 27-02-2016 22:55:00 0.8 C 86 % -1.27 C
853 27-02-2016 23:00:00 0.7 C 86 % -1.37 C
854 27-02-2016 23:05:00 0.7 C 86 % -1.37 C
855 27-02-2016 23:10:00 0.8 C 86 % -1.27 C
856 27-02-2016 23:15:00 0.9 C 86 % -1.17 C
857 27-02-2016 23:20:00 0.9 C 86 % -1.17 C
858 27-02-2016 23:25:00 0.8 C 86 % -1.27 C
859 27-02-2016 23:30:00 0.8 C 86 % -1.27 C
860 27-02-2016 23:35:00 0.7 C 86 % -1.37 C
861 27-02-2016 23:40:00 0.6 C 86 % -1.46 C
862 27-02-2016 23:45:00 0.6 C 86 % -1.46 C
863 27-02-2016 23:50:00 0.5 C 87 % -1.41 C
864 27-02-2016 23:55:00 0.5 C 87 % -1.41 C
865 28-02-2016 00:00:00 0.4 C 87 % -1.5 C
866 28-02-2016 00:05:00 0.4 C 87 % -1.5 C
867 28-02-2016 00:10:00 0.4 C 87 % -1.5 C
868 28-02-2016 00:15:00 0.4 C 87 % -1.5 C
869 28-02-2016 00:20:00 0.3 C 87 % -1.6 C
870 28-02-2016 00:25:00 0.3 C 87 % -1.6 C
871 28-02-2016 00:30:00 0.2 C 87 % -1.7 C
872 28-02-2016 00:35:00 0.2 C 87 % -1.7 C
873 28-02-2016 00:40:00 0.2 C 87 % -1.7 C
874 28-02-2016 00:45:00 0.1 C 87 % -1.8 C
875 28-02-2016 00:50:00 0.1 C 87 % -1.8 C
Sensor: Nr:Datum:Temp:Feuchte:Taupunkt:
Aussen-T/F 876 28-02-2016 00:55:00 0 C 88 % -1.74 C
877 28-02-2016 01:00:00 -0.1 C 88 % -1.84 C
878 28-02-2016 01:05:00 -0.1 C 87 % -2 C
879 28-02-2016 01:10:00 -0.1 C 88 % -1.84 C
880 28-02-2016 01:15:00 -0.1 C 88 % -1.84 C
881 28-02-2016 01:20:00 -0.2 C 88 % -1.94 C
882 28-02-2016 01:25:00 -0.3 C 88 % -2.04 C
883 28-02-2016 01:30:00 -0.3 C 88 % -2.04 C
884 28-02-2016 01:35:00 -0.3 C 89 % -1.89 C
885 28-02-2016 01:40:00 -0.4 C 88 % -2.14 C
886 28-02-2016 01:45:00 -0.4 C 89 % -1.99 C
887 28-02-2016 01:50:00 -0.5 C 88 % -2.24 C
888 28-02-2016 01:55:00 -0.6 C 89 % -2.18 C
889 28-02-2016 02:00:00 -0.7 C 89 % -2.28 C
890 28-02-2016 02:05:00 -0.8 C 89 % -2.38 C
891 28-02-2016 02:10:00 -0.8 C 89 % -2.38 C
892 28-02-2016 02:15:00 -0.9 C 89 % -2.48 C
893 28-02-2016 02:20:00 -0.9 C 89 % -2.48 C
894 28-02-2016 02:25:00 -1 C 90 % -2.43 C
895 28-02-2016 02:30:00 -1 C 90 % -2.43 C
896 28-02-2016 02:35:00 -1 C 90 % -2.43 C
897 28-02-2016 02:40:00 -1 C 90 % -2.43 C
898 28-02-2016 02:45:00 -1.1 C 90 % -2.53 C
899 28-02-2016 02:50:00 -1.1 C 90 % -2.53 C
900 28-02-2016 02:55:00 -1.2 C 90 % -2.63 C
Sensor: Nr:Datum:Temp:Feuchte:Taupunkt:
Aussen-T/F 901 28-02-2016 03:00:00 -1.2 C 90 % -2.63 C
902 28-02-2016 03:05:00 -1.3 C 90 % -2.73 C
903 28-02-2016 03:10:00 -1.2 C 91 % -2.48 C
904 28-02-2016 03:15:00 -1.2 C 91 % -2.48 C
905 28-02-2016 03:20:00 -1.2 C 90 % -2.63 C
906 28-02-2016 03:25:00 -1.1 C 90 % -2.53 C
907 28-02-2016 03:30:00 -1.1 C 90 % -2.53 C
908 28-02-2016 03:35:00 -1.1 C 90 % -2.53 C
909 28-02-2016 03:40:00 -1.1 C 90 % -2.53 C
910 28-02-2016 03:45:00 -1.1 C 90 % -2.53 C
911 28-02-2016 03:50:00 -1.2 C 90 % -2.63 C
912 28-02-2016 03:55:00 -1.2 C 90 % -2.63 C
913 28-02-2016 04:00:00 -1.2 C 90 % -2.63 C
914 28-02-2016 04:05:00 -1.2 C 90 % -2.63 C
915 28-02-2016 04:10:00 -1.2 C 90 % -2.63 C
916 28-02-2016 04:15:00 -1.3 C 90 % -2.73 C
917 28-02-2016 04:20:00 -1.3 C 90 % -2.73 C
918 28-02-2016 04:25:00 -1.4 C 90 % -2.82 C
919 28-02-2016 04:30:00 -1.4 C 90 % -2.82 C
920 28-02-2016 04:35:00 -1.4 C 90 % -2.82 C
921 28-02-2016 04:40:00 -1.4 C 91 % -2.68 C
922 28-02-2016 04:45:00 -1.4 C 91 % -2.68 C
923 28-02-2016 04:50:00 -1.4 C 91 % -2.68 C
924 28-02-2016 04:55:00 -1.4 C 91 % -2.68 C
925 28-02-2016 05:00:00 -1.4 C 90 % -2.82 C
Sensor: Nr:Datum:Temp:Feuchte:Taupunkt:
Aussen-T/F 926 28-02-2016 05:05:00 -1.3 C 91 % -2.58 C
927 28-02-2016 05:10:00 -1.3 C 91 % -2.58 C
928 28-02-2016 05:15:00 -1.3 C 90 % -2.73 C
929 28-02-2016 05:20:00 -1.3 C 90 % -2.73 C
930 28-02-2016 05:25:00 -1.3 C 90 % -2.73 C
931 28-02-2016 05:30:00 -1.3 C 90 % -2.73 C
932 28-02-2016 05:35:00 -1.3 C 90 % -2.73 C
933 28-02-2016 05:40:00 -1.3 C 90 % -2.73 C
934 28-02-2016 05:45:00 -1.3 C 90 % -2.73 C
935 28-02-2016 05:50:00 -1.4 C 90 % -2.82 C
936 28-02-2016 05:55:00 -1.4 C 89 % -2.97 C
937 28-02-2016 06:00:00 -1.5 C 90 % -2.92 C
938 28-02-2016 06:05:00 -1.6 C 89 % -3.17 C
939 28-02-2016 06:10:00 -1.7 C 90 % -3.12 C
940 28-02-2016 06:15:00 -1.7 C 90 % -3.12 C
941 28-02-2016 06:20:00 -1.7 C 91 % -2.97 C
942 28-02-2016 06:25:00 -1.6 C 91 % -2.87 C
943 28-02-2016 06:30:00 -1.5 C 91 % -2.77 C
944 28-02-2016 06:35:00 -1.4 C 90 % -2.82 C
945 28-02-2016 06:40:00 -1.4 C 90 % -2.82 C
946 28-02-2016 06:45:00 -1.3 C 90 % -2.73 C
947 28-02-2016 06:50:00 -1.3 C 90 % -2.73 C
948 28-02-2016 06:55:00 -1.3 C 90 % -2.73 C
949 28-02-2016 07:00:00 -1.3 C 89 % -2.88 C
950 28-02-2016 07:05:00 -1.3 C 89 % -2.88 C
Sensor: Nr:Datum:Temp:Feuchte:Taupunkt:
Aussen-T/F 951 28-02-2016 07:10:00 -1.4 C 89 % -2.97 C
952 28-02-2016 07:15:00 -1.4 C 89 % -2.97 C
953 28-02-2016 07:20:00 -1.5 C 89 % -3.07 C
954 28-02-2016 07:25:00 -1.6 C 89 % -3.17 C
955 28-02-2016 07:30:00 -1.6 C 90 % -3.02 C
956 28-02-2016 07:35:00 -1.4 C 90 % -2.82 C
957 28-02-2016 07:40:00 -1.3 C 91 % -2.58 C
958 28-02-2016 07:45:00 -1.2 C 90 % -2.63 C
959 28-02-2016 07:50:00 -1.1 C 90 % -2.53 C
960 28-02-2016 07:55:00 -1.1 C 90 % -2.53 C
961 28-02-2016 08:00:00 -1 C 90 % -2.43 C
962 28-02-2016 08:05:00 -1 C 90 % -2.43 C
963 28-02-2016 08:10:00 -1 C 90 % -2.43 C
964 28-02-2016 08:15:00 -1 C 90 % -2.43 C
965 28-02-2016 08:20:00 -1.1 C 90 % -2.53 C
966 28-02-2016 08:25:00 -1 C 90 % -2.43 C
967 28-02-2016 08:30:00 -0.9 C 90 % -2.33 C
968 28-02-2016 08:35:00 -0.8 C 90 % -2.23 C
969 28-02-2016 08:40:00 -0.7 C 90 % -2.13 C
970 28-02-2016 08:45:00 -0.6 C 90 % -2.03 C
971 28-02-2016 08:50:00 -0.4 C 90 % -1.84 C
972 28-02-2016 08:55:00 -0.3 C 89 % -1.89 C
973 28-02-2016 09:00:00 -0.2 C 89 % -1.79 C
974 28-02-2016 09:05:00 -0.1 C 88 % -1.84 C
975 28-02-2016 09:10:00 0 C 88 % -1.74 C
Sensor: Nr:Datum:Temp:Feuchte:Taupunkt:
Aussen-T/F 976 28-02-2016 09:15:00 0.1 C 88 % -1.65 C
977 28-02-2016 09:20:00 0.2 C 86 % -1.86 C
978 28-02-2016 09:25:00 0.4 C 86 % -1.66 C
979 28-02-2016 09:30:00 0.6 C 85 % -1.62 C
980 28-02-2016 09:35:00 0.7 C 85 % -1.53 C
981 28-02-2016 09:40:00 0.8 C 84 % -1.59 C
982 28-02-2016 10:35:00 2.4 C 77 % -1.21 C
983 28-02-2016 10:55:00 2.6 C 77 % -1.02 C
984 28-02-2016 11:00:00 2.9 C 76 % -0.9 C
985 28-02-2016 11:05:00 3.2 C 75 % -0.79 C
986 28-02-2016 11:10:00 3.4 C 74 % -0.78 C
987 28-02-2016 11:15:00 3.6 C 74 % -0.59 C
988 28-02-2016 11:20:00 3.7 C 71 % -1.06 C
989 28-02-2016 11:25:00 3.8 C 71 % -0.96 C
990 28-02-2016 11:30:00 3.9 C 71 % -0.87 C
991 28-02-2016 11:35:00 4.2 C 70 % -0.77 C
992 28-02-2016 11:40:00 4.4 C 69 % -0.78 C
993 28-02-2016 11:45:00 4.6 C 69 % -0.58 C
994 28-02-2016 11:50:00 4.7 C 68 % -0.69 C
995 28-02-2016 11:55:00 4.8 C 67 % -0.8 C
996 28-02-2016 12:00:00 4.8 C 67 % -0.8 C
997 28-02-2016 12:05:00 4.9 C 67 % -0.7 C
998 28-02-2016 12:10:00 5 C 69 % -0.2 C
999 28-02-2016 12:15:00 5.1 C 67 % -0.51 C
1000 28-02-2016 12:20:00 5.3 C 67 % -0.32 C
Sensor: Nr:Datum:Temp:Feuchte:Taupunkt:
Aussen-T/F 1001 28-02-2016 12:25:00 5.4 C 66 % -0.43 C
1002 28-02-2016 12:30:00 5.8 C 63 % -0.69 C
1003 28-02-2016 12:35:00 6.1 C 60 % -1.07 C
1004 28-02-2016 12:40:00 6.3 C 59 % -1.11 C
1005 28-02-2016 12:45:00 6.4 C 58 % -1.25 C
1006 28-02-2016 12:50:00 6.5 C 58 % -1.15 C
1007 28-02-2016 12:55:00 6.6 C 57 % -1.3 C
1008 28-02-2016 13:00:00 6.6 C 58 % -1.06 C
1009 28-02-2016 13:05:00 6.6 C 57 % -1.3 C
1010 28-02-2016 13:10:00 6.7 C 58 % -0.97 C
1011 28-02-2016 13:15:00 6.6 C 58 % -1.06 C
1012 28-02-2016 13:20:00 6.6 C 57 % -1.3 C
1013 28-02-2016 13:25:00 6.7 C 59 % -0.73 C
1014 28-02-2016 13:30:00 6.7 C 58 % -0.97 C
1015 28-02-2016 13:35:00 6.8 C 58 % -0.87 C
1016 28-02-2016 13:40:00 6.8 C 59 % -0.64 C
1017 28-02-2016 13:45:00 6.8 C 58 % -0.87 C
1018 28-02-2016 13:50:00 6.9 C 58 % -0.78 C
1019 28-02-2016 13:55:00 6.9 C 57 % -1.01 C
1020 28-02-2016 14:00:00 6.9 C 58 % -0.78 C
1021 28-02-2016 14:05:00 6.9 C 58 % -0.78 C
1022 28-02-2016 14:10:00 6.9 C 57 % -1.01 C
1023 28-02-2016 14:15:00 7 C 58 % -0.68 C
1024 28-02-2016 14:20:00 7 C 57 % -0.92 C
1025 28-02-2016 14:25:00 7 C 57 % -0.92 C
Sensor: Nr:Datum:Temp:Feuchte:Taupunkt:
Aussen-T/F 1026 28-02-2016 14:30:00 7 C 57 % -0.92 C
1027 28-02-2016 14:35:00 7 C 56 % -1.16 C
1028 28-02-2016 14:40:00 6.9 C 57 % -1.01 C
1029 28-02-2016 14:45:00 7 C 57 % -0.92 C
1030 28-02-2016 14:50:00 7.1 C 57 % -0.83 C
1031 28-02-2016 14:55:00 7.1 C 58 % -0.59 C
1032 28-02-2016 15:00:00 6.9 C 57 % -1.01 C
1033 28-02-2016 15:05:00 6.8 C 58 % -0.87 C
1034 28-02-2016 15:10:00 6.8 C 58 % -0.87 C
1035 28-02-2016 15:15:00 6.7 C 58 % -0.97 C
1036 28-02-2016 15:20:00 6.6 C 58 % -1.06 C
1037 28-02-2016 15:25:00 6.6 C 58 % -1.06 C
1038 28-02-2016 15:30:00 6.6 C 58 % -1.06 C
1039 28-02-2016 15:35:00 6.5 C 58 % -1.15 C
1040 28-02-2016 15:40:00 6.5 C 58 % -1.15 C
1041 28-02-2016 15:45:00 6.4 C 58 % -1.25 C
1042 28-02-2016 15:50:00 6.4 C 59 % -1.01 C
1043 28-02-2016 15:55:00 6.3 C 59 % -1.11 C
1044 28-02-2016 16:00:00 6.3 C 58 % -1.34 C
1045 28-02-2016 16:05:00 6.2 C 59 % -1.2 C
1046 28-02-2016 16:10:00 6.2 C 59 % -1.2 C
1047 28-02-2016 16:15:00 6.2 C 59 % -1.2 C
1048 28-02-2016 16:20:00 6.2 C 59 % -1.2 C
1049 28-02-2016 16:25:00 6.2 C 59 % -1.2 C
1050 28-02-2016 16:30:00 6.2 C 60 % -0.97 C
Sensor: Nr:Datum:Temp:Feuchte:Taupunkt:
Aussen-T/F 1051 28-02-2016 16:35:00 6.2 C 59 % -1.2 C
1052 28-02-2016 16:40:00 6.1 C 60 % -1.07 C
1053 28-02-2016 16:45:00 6.1 C 59 % -1.3 C
1054 28-02-2016 16:50:00 6.1 C 59 % -1.3 C
1055 28-02-2016 16:55:00 6 C 58 % -1.62 C
1056 28-02-2016 17:00:00 5.9 C 58 % -1.72 C
1057 28-02-2016 17:05:00 5.9 C 58 % -1.72 C
1058 28-02-2016 17:10:00 5.8 C 59 % -1.58 C
1059 28-02-2016 17:15:00 5.8 C 59 % -1.58 C
1060 28-02-2016 17:20:00 5.7 C 59 % -1.67 C
1061 28-02-2016 17:25:00 5.7 C 59 % -1.67 C
1062 28-02-2016 17:30:00 5.7 C 59 % -1.67 C
1063 28-02-2016 17:35:00 5.6 C 59 % -1.77 C
1064 28-02-2016 17:40:00 5.6 C 59 % -1.77 C
1065 28-02-2016 17:45:00 5.5 C 60 % -1.63 C
1066 28-02-2016 17:50:00 5.4 C 61 % -1.5 C
1067 28-02-2016 17:55:00 5.3 C 62 % -1.38 C
1068 28-02-2016 18:00:00 5.2 C 62 % -1.47 C
1069 28-02-2016 18:05:00 5.1 C 65 % -0.92 C
1070 28-02-2016 18:10:00 4.9 C 66 % -0.91 C
1071 28-02-2016 18:15:00 4.7 C 67 % -0.89 C
1072 28-02-2016 18:20:00 4.6 C 68 % -0.78 C
1073 28-02-2016 18:25:00 4.3 C 70 % -0.68 C
1074 28-02-2016 18:30:00 3.9 C 72 % -0.68 C
1075 28-02-2016 18:35:00 3.8 C 72 % -0.77 C
Sensor: Nr:Datum:Temp:Feuchte:Taupunkt:
Aussen-T/F 1076 28-02-2016 18:40:00 3.8 C 73 % -0.58 C
1077 28-02-2016 18:45:00 3.6 C 74 % -0.59 C
1078 28-02-2016 18:50:00 3.5 C 74 % -0.69 C
1079 28-02-2016 18:55:00 3.4 C 75 % -0.6 C
1080 28-02-2016 19:00:00 3.5 C 72 % -1.06 C
1081 28-02-2016 19:05:00 3.8 C 70 % -1.16 C
1082 28-02-2016 19:10:00 4.1 C 68 % -1.26 C
1083 28-02-2016 19:15:00 4.3 C 69 % -0.87 C
1084 28-02-2016 19:20:00 4.2 C 68 % -1.17 C
1085 28-02-2016 19:25:00 4.1 C 70 % -0.87 C
1086 28-02-2016 19:30:00 3.9 C 71 % -0.87 C
1087 28-02-2016 19:35:00 3.6 C 73 % -0.78 C
1088 28-02-2016 19:40:00 3.3 C 75 % -0.7 C
1089 28-02-2016 19:45:00 3.1 C 75 % -0.89 C
1090 28-02-2016 19:50:00 2.8 C 76 % -1 C
1091 28-02-2016 19:55:00 2.7 C 78 % -0.74 C
1092 28-02-2016 20:00:00 2.6 C 78 % -0.84 C
1093 28-02-2016 20:05:00 2.4 C 79 % -0.86 C
1094 28-02-2016 20:10:00 2.3 C 79 % -0.96 C
1095 28-02-2016 20:15:00 2.2 C 79 % -1.05 C
1096 28-02-2016 20:20:00 2.2 C 80 % -0.88 C
1097 28-02-2016 20:25:00 2.1 C 80 % -0.98 C
1098 28-02-2016 20:30:00 2.1 C 80 % -0.98 C
1099 28-02-2016 20:35:00 2.1 C 80 % -0.98 C
1100 28-02-2016 20:40:00 2.1 C 80 % -0.98 C
Sensor: Nr:Datum:Temp:Feuchte:Taupunkt:
Aussen-T/F 1101 28-02-2016 20:45:00 2.1 C 80 % -0.98 C
1102 28-02-2016 20:50:00 2.1 C 80 % -0.98 C
1103 28-02-2016 20:55:00 2.1 C 79 % -1.15 C
1104 28-02-2016 21:00:00 2 C 80 % -1.08 C
1105 28-02-2016 21:05:00 1.9 C 80 % -1.18 C
1106 28-02-2016 21:10:00 1.9 C 80 % -1.18 C
1107 28-02-2016 21:15:00 1.9 C 79 % -1.35 C
1108 28-02-2016 21:20:00 1.9 C 79 % -1.35 C
1109 28-02-2016 21:25:00 1.9 C 79 % -1.35 C
1110 28-02-2016 21:30:00 1.8 C 79 % -1.44 C
1111 28-02-2016 21:35:00 1.8 C 80 % -1.27 C
1112 28-02-2016 21:40:00 1.7 C 81 % -1.2 C
1113 28-02-2016 21:45:00 1.6 C 80 % -1.47 C
1114 28-02-2016 21:50:00 1.6 C 81 % -1.3 C
1115 28-02-2016 21:55:00 1.6 C 81 % -1.3 C
1116 28-02-2016 22:00:00 1.6 C 81 % -1.3 C
1117 28-02-2016 22:05:00 1.7 C 81 % -1.2 C
1118 28-02-2016 22:10:00 1.7 C 81 % -1.2 C
1119 28-02-2016 22:15:00 1.7 C 81 % -1.2 C
1120 28-02-2016 22:20:00 1.7 C 81 % -1.2 C
1121 28-02-2016 22:25:00 1.7 C 81 % -1.2 C
1122 28-02-2016 22:30:00 1.7 C 81 % -1.2 C
1123 28-02-2016 22:35:00 1.6 C 81 % -1.3 C
1124 28-02-2016 22:40:00 1.6 C 82 % -1.13 C
1125 28-02-2016 22:45:00 1.4 C 83 % -1.16 C
Sensor: Nr:Datum:Temp:Feuchte:Taupunkt:
Aussen-T/F 1126 28-02-2016 22:50:00 1.3 C 83 % -1.26 C
1127 28-02-2016 22:55:00 1.3 C 83 % -1.26 C
1128 28-02-2016 23:00:00 1.3 C 83 % -1.26 C
1129 28-02-2016 23:05:00 1.3 C 83 % -1.26 C
1130 28-02-2016 23:10:00 1.3 C 83 % -1.26 C
1131 28-02-2016 23:15:00 1.4 C 82 % -1.33 C
1132 28-02-2016 23:20:00 1.4 C 82 % -1.33 C
1133 28-02-2016 23:25:00 1.4 C 83 % -1.16 C
1134 28-02-2016 23:30:00 1.4 C 82 % -1.33 C
1135 28-02-2016 23:35:00 1.4 C 82 % -1.33 C
1136 28-02-2016 23:40:00 1.4 C 82 % -1.33 C
1137 28-02-2016 23:45:00 1.4 C 82 % -1.33 C
1138 28-02-2016 23:50:00 1.4 C 82 % -1.33 C
1139 28-02-2016 23:55:00 1.5 C 82 % -1.23 C
1140 29-02-2016 00:00:00 1.4 C 82 % -1.33 C
1141 29-02-2016 00:05:00 1.3 C 82 % -1.43 C
1142 29-02-2016 00:10:00 1.2 C 82 % -1.52 C
1143 29-02-2016 00:15:00 1.3 C 82 % -1.43 C
1144 29-02-2016 00:20:00 1.5 C 81 % -1.4 C
1145 29-02-2016 00:25:00 1.7 C 79 % -1.54 C
1146 29-02-2016 00:30:00 1.9 C 77 % -1.69 C
1147 29-02-2016 00:35:00 2 C 77 % -1.6 C
1148 29-02-2016 00:40:00 1.9 C 79 % -1.35 C
1149 29-02-2016 00:45:00 1.8 C 79 % -1.44 C
1150 29-02-2016 00:50:00 1.8 C 79 % -1.44 C
Sensor: Nr:Datum:Temp:Feuchte:Taupunkt:
Aussen-T/F 1151 29-02-2016 00:55:00 1.7 C 79 % -1.54 C
1152 29-02-2016 01:00:00 1.7 C 80 % -1.37 C
1153 29-02-2016 01:05:00 1.7 C 79 % -1.54 C
1154 29-02-2016 01:10:00 1.7 C 78 % -1.71 C
1155 29-02-2016 01:15:00 1.7 C 79 % -1.54 C
1156 29-02-2016 01:20:00 1.7 C 79 % -1.54 C
1157 29-02-2016 01:25:00 1.8 C 78 % -1.62 C
1158 29-02-2016 01:30:00 1.9 C 78 % -1.52 C
1159 29-02-2016 01:35:00 1.8 C 78 % -1.62 C
1160 29-02-2016 01:40:00 1.8 C 78 % -1.62 C
1161 29-02-2016 01:45:00 1.8 C 78 % -1.62 C
1162 29-02-2016 01:50:00 1.8 C 78 % -1.62 C
1163 29-02-2016 01:55:00 1.7 C 79 % -1.54 C
1164 29-02-2016 02:00:00 1.7 C 78 % -1.71 C
1165 29-02-2016 02:05:00 1.7 C 79 % -1.54 C
1166 29-02-2016 02:10:00 1.7 C 79 % -1.54 C
1167 29-02-2016 02:15:00 1.6 C 79 % -1.64 C
1168 29-02-2016 02:20:00 1.6 C 79 % -1.64 C
1169 29-02-2016 02:25:00 1.6 C 79 % -1.64 C
1170 29-02-2016 02:30:00 1.6 C 79 % -1.64 C
1171 29-02-2016 02:35:00 1.6 C 79 % -1.64 C
1172 29-02-2016 02:40:00 1.6 C 80 % -1.47 C
1173 29-02-2016 02:45:00 1.5 C 80 % -1.57 C
1174 29-02-2016 02:50:00 1.4 C 81 % -1.49 C
1175 29-02-2016 02:55:00 1.4 C 81 % -1.49 C
Sensor: Nr:Datum:Temp:Feuchte:Taupunkt:
Aussen-T/F 1176 29-02-2016 03:00:00 1.3 C 81 % -1.59 C
1177 29-02-2016 03:05:00 1.3 C 81 % -1.59 C
1178 29-02-2016 03:10:00 1.3 C 80 % -1.76 C
1179 29-02-2016 03:15:00 1.3 C 80 % -1.76 C
1180 29-02-2016 03:20:00 1.3 C 81 % -1.59 C
1181 29-02-2016 03:25:00 1.3 C 80 % -1.76 C
1182 29-02-2016 03:30:00 1.4 C 79 % -1.83 C
1183 29-02-2016 03:35:00 1.6 C 79 % -1.64 C
1184 29-02-2016 03:40:00 1.6 C 79 % -1.64 C
1185 29-02-2016 03:45:00 1.5 C 80 % -1.57 C
1186 29-02-2016 03:50:00 1.4 C 80 % -1.66 C
1187 29-02-2016 03:55:00 1.3 C 80 % -1.76 C
1188 29-02-2016 04:00:00 1.3 C 81 % -1.59 C
1189 29-02-2016 04:05:00 1.2 C 81 % -1.69 C
1190 29-02-2016 04:10:00 1.2 C 82 % -1.52 C
1191 29-02-2016 04:15:00 1.1 C 82 % -1.62 C
1192 29-02-2016 04:20:00 1.1 C 82 % -1.62 C
1193 29-02-2016 04:25:00 0.9 C 82 % -1.82 C
1194 29-02-2016 04:30:00 0.9 C 83 % -1.65 C
1195 29-02-2016 04:35:00 0.9 C 83 % -1.65 C
1196 29-02-2016 04:40:00 0.8 C 82 % -1.91 C
1197 29-02-2016 04:45:00 0.8 C 83 % -1.75 C
1198 29-02-2016 04:50:00 0.7 C 84 % -1.69 C
1199 29-02-2016 04:55:00 0.7 C 84 % -1.69 C
1200 29-02-2016 05:00:00 0.6 C 84 % -1.78 C
Sensor: Nr:Datum:Temp:Feuchte:Taupunkt:
Aussen-T/F 1201 29-02-2016 05:05:00 0.6 C 84 % -1.78 C
1202 29-02-2016 05:10:00 0.4 C 85 % -1.82 C
1203 29-02-2016 05:15:00 0.4 C 85 % -1.82 C
1204 29-02-2016 05:20:00 0.3 C 85 % -1.92 C
1205 29-02-2016 05:25:00 0.3 C 85 % -1.92 C
1206 29-02-2016 05:30:00 0.2 C 85 % -2.02 C
1207 29-02-2016 05:35:00 0.2 C 85 % -2.02 C
1208 29-02-2016 05:40:00 0.2 C 86 % -1.86 C
1209 29-02-2016 05:45:00 0.3 C 86 % -1.76 C
1210 29-02-2016 05:50:00 0.3 C 86 % -1.76 C
1211 29-02-2016 05:55:00 0.3 C 86 % -1.76 C
1212 29-02-2016 06:00:00 0.3 C 86 % -1.76 C
1213 29-02-2016 06:05:00 0.3 C 86 % -1.76 C
1214 29-02-2016 06:10:00 0.3 C 86 % -1.76 C
1215 29-02-2016 06:15:00 0.3 C 86 % -1.76 C
1216 29-02-2016 06:20:00 0.3 C 85 % -1.92 C
1217 29-02-2016 06:25:00 0.2 C 86 % -1.86 C
1218 29-02-2016 06:30:00 0.2 C 86 % -1.86 C
1219 29-02-2016 06:35:00 0.1 C 86 % -1.96 C
1220 29-02-2016 06:40:00 0.1 C 86 % -1.96 C
1221 29-02-2016 06:45:00 0.1 C 87 % -1.8 C
1222 29-02-2016 06:50:00 0.1 C 87 % -1.8 C
1223 29-02-2016 06:55:00 0 C 87 % -1.9 C
1224 29-02-2016 07:00:00 0.1 C 87 % -1.8 C
1225 29-02-2016 07:05:00 0.2 C 86 % -1.86 C
Sensor: Nr:Datum:Temp:Feuchte:Taupunkt:
Aussen-T/F 1226 29-02-2016 07:10:00 0.2 C 86 % -1.86 C
1227 29-02-2016 07:15:00 0.2 C 86 % -1.86 C
1228 29-02-2016 07:20:00 0.2 C 86 % -1.86 C
1229 29-02-2016 07:25:00 0.3 C 86 % -1.76 C
1230 29-02-2016 07:30:00 0.3 C 86 % -1.76 C
1231 29-02-2016 07:35:00 0.3 C 86 % -1.76 C
1232 29-02-2016 07:40:00 0.4 C 86 % -1.66 C
1233 29-02-2016 07:45:00 0.4 C 85 % -1.82 C
1234 29-02-2016 07:50:00 0.5 C 85 % -1.72 C
1235 29-02-2016 07:55:00 0.6 C 85 % -1.62 C
1236 29-02-2016 08:00:00 0.5 C 85 % -1.72 C
1237 29-02-2016 08:05:00 0.4 C 85 % -1.82 C
1238 29-02-2016 08:10:00 0.4 C 85 % -1.82 C
1239 29-02-2016 08:15:00 0.4 C 85 % -1.82 C
1240 29-02-2016 08:20:00 0.4 C 84 % -1.98 C
1241 29-02-2016 08:25:00 0.3 C 84 % -2.08 C
1242 29-02-2016 08:30:00 0.2 C 84 % -2.18 C
1243 29-02-2016 08:35:00 0.1 C 85 % -2.11 C
1244 29-02-2016 08:40:00 0 C 86 % -2.05 C
1245 29-02-2016 08:45:00 -0.1 C 86 % -2.16 C
1246 29-02-2016 08:50:00 -0.1 C 86 % -2.16 C
1247 29-02-2016 08:55:00 -0.1 C 86 % -2.16 C
1248 29-02-2016 09:00:00 -0.2 C 86 % -2.25 C
1249 29-02-2016 09:05:00 -0.2 C 87 % -2.1 C
1250 29-02-2016 09:10:00 -0.2 C 87 % -2.1 C
Sensor: Nr:Datum:Temp:Feuchte:Taupunkt:
Aussen-T/F 1251 29-02-2016 09:15:00 -0.3 C 87 % -2.2 C
1252 29-02-2016 09:20:00 -0.3 C 87 % -2.2 C
1253 29-02-2016 09:25:00 -0.3 C 87 % -2.2 C
1254 29-02-2016 09:30:00 -0.3 C 87 % -2.2 C
1255 29-02-2016 09:35:00 -0.2 C 87 % -2.1 C
1256 29-02-2016 09:40:00 -0.1 C 87 % -2 C
1257 29-02-2016 09:45:00 0.1 C 86 % -1.96 C
1258 29-02-2016 09:50:00 0.1 C 87 % -1.8 C
1259 29-02-2016 09:55:00 0.2 C 86 % -1.86 C
1260 29-02-2016 10:00:00 0.3 C 86 % -1.76 C
1261 29-02-2016 10:05:00 0.4 C 86 % -1.66 C
1262 29-02-2016 10:10:00 0.7 C 85 % -1.53 C
1263 29-02-2016 10:15:00 0.8 C 85 % -1.43 C
1264 29-02-2016 10:20:00 1.1 C 84 % -1.29 C
1265 29-02-2016 10:25:00 1.3 C 83 % -1.26 C
1266 29-02-2016 10:30:00 1.6 C 83 % -0.97 C
1267 29-02-2016 10:35:00 1.9 C 82 % -0.84 C
1268 29-02-2016 10:40:00 2.3 C 79 % -0.96 C
1269 29-02-2016 10:45:00 2.8 C 76 % -1 C
1270 29-02-2016 10:50:00 3.2 C 74 % -0.98 C
1271 29-02-2016 10:55:00 3.4 C 73 % -0.97 C
1272 29-02-2016 11:00:00 3.7 C 73 % -0.68 C
1273 29-02-2016 11:05:00 3.9 C 71 % -0.87 C
1274 29-02-2016 11:10:00 4.1 C 71 % -0.67 C
1275 29-02-2016 11:15:00 4.3 C 70 % -0.68 C
Sensor: Nr:Datum:Temp:Feuchte:Taupunkt:
Aussen-T/F 1276 29-02-2016 11:20:00 4.5 C 70 % -0.48 C
1277 29-02-2016 11:25:00 4.7 C 69 % -0.49 C
1278 29-02-2016 11:30:00 4.8 C 67 % -0.8 C
1279 29-02-2016 11:35:00 4.9 C 67 % -0.7 C
1280 29-02-2016 11:40:00 4.9 C 67 % -0.7 C
1281 29-02-2016 11:45:00 5.2 C 66 % -0.62 C
1282 29-02-2016 11:50:00 5.3 C 66 % -0.52 C
1283 29-02-2016 11:55:00 5.6 C 66 % -0.24 C
1284 29-02-2016 12:00:00 5.8 C 65 % -0.26 C
1285 29-02-2016 12:05:00 6.1 C 61 % -0.84 C
1286 29-02-2016 12:10:00 6.3 C 59 % -1.11 C
1287 29-02-2016 12:15:00 6.4 C 59 % -1.01 C
1288 29-02-2016 12:20:00 6.4 C 58 % -1.25 C
1289 29-02-2016 12:25:00 6.6 C 59 % -0.83 C
1290 29-02-2016 12:30:00 6.6 C 57 % -1.3 C
1291 29-02-2016 12:35:00 6.7 C 57 % -1.2 C
1292 29-02-2016 12:40:00 6.7 C 57 % -1.2 C
1293 29-02-2016 12:45:00 6.8 C 57 % -1.11 C
1294 29-02-2016 12:50:00 7 C 56 % -1.16 C
1295 29-02-2016 12:55:00 7.1 C 56 % -1.07 C
1296 29-02-2016 13:00:00 7.3 C 56 % -0.88 C
1297 29-02-2016 13:05:00 7.3 C 56 % -0.88 C
1298 29-02-2016 13:10:00 7.3 C 55 % -1.13 C
1299 29-02-2016 13:15:00 7.3 C 54 % -1.38 C
1300 29-02-2016 13:20:00 7.4 C 55 % -1.03 C
Sensor: Nr:Datum:Temp:Feuchte:Taupunkt:
Aussen-T/F 1301 29-02-2016 13:25:00 7.4 C 55 % -1.03 C
1302 29-02-2016 13:30:00 7.4 C 55 % -1.03 C
1303 29-02-2016 13:35:00 7.5 C 55 % -0.94 C
1304 29-02-2016 13:40:00 7.4 C 55 % -1.03 C
1305 29-02-2016 13:45:00 7.4 C 55 % -1.03 C
1306 29-02-2016 13:50:00 7.5 C 56 % -0.7 C
1307 29-02-2016 13:55:00 7.6 C 55 % -0.85 C
1308 29-02-2016 14:00:00 7.7 C 54 % -1 C
1309 29-02-2016 14:05:00 7.6 C 55 % -0.85 C
1310 29-02-2016 14:10:00 7.7 C 55 % -0.75 C
1311 29-02-2016 14:15:00 7.6 C 54 % -1.1 C
1312 29-02-2016 14:20:00 7.6 C 54 % -1.1 C
1313 29-02-2016 14:25:00 7.6 C 54 % -1.1 C
1314 29-02-2016 14:30:00 7.6 C 53 % -1.35 C
1315 29-02-2016 14:35:00 7.6 C 54 % -1.1 C
1316 29-02-2016 14:40:00 7.7 C 53 % -1.26 C
1317 29-02-2016 14:45:00 7.7 C 54 % -1 C
1318 29-02-2016 14:50:00 7.8 C 54 % -0.91 C
1319 29-02-2016 14:55:00 7.7 C 53 % -1.26 C
1320 29-02-2016 15:00:00 7.7 C 53 % -1.26 C
1321 29-02-2016 15:05:00 7.8 C 54 % -0.91 C
1322 29-02-2016 15:10:00 7.8 C 53 % -1.17 C
1323 29-02-2016 15:15:00 7.8 C 53 % -1.17 C
1324 29-02-2016 15:20:00 7.8 C 54 % -0.91 C
1325 29-02-2016 15:25:00 7.8 C 53 % -1.17 C
Sensor: Nr:Datum:Temp:Feuchte:Taupunkt:
Aussen-T/F 1326 29-02-2016 15:30:00 7.7 C 54 % -1 C
1327 29-02-2016 15:35:00 7.7 C 54 % -1 C
1328 29-02-2016 15:40:00 7.7 C 54 % -1 C
1329 29-02-2016 15:45:00 7.7 C 54 % -1 C
1330 29-02-2016 15:50:00 7.8 C 55 % -0.66 C
1331 29-02-2016 15:55:00 7.7 C 56 % -0.51 C
1332 29-02-2016 16:00:00 7.7 C 56 % -0.51 C
1333 29-02-2016 16:05:00 7.7 C 55 % -0.75 C
1334 29-02-2016 16:10:00 7.7 C 54 % -1 C
1335 29-02-2016 16:15:00 7.6 C 55 % -0.85 C
1336 29-02-2016 16:20:00 7.6 C 55 % -0.85 C
1337 29-02-2016 16:25:00 7.6 C 56 % -0.6 C
1338 29-02-2016 16:30:00 7.6 C 56 % -0.6 C
1339 29-02-2016 16:35:00 7.6 C 56 % -0.6 C
1340 29-02-2016 16:40:00 7.6 C 56 % -0.6 C
1341 29-02-2016 16:45:00 7.5 C 55 % -0.94 C
1342 29-02-2016 16:50:00 7.4 C 55 % -1.03 C
1343 29-02-2016 16:55:00 7.4 C 55 % -1.03 C
1344 29-02-2016 17:00:00 7.3 C 55 % -1.13 C
1345 29-02-2016 17:05:00 7.2 C 55 % -1.22 C
1346 29-02-2016 17:10:00 7.1 C 54 % -1.56 C
1347 29-02-2016 17:15:00 7 C 54 % -1.66 C
1348 29-02-2016 17:20:00 7 C 55 % -1.41 C
1349 29-02-2016 17:25:00 6.9 C 54 % -1.75 C
1350 29-02-2016 17:30:00 6.9 C 55 % -1.5 C
Sensor: Nr:Datum:Temp:Feuchte:Taupunkt:
Aussen-T/F 1351 29-02-2016 17:35:00 6.9 C 55 % -1.5 C
1352 29-02-2016 17:40:00 6.8 C 55 % -1.59 C
1353 29-02-2016 17:45:00 6.8 C 55 % -1.59 C
1354 29-02-2016 17:50:00 6.8 C 55 % -1.59 C
1355 29-02-2016 17:55:00 6.7 C 55 % -1.69 C
1356 29-02-2016 18:00:00 6.7 C 54 % -1.94 C
1357 29-02-2016 18:05:00 6.6 C 55 % -1.78 C
1358 29-02-2016 18:10:00 6.6 C 56 % -1.54 C
1359 29-02-2016 18:15:00 6.4 C 56 % -1.72 C
1360 29-02-2016 18:20:00 6.3 C 55 % -2.06 C
1361 29-02-2016 18:25:00 6.1 C 55 % -2.25 C
1362 29-02-2016 18:30:00 6 C 54 % -2.59 C
1363 29-02-2016 18:35:00 5.9 C 54 % -2.68 C
1364 29-02-2016 18:40:00 5.8 C 54 % -2.77 C
1365 29-02-2016 18:45:00 5.7 C 55 % -2.62 C
1366 29-02-2016 18:50:00 5.5 C 55 % -2.81 C
1367 29-02-2016 18:55:00 5.4 C 55 % -2.9 C
1368 29-02-2016 19:00:00 5.3 C 56 % -2.75 C
1369 29-02-2016 19:05:00 5.3 C 57 % -2.51 C
1370 29-02-2016 19:10:00 5.2 C 58 % -2.37 C
1371 29-02-2016 19:15:00 5.1 C 59 % -2.24 C
1372 29-02-2016 19:20:00 4.9 C 59 % -2.42 C
1373 29-02-2016 19:25:00 4.9 C 59 % -2.42 C
1374 29-02-2016 19:30:00 4.8 C 59 % -2.52 C
1375 29-02-2016 19:35:00 4.7 C 60 % -2.39 C
Sensor: Nr:Datum:Temp:Feuchte:Taupunkt:
Aussen-T/F 1376 29-02-2016 19:40:00 4.7 C 60 % -2.39 C
1377 29-02-2016 19:45:00 4.6 C 60 % -2.48 C
1378 29-02-2016 19:50:00 4.6 C 61 % -2.26 C
1379 29-02-2016 19:55:00 4.4 C 61 % -2.45 C
1380 29-02-2016 20:00:00 4.4 C 61 % -2.45 C
1381 29-02-2016 20:05:00 4.3 C 61 % -2.54 C
1382 29-02-2016 20:10:00 4.3 C 62 % -2.32 C
1383 29-02-2016 20:15:00 4.2 C 62 % -2.42 C
1384 29-02-2016 20:20:00 4.2 C 62 % -2.42 C
1385 29-02-2016 20:25:00 4.1 C 63 % -2.3 C
1386 29-02-2016 20:30:00 4.1 C 63 % -2.3 C
1387 29-02-2016 20:35:00 4 C 63 % -2.39 C
1388 29-02-2016 20:40:00 3.9 C 63 % -2.49 C
1389 29-02-2016 20:45:00 3.9 C 64 % -2.27 C
1390 29-02-2016 20:50:00 3.8 C 64 % -2.37 C
1391 29-02-2016 20:55:00 3.8 C 64 % -2.37 C
1392 29-02-2016 21:00:00 3.8 C 64 % -2.37 C
1393 29-02-2016 21:05:00 3.7 C 65 % -2.25 C
1394 29-02-2016 21:10:00 3.7 C 65 % -2.25 C
1395 29-02-2016 21:15:00 3.6 C 65 % -2.35 C
1396 29-02-2016 21:20:00 3.6 C 65 % -2.35 C
1397 29-02-2016 21:25:00 3.5 C 66 % -2.24 C
1398 29-02-2016 21:30:00 3.4 C 66 % -2.33 C
1399 29-02-2016 21:35:00 3.3 C 66 % -2.43 C
1400 29-02-2016 21:40:00 3.3 C 66 % -2.43 C
Sensor: Nr:Datum:Temp:Feuchte:Taupunkt:
Aussen-T/F 1401 29-02-2016 21:45:00 3.1 C 67 % -2.42 C
1402 29-02-2016 21:50:00 3 C 66 % -2.72 C
1403 29-02-2016 21:55:00 2.9 C 67 % -2.61 C
1404 29-02-2016 22:00:00 2.8 C 67 % -2.7 C
1405 29-02-2016 22:05:00 2.7 C 68 % -2.6 C
1406 29-02-2016 22:10:00 2.7 C 68 % -2.6 C
1407 29-02-2016 22:15:00 2.7 C 68 % -2.6 C
1408 29-02-2016 22:20:00 2.7 C 68 % -2.6 C
1409 29-02-2016 22:25:00 2.6 C 69 % -2.5 C
1410 29-02-2016 22:30:00 2.6 C 68 % -2.7 C
1411 29-02-2016 22:35:00 2.4 C 70 % -2.5 C
1412 29-02-2016 22:40:00 2.3 C 70 % -2.59 C
1413 29-02-2016 22:45:00 2.2 C 71 % -2.5 C
1414 29-02-2016 22:50:00 1.9 C 72 % -2.6 C
1415 29-02-2016 22:55:00 1.7 C 71 % -2.98 C
1416 29-02-2016 23:00:00 1.5 C 73 % -2.8 C
1417 29-02-2016 23:05:00 1.2 C 75 % -2.73 C
1418 29-02-2016 23:10:00 1 C 76 % -2.74 C
1419 29-02-2016 23:15:00 0.8 C 77 % -2.76 C
1420 29-02-2016 23:20:00 0.6 C 77 % -2.96 C
1421 29-02-2016 23:25:00 0.5 C 77 % -3.05 C
1422 29-02-2016 23:30:00 0.3 C 77 % -3.25 C
1423 29-02-2016 23:35:00 0.2 C 78 % -3.17 C
1424 29-02-2016 23:40:00 0.1 C 78 % -3.27 C
1425 29-02-2016 23:45:00 0.1 C 78 % -3.27 C
Sensor: Nr:Datum:Temp:Feuchte:Taupunkt:
Aussen-T/F 1426 29-02-2016 23:50:00 0 C 78 % -3.37 C
1427 29-02-2016 23:55:00 -0.1 C 78 % -3.47 C
1428 01-03-2016 00:00:00 -0.2 C 79 % -3.39 C
1429 01-03-2016 00:05:00 -0.2 C 79 % -3.39 C
1430 01-03-2016 00:10:00 -0.3 C 80 % -3.32 C
1431 01-03-2016 00:15:00 -0.3 C 80 % -3.32 C
1432 01-03-2016 00:20:00 -0.4 C 80 % -3.42 C
1433 01-03-2016 00:25:00 -0.4 C 80 % -3.42 C
1434 01-03-2016 00:30:00 -0.5 C 80 % -3.52 C
1435 01-03-2016 00:35:00 -0.6 C 80 % -3.62 C
1436 01-03-2016 00:40:00 -0.6 C 80 % -3.62 C
1437 01-03-2016 00:45:00 -0.6 C 80 % -3.62 C
1438 01-03-2016 00:50:00 -0.7 C 81 % -3.55 C
1439 01-03-2016 00:55:00 -0.7 C 81 % -3.55 C
1440 01-03-2016 01:00:00 -0.7 C 81 % -3.55 C
1441 01-03-2016 01:05:00 -0.8 C 81 % -3.64 C
1442 01-03-2016 01:10:00 -0.8 C 82 % -3.48 C
1443 01-03-2016 01:15:00 -0.9 C 82 % -3.58 C
1444 01-03-2016 01:20:00 -0.9 C 83 % -3.42 C
1445 01-03-2016 01:25:00 -0.9 C 83 % -3.42 C
1446 01-03-2016 01:30:00 -1 C 83 % -3.51 C
1447 01-03-2016 01:35:00 -1 C 84 % -3.35 C
1448 01-03-2016 01:40:00 -1 C 84 % -3.35 C
1449 01-03-2016 01:45:00 -1.1 C 84 % -3.45 C
1450 01-03-2016 01:50:00 -1.1 C 84 % -3.45 C
Sensor: Nr:Datum:Temp:Feuchte:Taupunkt:
Aussen-T/F 1451 01-03-2016 01:55:00 -1.1 C 85 % -3.29 C
1452 01-03-2016 02:00:00 -1.1 C 85 % -3.29 C
1453 01-03-2016 02:05:00 -1.1 C 85 % -3.29 C
1454 01-03-2016 02:10:00 -1.1 C 85 % -3.29 C
1455 01-03-2016 02:15:00 -1.2 C 85 % -3.39 C
1456 01-03-2016 02:20:00 -1.2 C 85 % -3.39 C
1457 01-03-2016 02:25:00 -1.3 C 85 % -3.49 C
1458 01-03-2016 02:30:00 -1.4 C 85 % -3.59 C
1459 01-03-2016 02:35:00 -1.5 C 85 % -3.69 C
1460 01-03-2016 02:40:00 -1.6 C 85 % -3.79 C
1461 01-03-2016 02:45:00 -1.6 C 85 % -3.79 C
1462 01-03-2016 02:50:00 -1.7 C 86 % -3.73 C
1463 01-03-2016 02:55:00 -1.8 C 86 % -3.83 C
1464 01-03-2016 03:00:00 -1.9 C 86 % -3.92 C
1465 01-03-2016 03:05:00 -1.9 C 86 % -3.92 C
1466 01-03-2016 03:10:00 -2.1 C 87 % -3.97 C
1467 01-03-2016 03:15:00 -2.1 C 87 % -3.97 C
1468 01-03-2016 03:20:00 -2.1 C 88 % -3.82 C
1469 01-03-2016 03:25:00 -2.1 C 88 % -3.82 C
1470 01-03-2016 03:30:00 -2.2 C 88 % -3.91 C
1471 01-03-2016 03:35:00 -2.2 C 88 % -3.91 C
1472 01-03-2016 03:40:00 -2.3 C 88 % -4.01 C
1473 01-03-2016 03:45:00 -2.3 C 88 % -4.01 C
1474 01-03-2016 03:50:00 -2.4 C 88 % -4.11 C
1475 01-03-2016 03:55:00 -2.4 C 89 % -3.96 C
Sensor: Nr:Datum:Temp:Feuchte:Taupunkt:
Aussen-T/F 1476 01-03-2016 04:00:00 -2.5 C 89 % -4.06 C
1477 01-03-2016 04:05:00 -2.5 C 89 % -4.06 C
1478 01-03-2016 04:10:00 -2.5 C 89 % -4.06 C
1479 01-03-2016 04:15:00 -2.6 C 89 % -4.16 C
1480 01-03-2016 04:20:00 -2.6 C 89 % -4.16 C
1481 01-03-2016 04:25:00 -2.7 C 89 % -4.26 C
1482 01-03-2016 04:30:00 -2.7 C 90 % -4.11 C
1483 01-03-2016 04:35:00 -2.7 C 90 % -4.11 C
1484 01-03-2016 04:40:00 -2.6 C 90 % -4.01 C
1485 01-03-2016 04:45:00 -2.6 C 90 % -4.01 C
1486 01-03-2016 04:50:00 -2.7 C 90 % -4.11 C
1487 01-03-2016 04:55:00 -2.7 C 90 % -4.11 C
1488 01-03-2016 05:00:00 -2.8 C 90 % -4.21 C
1489 01-03-2016 05:05:00 -2.9 C 90 % -4.31 C
1490 01-03-2016 05:10:00 -2.9 C 90 % -4.31 C
1491 01-03-2016 05:15:00 -2.9 C 91 % -4.16 C
1492 01-03-2016 05:20:00 -2.9 C 91 % -4.16 C
1493 01-03-2016 05:25:00 -3 C 91 % -4.26 C
1494 01-03-2016 05:30:00 -3.1 C 91 % -4.36 C
1495 01-03-2016 05:35:00 -3.2 C 91 % -4.46 C
1496 01-03-2016 05:40:00 -3.2 C 91 % -4.46 C
1497 01-03-2016 05:45:00 -3.2 C 91 % -4.46 C
1498 01-03-2016 05:50:00 -3.3 C 91 % -4.56 C
1499 01-03-2016 05:55:00 -3.3 C 91 % -4.56 C
1500 01-03-2016 06:00:00 -3.3 C 91 % -4.56 C
Sensor: Nr:Datum:Temp:Feuchte:Taupunkt:
Aussen-T/F 1501 01-03-2016 06:05:00 -3.3 C 92 % -4.41 C
1502 01-03-2016 06:10:00 -3.4 C 92 % -4.51 C
1503 01-03-2016 06:15:00 -3.4 C 92 % -4.51 C
1504 01-03-2016 06:20:00 -3.4 C 92 % -4.51 C
1505 01-03-2016 06:25:00 -3.4 C 92 % -4.51 C
1506 01-03-2016 06:30:00 -3.4 C 92 % -4.51 C
1507 01-03-2016 06:35:00 -3.4 C 92 % -4.51 C
1508 01-03-2016 06:40:00 -3.5 C 92 % -4.61 C
1509 01-03-2016 06:45:00 -3.5 C 92 % -4.61 C
1510 01-03-2016 06:50:00 -3.5 C 92 % -4.61 C
1511 01-03-2016 06:55:00 -3.5 C 92 % -4.61 C
1512 01-03-2016 07:00:00 -3.5 C 92 % -4.61 C
1513 01-03-2016 07:05:00 -3.5 C 92 % -4.61 C
1514 01-03-2016 07:10:00 -3.5 C 92 % -4.61 C
1515 01-03-2016 07:15:00 -3.6 C 92 % -4.71 C
1516 01-03-2016 07:20:00 -3.6 C 92 % -4.71 C
1517 01-03-2016 07:25:00 -3.6 C 93 % -4.56 C
1518 01-03-2016 07:30:00 -3.6 C 93 % -4.56 C
1519 01-03-2016 07:35:00 -3.5 C 93 % -4.47 C
1520 01-03-2016 07:40:00 -3.5 C 93 % -4.47 C
1521 01-03-2016 07:45:00 -3.5 C 93 % -4.47 C
1522 01-03-2016 07:50:00 -3.4 C 93 % -4.37 C
1523 01-03-2016 07:55:00 -3.4 C 93 % -4.37 C
1524 01-03-2016 08:00:00 -3.4 C 93 % -4.37 C
1525 01-03-2016 08:05:00 -3.3 C 93 % -4.27 C
Sensor: Nr:Datum:Temp:Feuchte:Taupunkt:
Aussen-T/F 1526 01-03-2016 08:10:00 -3.3 C 93 % -4.27 C
1527 01-03-2016 08:15:00 -3.2 C 93 % -4.17 C
1528 01-03-2016 08:20:00 -3.1 C 93 % -4.07 C
1529 01-03-2016 08:25:00 -3 C 93 % -3.97 C
1530 01-03-2016 08:30:00 -2.9 C 93 % -3.87 C
1531 01-03-2016 08:35:00 -2.9 C 93 % -3.87 C
1532 01-03-2016 08:40:00 -2.9 C 93 % -3.87 C
1533 01-03-2016 08:45:00 -2.9 C 93 % -3.87 C
1534 01-03-2016 08:50:00 -2.9 C 93 % -3.87 C
1535 01-03-2016 08:55:00 -2.9 C 93 % -3.87 C
1536 01-03-2016 09:00:00 -2.9 C 93 % -3.87 C
1537 01-03-2016 09:05:00 -2.8 C 93 % -3.77 C
1538 01-03-2016 09:10:00 -2.8 C 93 % -3.77 C
1539 01-03-2016 09:15:00 -2.8 C 93 % -3.77 C
1540 01-03-2016 09:20:00 -2.7 C 93 % -3.67 C
1541 01-03-2016 09:25:00 -2.6 C 93 % -3.57 C
1542 01-03-2016 09:30:00 -2.5 C 93 % -3.47 C
1543 01-03-2016 09:35:00 -2.4 C 93 % -3.37 C
1544 01-03-2016 09:40:00 -2.3 C 93 % -3.28 C
1545 01-03-2016 09:45:00 -2.2 C 93 % -3.18 C
1546 01-03-2016 09:50:00 -2.1 C 93 % -3.08 C
1547 01-03-2016 09:55:00 -1.9 C 93 % -2.88 C
1548 01-03-2016 10:00:00 -1.8 C 93 % -2.78 C
1549 01-03-2016 10:05:00 -1.7 C 93 % -2.68 C
1550 01-03-2016 10:10:00 -1.6 C 92 % -2.73 C
Sensor: Nr:Datum:Temp:Feuchte:Taupunkt:
Aussen-T/F 1551 01-03-2016 10:15:00 -1.4 C 92 % -2.53 C
1552 01-03-2016 10:20:00 -1.2 C 92 % -2.33 C
1553 01-03-2016 10:25:00 -1.1 C 92 % -2.23 C
1554 01-03-2016 10:30:00 -0.8 C 91 % -2.08 C
1555 01-03-2016 10:35:00 -0.7 C 90 % -2.13 C
1556 01-03-2016 10:40:00 -0.4 C 90 % -1.84 C
1557 01-03-2016 10:45:00 -0.2 C 89 % -1.79 C
1558 01-03-2016 10:50:00 0.1 C 88 % -1.65 C
1559 01-03-2016 10:55:00 0.3 C 86 % -1.76 C
1560 01-03-2016 11:00:00 0.7 C 85 % -1.53 C
1561 01-03-2016 11:05:00 1.1 C 84 % -1.29 C
1562 01-03-2016 11:10:00 1.4 C 83 % -1.16 C
1563 01-03-2016 11:15:00 1.7 C 81 % -1.2 C
1564 01-03-2016 11:20:00 2 C 80 % -1.08 C
1565 01-03-2016 11:25:00 2.2 C 78 % -1.23 C
1566 01-03-2016 11:30:00 2.4 C 75 % -1.57 C
1567 01-03-2016 11:35:00 2.6 C 72 % -1.93 C
1568 01-03-2016 11:40:00 2.7 C 73 % -1.64 C
1569 01-03-2016 11:45:00 2.9 C 71 % -1.83 C
1570 01-03-2016 11:50:00 3.1 C 70 % -1.83 C
1571 01-03-2016 11:55:00 3.2 C 68 % -2.12 C
1572 01-03-2016 12:00:00 3.3 C 68 % -2.03 C
1573 01-03-2016 12:05:00 3.5 C 68 % -1.84 C
1574 01-03-2016 12:10:00 3.7 C 68 % -1.64 C
1575 01-03-2016 12:15:00 4 C 67 % -1.56 C
Sensor: Nr:Datum:Temp:Feuchte:Taupunkt:
Aussen-T/F 1576 01-03-2016 12:20:00 4.2 C 65 % -1.78 C
1577 01-03-2016 12:25:00 4.3 C 65 % -1.68 C
1578 01-03-2016 12:30:00 4.4 C 63 % -2.01 C
1579 01-03-2016 12:35:00 4.6 C 63 % -1.82 C
1580 01-03-2016 12:40:00 4.6 C 61 % -2.26 C
1581 01-03-2016 12:45:00 4.7 C 61 % -2.16 C
1582 01-03-2016 12:50:00 4.7 C 60 % -2.39 C
1583 01-03-2016 12:55:00 4.8 C 60 % -2.29 C
1584 01-03-2016 13:00:00 5 C 57 % -2.79 C
1585 01-03-2016 13:05:00 5.1 C 59 % -2.24 C
1586 01-03-2016 13:10:00 5.2 C 58 % -2.37 C
1587 01-03-2016 13:15:00 5.4 C 57 % -2.42 C
1588 01-03-2016 13:20:00 5.6 C 56 % -2.47 C
1589 01-03-2016 13:25:00 5.7 C 55 % -2.62 C
1590 01-03-2016 13:30:00 5.8 C 55 % -2.53 C
1591 01-03-2016 13:35:00 5.9 C 54 % -2.68 C
1592 01-03-2016 13:40:00 6 C 54 % -2.59 C
1593 01-03-2016 13:45:00 6.2 C 54 % -2.4 C
1594 01-03-2016 13:50:00 6.2 C 53 % -2.65 C
1595 01-03-2016 13:55:00 6.3 C 54 % -2.31 C
1596 01-03-2016 14:00:00 6.4 C 53 % -2.47 C
1597 01-03-2016 14:05:00 6.4 C 53 % -2.47 C
1598 01-03-2016 14:10:00 6.4 C 53 % -2.47 C
1599 01-03-2016 14:15:00 6.4 C 52 % -2.72 C
1600 01-03-2016 14:20:00 6.5 C 52 % -2.63 C
Sensor: Nr:Datum:Temp:Feuchte:Taupunkt:
Aussen-T/F 1601 01-03-2016 14:25:00 6.6 C 51 % -2.8 C
1602 01-03-2016 14:30:00 6.6 C 52 % -2.54 C
1603 01-03-2016 14:35:00 6.6 C 51 % -2.8 C
1604 01-03-2016 14:40:00 6.6 C 51 % -2.8 C
1605 01-03-2016 14:45:00 6.5 C 52 % -2.63 C
1606 01-03-2016 14:50:00 6.5 C 52 % -2.63 C
1607 01-03-2016 14:55:00 6.6 C 52 % -2.54 C
1608 01-03-2016 15:00:00 6.5 C 52 % -2.63 C
1609 01-03-2016 15:05:00 6.5 C 51 % -2.89 C
1610 01-03-2016 15:10:00 6.5 C 52 % -2.63 C
1611 01-03-2016 15:15:00 6.4 C 52 % -2.72 C
1612 01-03-2016 15:20:00 6.4 C 52 % -2.72 C
1613 01-03-2016 15:25:00 6.4 C 51 % -2.98 C
1614 01-03-2016 15:30:00 6.4 C 51 % -2.98 C
1615 01-03-2016 15:35:00 6.3 C 51 % -3.08 C
1616 01-03-2016 15:40:00 6.3 C 52 % -2.81 C
1617 01-03-2016 15:45:00 6.3 C 52 % -2.81 C
1618 01-03-2016 15:50:00 6.2 C 53 % -2.65 C
1619 01-03-2016 15:55:00 6.2 C 53 % -2.65 C
1620 01-03-2016 16:00:00 6.2 C 53 % -2.65 C
1621 01-03-2016 16:05:00 6.1 C 54 % -2.49 C
1622 01-03-2016 16:10:00 6.1 C 53 % -2.74 C
1623 01-03-2016 16:15:00 6.1 C 54 % -2.49 C
1624 01-03-2016 16:20:00 6 C 55 % -2.34 C
1625 01-03-2016 16:25:00 5.9 C 57 % -1.95 C
Sensor: Nr:Datum:Temp:Feuchte:Taupunkt:
Aussen-T/F 1626 01-03-2016 16:30:00 5.7 C 58 % -1.9 C
1627 01-03-2016 16:35:00 5.6 C 59 % -1.77 C
1628 01-03-2016 16:40:00 5.6 C 59 % -1.77 C
1629 01-03-2016 16:45:00 5.5 C 62 % -1.19 C
1630 01-03-2016 16:50:00 5.3 C 64 % -0.94 C
1631 01-03-2016 16:55:00 5.1 C 66 % -0.71 C
1632 01-03-2016 17:00:00 4.9 C 69 % -0.3 C
1633 01-03-2016 17:05:00 4.7 C 71 % -0.1 C
1634 01-03-2016 17:10:00 4.4 C 73 % 0 C
1635 01-03-2016 17:15:00 4.3 C 76 % 0.45 C
1636 01-03-2016 17:20:00 4.1 C 79 % 0.79 C
1637 01-03-2016 17:25:00 3.8 C 79 % 0.5 C
1638 01-03-2016 17:30:00 3.7 C 80 % 0.58 C
1639 01-03-2016 17:35:00 3.5 C 81 % 0.55 C
1640 01-03-2016 17:40:00 3.4 C 82 % 0.63 C
1641 01-03-2016 17:45:00 3.3 C 84 % 0.86 C
1642 01-03-2016 17:50:00 3.1 C 85 % 0.83 C
1643 01-03-2016 17:55:00 2.9 C 86 % 0.8 C
1644 01-03-2016 18:00:00 2.8 C 87 % 0.86 C
1645 01-03-2016 18:05:00 2.7 C 88 % 0.92 C
1646 01-03-2016 18:10:00 2.6 C 88 % 0.82 C
1647 01-03-2016 18:15:00 2.4 C 89 % 0.78 C
1648 01-03-2016 18:20:00 2.4 C 90 % 0.93 C
1649 01-03-2016 18:25:00 2.3 C 90 % 0.83 C
1650 01-03-2016 18:30:00 2.3 C 91 % 0.99 C
Sensor: Nr:Datum:Temp:Feuchte:Taupunkt:
Aussen-T/F 1651 01-03-2016 18:35:00 2.3 C 91 % 0.99 C
1652 01-03-2016 18:40:00 2.3 C 91 % 0.99 C
1653 01-03-2016 18:45:00 2.3 C 91 % 0.99 C
1654 01-03-2016 18:50:00 2.4 C 91 % 1.08 C
1655 01-03-2016 18:55:00 2.4 C 90 % 0.93 C
1656 01-03-2016 19:00:00 2.4 C 90 % 0.93 C
1657 01-03-2016 19:05:00 2.6 C 89 % 0.97 C
1658 01-03-2016 19:10:00 2.6 C 88 % 0.82 C
1659 01-03-2016 19:15:00 2.7 C 88 % 0.92 C
1660 01-03-2016 19:20:00 2.7 C 88 % 0.92 C
1661 01-03-2016 19:25:00 2.6 C 89 % 0.97 C
1662 01-03-2016 19:30:00 2.6 C 89 % 0.97 C
1663 01-03-2016 19:35:00 2.5 C 90 % 1.03 C
1664 01-03-2016 19:40:00 2.4 C 90 % 0.93 C
1665 01-03-2016 19:45:00 2.4 C 91 % 1.08 C
1666 01-03-2016 19:50:00 2.4 C 91 % 1.08 C
1667 01-03-2016 19:55:00 2.4 C 91 % 1.08 C
1668 01-03-2016 20:00:00 2.4 C 91 % 1.08 C
1669 01-03-2016 20:05:00 2.4 C 92 % 1.24 C
1670 01-03-2016 20:10:00 2.4 C 92 % 1.24 C
1671 01-03-2016 20:15:00 2.4 C 92 % 1.24 C
1672 01-03-2016 20:20:00 2.4 C 92 % 1.24 C
1673 01-03-2016 20:25:00 2.4 C 92 % 1.24 C
1674 01-03-2016 20:30:00 2.4 C 92 % 1.24 C
1675 01-03-2016 20:35:00 2.3 C 92 % 1.14 C
Sensor: Nr:Datum:Temp:Feuchte:Taupunkt:
Aussen-T/F 1676 01-03-2016 20:40:00 2.3 C 92 % 1.14 C
1677 01-03-2016 20:45:00 2.3 C 92 % 1.14 C
1678 01-03-2016 20:50:00 2.4 C 93 % 1.39 C
1679 01-03-2016 20:55:00 2.6 C 92 % 1.43 C
1680 01-03-2016 21:00:00 2.6 C 92 % 1.43 C
1681 01-03-2016 21:05:00 2.6 C 92 % 1.43 C
1682 01-03-2016 21:10:00 2.6 C 92 % 1.43 C
1683 01-03-2016 21:15:00 2.6 C 93 % 1.59 C
1684 01-03-2016 21:20:00 2.6 C 93 % 1.59 C
1685 01-03-2016 21:25:00 2.7 C 93 % 1.68 C
1686 01-03-2016 21:30:00 2.7 C 93 % 1.68 C
1687 01-03-2016 21:35:00 2.8 C 93 % 1.78 C
1688 01-03-2016 21:40:00 2.9 C 93 % 1.88 C
1689 01-03-2016 21:45:00 2.9 C 93 % 1.88 C
1690 01-03-2016 21:50:00 3 C 93 % 1.98 C
1691 01-03-2016 21:55:00 3.1 C 93 % 2.08 C
1692 01-03-2016 22:00:00 3.2 C 92 % 2.03 C
1693 01-03-2016 22:05:00 3.2 C 92 % 2.03 C
1694 01-03-2016 22:10:00 3.3 C 92 % 2.13 C
1695 01-03-2016 22:15:00 3.4 C 92 % 2.23 C
1696 01-03-2016 22:20:00 3.4 C 92 % 2.23 C
1697 01-03-2016 22:25:00 3.6 C 92 % 2.42 C
1698 01-03-2016 22:30:00 3.6 C 92 % 2.42 C
1699 01-03-2016 22:35:00 3.7 C 92 % 2.52 C
1700 01-03-2016 22:40:00 3.8 C 92 % 2.62 C
Sensor: Nr:Datum:Temp:Feuchte:Taupunkt:
Aussen-T/F 1701 01-03-2016 22:45:00 3.8 C 92 % 2.62 C
1702 01-03-2016 22:50:00 3.8 C 92 % 2.62 C
1703 01-03-2016 22:55:00 3.9 C 92 % 2.72 C
1704 01-03-2016 23:00:00 3.9 C 92 % 2.72 C
1705 01-03-2016 23:05:00 4 C 92 % 2.82 C
1706 01-03-2016 23:10:00 4 C 92 % 2.82 C
1707 01-03-2016 23:15:00 4.1 C 92 % 2.92 C
1708 01-03-2016 23:20:00 4.1 C 92 % 2.92 C
1709 01-03-2016 23:25:00 4.2 C 92 % 3.02 C
1710 01-03-2016 23:30:00 4.2 C 92 % 3.02 C
1711 01-03-2016 23:35:00 4.3 C 92 % 3.12 C
1712 01-03-2016 23:40:00 4.4 C 92 % 3.22 C
1713 01-03-2016 23:45:00 4.4 C 92 % 3.22 C
1714 01-03-2016 23:50:00 4.6 C 91 % 3.26 C
1715 01-03-2016 23:55:00 4.7 C 91 % 3.36 C
1716 02-03-2016 00:00:00 4.8 C 91 % 3.46 C
1717 02-03-2016 00:05:00 4.9 C 91 % 3.56 C
1718 02-03-2016 00:10:00 4.9 C 91 % 3.56 C
1719 02-03-2016 00:15:00 4.9 C 91 % 3.56 C
1720 02-03-2016 00:20:00 4.9 C 91 % 3.56 C
1721 02-03-2016 00:25:00 5 C 91 % 3.66 C
1722 02-03-2016 00:30:00 5 C 91 % 3.66 C
1723 02-03-2016 00:35:00 5.1 C 91 % 3.76 C
1724 02-03-2016 00:40:00 5.1 C 91 % 3.76 C
1725 02-03-2016 00:45:00 5.1 C 91 % 3.76 C
Sensor: Nr:Datum:Temp:Feuchte:Taupunkt:
Aussen-T/F 1726 02-03-2016 00:50:00 5.1 C 91 % 3.76 C
1727 02-03-2016 00:55:00 5.1 C 91 % 3.76 C
1728 02-03-2016 01:00:00 5 C 91 % 3.66 C
1729 02-03-2016 01:05:00 4.9 C 91 % 3.56 C
1730 02-03-2016 01:10:00 5 C 91 % 3.66 C
1731 02-03-2016 01:15:00 5 C 92 % 3.81 C
1732 02-03-2016 01:20:00 5 C 92 % 3.81 C
1733 02-03-2016 01:25:00 5 C 92 % 3.81 C
1734 02-03-2016 01:30:00 5 C 92 % 3.81 C
1735 02-03-2016 01:35:00 5.1 C 92 % 3.91 C
1736 02-03-2016 01:40:00 5.1 C 92 % 3.91 C
1737 02-03-2016 01:45:00 5.1 C 92 % 3.91 C
1738 02-03-2016 01:50:00 5.1 C 92 % 3.91 C
1739 02-03-2016 01:55:00 5.1 C 92 % 3.91 C
1740 02-03-2016 02:00:00 5.1 C 92 % 3.91 C
1741 02-03-2016 02:05:00 5.1 C 92 % 3.91 C
1742 02-03-2016 02:10:00 5.2 C 92 % 4.01 C
1743 02-03-2016 02:15:00 5.2 C 92 % 4.01 C
1744 02-03-2016 02:20:00 5.2 C 93 % 4.16 C
1745 02-03-2016 02:25:00 5.3 C 92 % 4.11 C
1746 02-03-2016 02:30:00 5.3 C 92 % 4.11 C
1747 02-03-2016 02:35:00 5.3 C 93 % 4.26 C
1748 02-03-2016 02:40:00 5.4 C 93 % 4.36 C
1749 02-03-2016 02:45:00 5.5 C 92 % 4.31 C
1750 02-03-2016 02:50:00 5.6 C 92 % 4.41 C
Sensor: Nr:Datum:Temp:Feuchte:Taupunkt:
Aussen-T/F 1751 02-03-2016 02:55:00 5.6 C 92 % 4.41 C
1752 02-03-2016 03:00:00 5.7 C 92 % 4.5 C
1753 02-03-2016 03:05:00 5.7 C 92 % 4.5 C
1754 02-03-2016 03:10:00 5.8 C 92 % 4.6 C
1755 02-03-2016 03:15:00 5.8 C 92 % 4.6 C
1756 02-03-2016 03:20:00 5.8 C 92 % 4.6 C
1757 02-03-2016 03:25:00 5.9 C 92 % 4.7 C
1758 02-03-2016 03:30:00 5.9 C 92 % 4.7 C
1759 02-03-2016 03:35:00 5.9 C 92 % 4.7 C
1760 02-03-2016 03:40:00 5.9 C 92 % 4.7 C
1761 02-03-2016 03:45:00 5.9 C 92 % 4.7 C
1762 02-03-2016 03:50:00 5.9 C 92 % 4.7 C
1763 02-03-2016 03:55:00 5.9 C 92 % 4.7 C
1764 02-03-2016 04:00:00 5.9 C 92 % 4.7 C
1765 02-03-2016 04:05:00 5.9 C 92 % 4.7 C
1766 02-03-2016 04:10:00 5.8 C 92 % 4.6 C
1767 02-03-2016 04:15:00 5.8 C 93 % 4.76 C
1768 02-03-2016 04:20:00 5.8 C 93 % 4.76 C
1769 02-03-2016 04:25:00 5.9 C 93 % 4.86 C
1770 02-03-2016 04:30:00 5.9 C 93 % 4.86 C
1771 02-03-2016 04:35:00 5.8 C 93 % 4.76 C
1772 02-03-2016 04:40:00 5.8 C 93 % 4.76 C
1773 02-03-2016 04:45:00 5.8 C 93 % 4.76 C
1774 02-03-2016 04:50:00 5.8 C 93 % 4.76 C
1775 02-03-2016 04:55:00 5.9 C 94 % 5.01 C
Sensor: Nr:Datum:Temp:Feuchte:Taupunkt:
Aussen-T/F 1776 02-03-2016 05:00:00 5.9 C 94 % 5.01 C
1777 02-03-2016 05:05:00 5.9 C 94 % 5.01 C
1778 02-03-2016 05:10:00 5.9 C 94 % 5.01 C
1779 02-03-2016 05:15:00 5.9 C 94 % 5.01 C
1780 02-03-2016 05:20:00 6 C 94 % 5.11 C
1781 02-03-2016 05:25:00 6.2 C 95 % 5.46 C
1782 02-03-2016 05:30:00 6.4 C 95 % 5.66 C
1783 02-03-2016 05:35:00 6.6 C 94 % 5.71 C
1784 02-03-2016 05:40:00 6.8 C 93 % 5.75 C
1785 02-03-2016 05:45:00 7 C 92 % 5.79 C
1786 02-03-2016 05:50:00 7.3 C 91 % 5.93 C
1787 02-03-2016 05:55:00 7.5 C 89 % 5.81 C
1788 02-03-2016 06:00:00 7.7 C 87 % 5.68 C
1789 02-03-2016 06:05:00 7.8 C 87 % 5.78 C
1790 02-03-2016 06:10:00 7.9 C 86 % 5.71 C
1791 02-03-2016 06:15:00 7.9 C 86 % 5.71 C
1792 02-03-2016 06:20:00 7.9 C 86 % 5.71 C
1793 02-03-2016 06:25:00 8 C 86 % 5.81 C
1794 02-03-2016 06:30:00 8 C 86 % 5.81 C
1795 02-03-2016 06:35:00 8 C 86 % 5.81 C
1796 02-03-2016 06:40:00 7.9 C 86 % 5.71 C
1797 02-03-2016 06:45:00 7.9 C 86 % 5.71 C
1798 02-03-2016 06:50:00 7.9 C 87 % 5.87 C
1799 02-03-2016 06:55:00 7.9 C 87 % 5.87 C
1800 02-03-2016 07:00:00 7.8 C 87 % 5.78 C
Sensor: Nr:Datum:Temp:Feuchte:Taupunkt:
Aussen-T/F 1801 02-03-2016 07:05:00 7.8 C 88 % 5.94 C
1802 02-03-2016 07:10:00 7.7 C 88 % 5.84 C
1803 02-03-2016 07:15:00 7.6 C 89 % 5.91 C
1804 02-03-2016 07:20:00 7.5 C 89 % 5.81 C
1805 02-03-2016 07:25:00 7.5 C 89 % 5.81 C
1806 02-03-2016 07:30:00 7.5 C 90 % 5.97 C
1807 02-03-2016 07:35:00 7.4 C 90 % 5.87 C
1808 02-03-2016 07:40:00 7.3 C 91 % 5.93 C
1809 02-03-2016 07:45:00 7.2 C 92 % 5.99 C
1810 02-03-2016 07:50:00 7.1 C 92 % 5.89 C
1811 02-03-2016 07:55:00 7.1 C 93 % 6.05 C
1812 02-03-2016 08:00:00 7.1 C 93 % 6.05 C
1813 02-03-2016 08:05:00 7.1 C 93 % 6.05 C
1814 02-03-2016 08:10:00 7.1 C 93 % 6.05 C
1815 02-03-2016 08:15:00 7.1 C 94 % 6.2 C
1816 02-03-2016 08:20:00 7.1 C 94 % 6.2 C
1817 02-03-2016 08:25:00 7.2 C 94 % 6.3 C
1818 02-03-2016 08:30:00 7.2 C 94 % 6.3 C
1819 02-03-2016 08:35:00 7.2 C 94 % 6.3 C
1820 02-03-2016 08:40:00 7.2 C 94 % 6.3 C
1821 02-03-2016 08:45:00 7.1 C 94 % 6.2 C
1822 02-03-2016 08:50:00 7.1 C 94 % 6.2 C
1823 02-03-2016 08:55:00 7.1 C 94 % 6.2 C
1824 02-03-2016 09:00:00 7.1 C 94 % 6.2 C
1825 02-03-2016 09:05:00 7.2 C 94 % 6.3 C
Sensor: Nr:Datum:Temp:Feuchte:Taupunkt:
Aussen-T/F 1826 02-03-2016 09:10:00 7.2 C 94 % 6.3 C
1827 02-03-2016 09:15:00 7.3 C 93 % 6.25 C
1828 02-03-2016 09:20:00 7.5 C 93 % 6.44 C
1829 02-03-2016 09:25:00 7.6 C 92 % 6.39 C
1830 02-03-2016 09:30:00 7.7 C 91 % 6.33 C
1831 02-03-2016 09:35:00 7.8 C 91 % 6.43 C
1832 02-03-2016 09:40:00 7.8 C 91 % 6.43 C
1833 02-03-2016 09:45:00 7.8 C 90 % 6.27 C
1834 02-03-2016 09:50:00 7.8 C 90 % 6.27 C
1835 02-03-2016 09:55:00 7.8 C 90 % 6.27 C
1836 02-03-2016 10:00:00 7.8 C 90 % 6.27 C
1837 02-03-2016 10:05:00 7.8 C 90 % 6.27 C
1838 02-03-2016 10:10:00 7.8 C 89 % 6.1 C
1839 02-03-2016 10:15:00 7.9 C 90 % 6.36 C
1840 02-03-2016 10:20:00 8 C 89 % 6.3 C
1841 02-03-2016 10:25:00 8.1 C 89 % 6.4 C
1842 02-03-2016 10:30:00 8.1 C 89 % 6.4 C
1843 02-03-2016 10:35:00 8 C 89 % 6.3 C
1844 02-03-2016 10:40:00 8 C 90 % 6.46 C
1845 02-03-2016 10:45:00 7.9 C 90 % 6.36 C
1846 02-03-2016 10:50:00 7.8 C 90 % 6.27 C
1847 02-03-2016 10:55:00 7.7 C 90 % 6.17 C
1848 02-03-2016 11:00:00 7.7 C 89 % 6 C
1849 02-03-2016 11:05:00 7.6 C 88 % 5.74 C
1850 02-03-2016 11:10:00 7.7 C 87 % 5.68 C
Sensor: Nr:Datum:Temp:Feuchte:Taupunkt:
Aussen-T/F 1851 02-03-2016 11:15:00 7.7 C 86 % 5.51 C
1852 02-03-2016 11:20:00 7.8 C 83 % 5.1 C
1853 02-03-2016 11:25:00 7.9 C 83 % 5.2 C
1854 02-03-2016 11:30:00 8.1 C 82 % 5.22 C
1855 02-03-2016 11:35:00 8.2 C 82 % 5.32 C
1856 02-03-2016 11:40:00 8.2 C 81 % 5.14 C
1857 02-03-2016 11:45:00 8.3 C 80 % 5.06 C
1858 02-03-2016 11:50:00 8.4 C 80 % 5.16 C
1859 02-03-2016 11:55:00 8.4 C 79 % 4.98 C
1860 02-03-2016 12:00:00 8.2 C 81 % 5.14 C
1861 02-03-2016 12:05:00 7.7 C 83 % 5 C
1862 02-03-2016 12:10:00 7.3 C 85 % 4.95 C
1863 02-03-2016 12:15:00 7.2 C 86 % 5.02 C
1864 02-03-2016 12:20:00 7.2 C 85 % 4.85 C
1865 02-03-2016 12:25:00 7.3 C 86 % 5.12 C
1866 02-03-2016 12:30:00 7.4 C 85 % 5.05 C
1867 02-03-2016 12:35:00 7.4 C 82 % 4.53 C
1868 02-03-2016 12:40:00 7.3 C 81 % 4.26 C
1869 02-03-2016 12:45:00 7.3 C 78 % 3.73 C
1870 02-03-2016 12:50:00 7.4 C 79 % 4 C
1871 02-03-2016 12:55:00 7.4 C 79 % 4 C
1872 02-03-2016 13:00:00 7.6 C 77 % 3.83 C
1873 02-03-2016 13:05:00 7.6 C 77 % 3.83 C
1874 02-03-2016 13:10:00 7.6 C 75 % 3.46 C
1875 02-03-2016 13:15:00 7.6 C 75 % 3.46 C
Sensor: Nr:Datum:Temp:Feuchte:Taupunkt:
Aussen-T/F 1876 02-03-2016 13:20:00 7.6 C 73 % 3.08 C
1877 02-03-2016 13:25:00 7.6 C 73 % 3.08 C
1878 02-03-2016 13:30:00 7.6 C 73 % 3.08 C
1879 02-03-2016 13:35:00 7.6 C 73 % 3.08 C
1880 02-03-2016 13:40:00 7.6 C 73 % 3.08 C
1881 02-03-2016 13:45:00 7.6 C 72 % 2.88 C
1882 02-03-2016 13:50:00 7.6 C 71 % 2.69 C
1883 02-03-2016 13:55:00 7.6 C 72 % 2.88 C
1884 02-03-2016 14:00:00 7.6 C 69 % 2.29 C
1885 02-03-2016 14:05:00 7.5 C 70 % 2.39 C
1886 02-03-2016 14:10:00 7.5 C 71 % 2.59 C
1887 02-03-2016 14:15:00 7.5 C 70 % 2.39 C
1888 02-03-2016 14:20:00 7.5 C 70 % 2.39 C
1889 02-03-2016 14:25:00 7.6 C 71 % 2.69 C
1890 02-03-2016 14:30:00 7.6 C 70 % 2.49 C
1891 02-03-2016 14:35:00 7.7 C 69 % 2.38 C
1892 02-03-2016 14:40:00 7.7 C 69 % 2.38 C
1893 02-03-2016 14:45:00 7.8 C 70 % 2.68 C
1894 02-03-2016 14:50:00 7.9 C 70 % 2.78 C
1895 02-03-2016 14:55:00 7.8 C 69 % 2.48 C
1896 02-03-2016 15:00:00 7.8 C 68 % 2.27 C
1897 02-03-2016 15:05:00 7.7 C 70 % 2.58 C
1898 02-03-2016 15:10:00 7.8 C 70 % 2.68 C
1899 02-03-2016 15:15:00 7.8 C 70 % 2.68 C
1900 02-03-2016 15:20:00 7.8 C 70 % 2.68 C
Sensor: Nr:Datum:Temp:Feuchte:Taupunkt:
Aussen-T/F 1901 02-03-2016 15:25:00 7.8 C 70 % 2.68 C
1902 02-03-2016 15:30:00 7.9 C 70 % 2.78 C
1903 02-03-2016 15:35:00 8 C 70 % 2.87 C
1904 02-03-2016 15:40:00 8.1 C 70 % 2.97 C
1905 02-03-2016 15:45:00 8.1 C 70 % 2.97 C
1906 02-03-2016 15:50:00 8.1 C 70 % 2.97 C
1907 02-03-2016 15:55:00 8.1 C 70 % 2.97 C
1908 02-03-2016 16:00:00 8.1 C 69 % 2.77 C
1909 02-03-2016 16:05:00 8.1 C 70 % 2.97 C
1910 02-03-2016 16:10:00 8.2 C 70 % 3.06 C
1911 02-03-2016 16:15:00 8.2 C 71 % 3.26 C
1912 02-03-2016 16:20:00 8.2 C 69 % 2.86 C
1913 02-03-2016 16:25:00 8.3 C 70 % 3.16 C
1914 02-03-2016 16:30:00 8.6 C 69 % 3.24 C
1915 02-03-2016 16:35:00 8.8 C 68 % 3.23 C
1916 02-03-2016 16:40:00 8.8 C 66 % 2.81 C
1917 02-03-2016 16:45:00 9 C 65 % 2.78 C
1918 02-03-2016 16:50:00 9.1 C 65 % 2.88 C
1919 02-03-2016 16:55:00 8.9 C 65 % 2.69 C
1920 02-03-2016 17:00:00 8.7 C 65 % 2.5 C
1921 02-03-2016 17:05:00 8.5 C 67 % 2.73 C
1922 02-03-2016 17:10:00 8.3 C 70 % 3.16 C
1923 02-03-2016 17:15:00 8.1 C 68 % 2.56 C
1924 02-03-2016 17:20:00 7.9 C 70 % 2.78 C
1925 02-03-2016 17:25:00 7.9 C 69 % 2.57 C
Sensor: Nr:Datum:Temp:Feuchte:Taupunkt:
Aussen-T/F 1926 02-03-2016 17:30:00 7.8 C 70 % 2.68 C
1927 02-03-2016 17:35:00 7.7 C 69 % 2.38 C
1928 02-03-2016 17:40:00 7.6 C 71 % 2.69 C
1929 02-03-2016 17:45:00 7.4 C 72 % 2.69 C
1930 02-03-2016 17:50:00 7.2 C 73 % 2.69 C
1931 02-03-2016 17:55:00 7.1 C 73 % 2.6 C
1932 02-03-2016 18:00:00 6.9 C 74 % 2.6 C
1933 02-03-2016 18:05:00 6.7 C 75 % 2.59 C
1934 02-03-2016 18:10:00 6.4 C 75 % 2.3 C
1935 02-03-2016 18:15:00 6.3 C 75 % 2.2 C
1936 02-03-2016 18:20:00 6.2 C 75 % 2.11 C
1937 02-03-2016 18:25:00 6 C 76 % 2.1 C
1938 02-03-2016 18:30:00 5.8 C 77 % 2.09 C
1939 02-03-2016 18:35:00 5.6 C 78 % 2.07 C
1940 02-03-2016 18:40:00 5.4 C 79 % 2.06 C
1941 02-03-2016 18:45:00 5.2 C 80 % 2.04 C
1942 02-03-2016 18:50:00 5 C 81 % 2.02 C
1943 02-03-2016 18:55:00 4.8 C 81 % 1.82 C
1944 02-03-2016 19:00:00 4.7 C 82 % 1.9 C
1945 02-03-2016 19:05:00 4.5 C 82 % 1.7 C
1946 02-03-2016 19:10:00 4.4 C 82 % 1.6 C
1947 02-03-2016 19:15:00 4.3 C 82 % 1.51 C
1948 02-03-2016 19:20:00 4.2 C 83 % 1.58 C
1949 02-03-2016 19:25:00 4.3 C 83 % 1.67 C
1950 02-03-2016 19:30:00 4.4 C 82 % 1.6 C
Sensor: Nr:Datum:Temp:Feuchte:Taupunkt:
Aussen-T/F 1951 02-03-2016 19:35:00 4.6 C 82 % 1.8 C
1952 02-03-2016 19:40:00 4.7 C 81 % 1.73 C
1953 02-03-2016 19:45:00 4.6 C 81 % 1.63 C
1954 02-03-2016 19:50:00 4.5 C 82 % 1.7 C
1955 02-03-2016 19:55:00 4.6 C 81 % 1.63 C
1956 02-03-2016 20:00:00 4.7 C 81 % 1.73 C
1957 02-03-2016 20:05:00 4.8 C 80 % 1.65 C
1958 02-03-2016 20:10:00 4.8 C 80 % 1.65 C
1959 02-03-2016 20:15:00 4.9 C 80 % 1.75 C
1960 02-03-2016 20:20:00 5 C 79 % 1.67 C
1961 02-03-2016 20:25:00 5.1 C 80 % 1.94 C
1962 02-03-2016 20:30:00 5.1 C 80 % 1.94 C
1963 02-03-2016 20:35:00 5.2 C 80 % 2.04 C
1964 02-03-2016 20:40:00 5.3 C 79 % 1.96 C
1965 02-03-2016 20:45:00 5.4 C 79 % 2.06 C
1966 02-03-2016 20:50:00 5.4 C 79 % 2.06 C
1967 02-03-2016 20:55:00 5.5 C 78 % 1.98 C
1968 02-03-2016 21:00:00 5.6 C 78 % 2.07 C
1969 02-03-2016 21:05:00 5.6 C 78 % 2.07 C
1970 02-03-2016 21:10:00 5.6 C 79 % 2.25 C
1971 02-03-2016 21:15:00 5.6 C 79 % 2.25 C
1972 02-03-2016 21:20:00 5.6 C 79 % 2.25 C
1973 02-03-2016 21:25:00 5.5 C 79 % 2.16 C
1974 02-03-2016 21:30:00 5.4 C 79 % 2.06 C
1975 02-03-2016 21:35:00 5.4 C 78 % 1.88 C
Sensor: Nr:Datum:Temp:Feuchte:Taupunkt:
Aussen-T/F 1976 02-03-2016 21:40:00 5.3 C 78 % 1.78 C
1977 02-03-2016 21:45:00 5.2 C 79 % 1.86 C
1978 02-03-2016 21:50:00 5.1 C 79 % 1.77 C
1979 02-03-2016 21:55:00 5.1 C 80 % 1.94 C
1980 02-03-2016 22:00:00 5 C 79 % 1.67 C
1981 02-03-2016 22:05:00 5.1 C 81 % 2.12 C
1982 02-03-2016 22:10:00 5 C 81 % 2.02 C
1983 02-03-2016 22:15:00 4.9 C 81 % 1.92 C
1984 02-03-2016 22:20:00 4.8 C 81 % 1.82 C
1985 02-03-2016 22:25:00 4.7 C 81 % 1.73 C
1986 02-03-2016 22:30:00 4.7 C 80 % 1.55 C
1987 02-03-2016 22:35:00 4.7 C 80 % 1.55 C
1988 02-03-2016 22:40:00 4.6 C 81 % 1.63 C
1989 02-03-2016 22:45:00 4.6 C 81 % 1.63 C
1990 02-03-2016 22:50:00 4.6 C 81 % 1.63 C
1991 02-03-2016 22:55:00 4.6 C 82 % 1.8 C
1992 02-03-2016 23:00:00 4.5 C 82 % 1.7 C
1993 02-03-2016 23:05:00 4.4 C 83 % 1.77 C
1994 02-03-2016 23:10:00 4.4 C 83 % 1.77 C
1995 02-03-2016 23:15:00 4.3 C 83 % 1.67 C
1996 02-03-2016 23:20:00 4.3 C 83 % 1.67 C
1997 02-03-2016 23:25:00 4.3 C 83 % 1.67 C
1998 02-03-2016 23:30:00 4.3 C 83 % 1.67 C
1999 02-03-2016 23:35:00 4.2 C 83 % 1.58 C
2000 02-03-2016 23:40:00 4.2 C 83 % 1.58 C
Sensor: Nr:Datum:Temp:Feuchte:Taupunkt:
Aussen-T/F 2001 02-03-2016 23:45:00 4.2 C 83 % 1.58 C
2002 02-03-2016 23:50:00 4.2 C 83 % 1.58 C
2003 02-03-2016 23:55:00 4.1 C 82 % 1.31 C
2004 03-03-2016 00:00:00 4.1 C 82 % 1.31 C
2005 03-03-2016 00:05:00 4.1 C 81 % 1.14 C
2006 03-03-2016 00:10:00 4.1 C 81 % 1.14 C
2007 03-03-2016 00:15:00 4.1 C 81 % 1.14 C
2008 03-03-2016 00:20:00 4.1 C 81 % 1.14 C
2009 03-03-2016 00:25:00 4.1 C 81 % 1.14 C
2010 03-03-2016 00:30:00 4.1 C 81 % 1.14 C
2011 03-03-2016 00:35:00 4.1 C 81 % 1.14 C
2012 03-03-2016 00:40:00 4.1 C 81 % 1.14 C
2013 03-03-2016 00:45:00 4.1 C 81 % 1.14 C
2014 03-03-2016 00:50:00 4.1 C 82 % 1.31 C
2015 03-03-2016 00:55:00 4.1 C 81 % 1.14 C
2016 03-03-2016 01:00:00 4 C 82 % 1.21 C
2017 03-03-2016 01:05:00 3.9 C 82 % 1.12 C
2018 03-03-2016 01:10:00 3.9 C 82 % 1.12 C
2019 03-03-2016 01:15:00 3.9 C 82 % 1.12 C
2020 03-03-2016 01:20:00 3.8 C 82 % 1.02 C
2021 03-03-2016 01:25:00 3.8 C 82 % 1.02 C
2022 03-03-2016 01:30:00 3.7 C 82 % 0.92 C
2023 03-03-2016 01:35:00 3.6 C 83 % 0.99 C
2024 03-03-2016 01:40:00 3.6 C 83 % 0.99 C
2025 03-03-2016 01:45:00 3.6 C 83 % 0.99 C
Sensor: Nr:Datum:Temp:Feuchte:Taupunkt:
Aussen-T/F 2026 03-03-2016 01:50:00 3.5 C 84 % 1.06 C
2027 03-03-2016 01:55:00 3.4 C 84 % 0.96 C
2028 03-03-2016 02:00:00 3.3 C 84 % 0.86 C
2029 03-03-2016 02:05:00 3.3 C 84 % 0.86 C
2030 03-03-2016 02:10:00 3.2 C 84 % 0.76 C
2031 03-03-2016 02:15:00 3.2 C 85 % 0.93 C
2032 03-03-2016 02:20:00 3.2 C 85 % 0.93 C
2033 03-03-2016 02:25:00 3.3 C 85 % 1.03 C
2034 03-03-2016 02:30:00 3.3 C 85 % 1.03 C
2035 03-03-2016 02:35:00 3.4 C 85 % 1.12 C
2036 03-03-2016 02:40:00 3.5 C 84 % 1.06 C
2037 03-03-2016 02:45:00 3.6 C 84 % 1.16 C
2038 03-03-2016 02:50:00 3.6 C 84 % 1.16 C
2039 03-03-2016 02:55:00 3.6 C 84 % 1.16 C
2040 03-03-2016 03:00:00 3.6 C 84 % 1.16 C
2041 03-03-2016 03:05:00 3.5 C 84 % 1.06 C
2042 03-03-2016 03:10:00 3.4 C 84 % 0.96 C
2043 03-03-2016 03:15:00 3.4 C 84 % 0.96 C
2044 03-03-2016 03:20:00 3.4 C 85 % 1.12 C
2045 03-03-2016 03:25:00 3.4 C 85 % 1.12 C
2046 03-03-2016 03:30:00 3.4 C 85 % 1.12 C
2047 03-03-2016 03:35:00 3.4 C 84 % 0.96 C
2048 03-03-2016 03:40:00 3.4 C 84 % 0.96 C
2049 03-03-2016 03:45:00 3.4 C 84 % 0.96 C
2050 03-03-2016 03:50:00 3.4 C 84 % 0.96 C
Sensor: Nr:Datum:Temp:Feuchte:Taupunkt:
Aussen-T/F 2051 03-03-2016 03:55:00 3.4 C 85 % 1.12 C
2052 03-03-2016 04:00:00 3.4 C 85 % 1.12 C
2053 03-03-2016 04:05:00 3.4 C 85 % 1.12 C
2054 03-03-2016 04:10:00 3.3 C 85 % 1.03 C
2055 03-03-2016 04:15:00 3.3 C 85 % 1.03 C
2056 03-03-2016 04:20:00 3.3 C 85 % 1.03 C
2057 03-03-2016 04:25:00 3.4 C 84 % 0.96 C
2058 03-03-2016 04:30:00 3.4 C 84 % 0.96 C
2059 03-03-2016 04:35:00 3.5 C 84 % 1.06 C
2060 03-03-2016 04:40:00 3.4 C 84 % 0.96 C
2061 03-03-2016 04:45:00 3.5 C 84 % 1.06 C
2062 03-03-2016 04:50:00 3.5 C 83 % 0.89 C
2063 03-03-2016 04:55:00 3.6 C 83 % 0.99 C
2064 03-03-2016 05:00:00 3.6 C 83 % 0.99 C
2065 03-03-2016 05:05:00 3.6 C 83 % 0.99 C
2066 03-03-2016 05:10:00 3.6 C 83 % 0.99 C
2067 03-03-2016 05:15:00 3.6 C 83 % 0.99 C
2068 03-03-2016 05:20:00 3.6 C 82 % 0.82 C
2069 03-03-2016 05:25:00 3.7 C 82 % 0.92 C
2070 03-03-2016 05:30:00 3.7 C 82 % 0.92 C
2071 03-03-2016 05:35:00 3.6 C 82 % 0.82 C
2072 03-03-2016 05:40:00 3.6 C 81 % 0.65 C
2073 03-03-2016 05:45:00 3.6 C 81 % 0.65 C
2074 03-03-2016 05:50:00 3.6 C 81 % 0.65 C
2075 03-03-2016 05:55:00 3.5 C 82 % 0.72 C
Sensor: Nr:Datum:Temp:Feuchte:Taupunkt:
Aussen-T/F 2076 03-03-2016 06:00:00 3.4 C 82 % 0.63 C
2077 03-03-2016 06:05:00 3.3 C 82 % 0.53 C
2078 03-03-2016 06:10:00 3.1 C 83 % 0.5 C
2079 03-03-2016 06:15:00 2.8 C 84 % 0.37 C
2080 03-03-2016 06:20:00 2.8 C 84 % 0.37 C
2081 03-03-2016 06:25:00 2.6 C 85 % 0.34 C
2082 03-03-2016 06:30:00 2.5 C 86 % 0.4 C
2083 03-03-2016 06:35:00 2.4 C 87 % 0.46 C
2084 03-03-2016 06:40:00 2.4 C 87 % 0.46 C
2085 03-03-2016 06:45:00 2.4 C 87 % 0.46 C
2086 03-03-2016 06:50:00 2.4 C 87 % 0.46 C
2087 03-03-2016 06:55:00 2.4 C 87 % 0.46 C
2088 03-03-2016 07:00:00 2.4 C 88 % 0.62 C
2089 03-03-2016 07:05:00 2.4 C 88 % 0.62 C
2090 03-03-2016 07:10:00 2.4 C 88 % 0.62 C
2091 03-03-2016 07:15:00 2.5 C 89 % 0.88 C
2092 03-03-2016 07:20:00 2.5 C 89 % 0.88 C
2093 03-03-2016 07:25:00 2.4 C 89 % 0.78 C
2094 03-03-2016 07:30:00 2.5 C 89 % 0.88 C
2095 03-03-2016 07:35:00 2.5 C 89 % 0.88 C
2096 03-03-2016 07:40:00 2.5 C 90 % 1.03 C
2097 03-03-2016 07:45:00 2.6 C 90 % 1.13 C
2098 03-03-2016 07:50:00 2.7 C 90 % 1.23 C
2099 03-03-2016 07:55:00 2.7 C 90 % 1.23 C
2100 03-03-2016 08:00:00 2.7 C 91 % 1.38 C
Sensor: Nr:Datum:Temp:Feuchte:Taupunkt:
Aussen-T/F 2101 03-03-2016 08:05:00 2.8 C 91 % 1.48 C
2102 03-03-2016 08:10:00 2.8 C 91 % 1.48 C
2103 03-03-2016 08:15:00 2.9 C 91 % 1.58 C
2104 03-03-2016 08:20:00 2.9 C 91 % 1.58 C
2105 03-03-2016 08:25:00 3.1 C 91 % 1.78 C
2106 03-03-2016 08:30:00 3.1 C 91 % 1.78 C
2107 03-03-2016 08:35:00 3.2 C 91 % 1.88 C
2108 03-03-2016 08:40:00 3.2 C 91 % 1.88 C
2109 03-03-2016 08:45:00 3.3 C 91 % 1.98 C
2110 03-03-2016 08:50:00 3.3 C 90 % 1.82 C
2111 03-03-2016 08:55:00 3.3 C 91 % 1.98 C
2112 03-03-2016 09:00:00 3.4 C 90 % 1.92 C
2113 03-03-2016 09:05:00 3.4 C 90 % 1.92 C
2114 03-03-2016 09:10:00 3.6 C 90 % 2.12 C
2115 03-03-2016 09:15:00 3.7 C 90 % 2.22 C
2116 03-03-2016 09:20:00 3.8 C 90 % 2.31 C
2117 03-03-2016 09:25:00 3.9 C 90 % 2.41 C
2118 03-03-2016 09:30:00 4.1 C 89 % 2.45 C
2119 03-03-2016 09:35:00 4.2 C 88 % 2.39 C
2120 03-03-2016 09:40:00 4.4 C 88 % 2.59 C
2121 03-03-2016 09:45:00 4.6 C 87 % 2.63 C
2122 03-03-2016 09:50:00 4.7 C 86 % 2.56 C
2123 03-03-2016 09:55:00 4.8 C 86 % 2.66 C
2124 03-03-2016 10:00:00 5.1 C 86 % 2.96 C
2125 03-03-2016 10:05:00 5.2 C 85 % 2.89 C
Sensor: Nr:Datum:Temp:Feuchte:Taupunkt:
Aussen-T/F 2126 03-03-2016 10:10:00 5.3 C 84 % 2.82 C
2127 03-03-2016 10:15:00 5.3 C 83 % 2.65 C
2128 03-03-2016 10:20:00 5.4 C 83 % 2.75 C
2129 03-03-2016 10:25:00 5.4 C 82 % 2.58 C
2130 03-03-2016 10:30:00 5.5 C 83 % 2.85 C
2131 03-03-2016 10:35:00 5.6 C 82 % 2.78 C
2132 03-03-2016 10:40:00 5.7 C 82 % 2.87 C
2133 03-03-2016 10:45:00 5.7 C 81 % 2.7 C
2134 03-03-2016 10:50:00 5.9 C 81 % 2.9 C
2135 03-03-2016 10:55:00 5.9 C 80 % 2.72 C
2136 03-03-2016 11:00:00 5.9 C 80 % 2.72 C
2137 03-03-2016 11:05:00 5.9 C 79 % 2.54 C
2138 03-03-2016 11:10:00 6 C 80 % 2.82 C
2139 03-03-2016 11:15:00 5.9 C 79 % 2.54 C
2140 03-03-2016 11:20:00 5.8 C 80 % 2.62 C
2141 03-03-2016 11:25:00 5.7 C 80 % 2.53 C
2142 03-03-2016 11:30:00 5.7 C 80 % 2.53 C
2143 03-03-2016 11:35:00 5.5 C 81 % 2.51 C
2144 03-03-2016 11:40:00 5.4 C 81 % 2.41 C
2145 03-03-2016 11:45:00 5.3 C 82 % 2.48 C
2146 03-03-2016 11:50:00 5.3 C 82 % 2.48 C
2147 03-03-2016 11:55:00 5.4 C 82 % 2.58 C
2148 03-03-2016 12:00:00 5.6 C 82 % 2.78 C
2149 03-03-2016 12:05:00 5.7 C 82 % 2.87 C
2150 03-03-2016 12:10:00 5.8 C 81 % 2.8 C
Sensor: Nr:Datum:Temp:Feuchte:Taupunkt:
Aussen-T/F 2151 03-03-2016 12:15:00 5.9 C 80 % 2.72 C
2152 03-03-2016 12:20:00 6 C 80 % 2.82 C
2153 03-03-2016 12:25:00 6.2 C 80 % 3.01 C
2154 03-03-2016 12:30:00 6.2 C 80 % 3.01 C
2155 03-03-2016 12:35:00 6.2 C 79 % 2.84 C
2156 03-03-2016 12:40:00 6.1 C 79 % 2.74 C
2157 03-03-2016 12:45:00 6.1 C 80 % 2.92 C
2158 03-03-2016 12:50:00 6 C 80 % 2.82 C
2159 03-03-2016 12:55:00 6 C 81 % 2.99 C
2160 03-03-2016 13:00:00 6 C 80 % 2.82 C
2161 03-03-2016 13:05:00 5.9 C 80 % 2.72 C
2162 03-03-2016 13:10:00 5.9 C 80 % 2.72 C
2163 03-03-2016 13:15:00 5.8 C 80 % 2.62 C
2164 03-03-2016 13:20:00 5.8 C 81 % 2.8 C
2165 03-03-2016 13:25:00 5.9 C 81 % 2.9 C
2166 03-03-2016 13:30:00 5.9 C 81 % 2.9 C
2167 03-03-2016 13:35:00 5.8 C 81 % 2.8 C
2168 03-03-2016 13:40:00 5.8 C 81 % 2.8 C
2169 03-03-2016 13:45:00 5.8 C 81 % 2.8 C
2170 03-03-2016 13:50:00 5.8 C 82 % 2.97 C
2171 03-03-2016 13:55:00 5.9 C 82 % 3.07 C
2172 03-03-2016 14:00:00 6.1 C 82 % 3.26 C
2173 03-03-2016 14:05:00 6.2 C 82 % 3.36 C
2174 03-03-2016 14:10:00 6.1 C 81 % 3.09 C
2175 03-03-2016 14:15:00 6.1 C 82 % 3.26 C
Sensor: Nr:Datum:Temp:Feuchte:Taupunkt:
Aussen-T/F 2176 03-03-2016 14:20:00 6.1 C 82 % 3.26 C
2177 03-03-2016 14:25:00 6.1 C 81 % 3.09 C
2178 03-03-2016 14:30:00 6 C 81 % 2.99 C
2179 03-03-2016 14:35:00 5.9 C 81 % 2.9 C
2180 03-03-2016 14:40:00 5.8 C 81 % 2.8 C
2181 03-03-2016 14:45:00 5.4 C 82 % 2.58 C
2182 03-03-2016 14:50:00 4.9 C 84 % 2.43 C
2183 03-03-2016 14:55:00 4.7 C 86 % 2.56 C
2184 03-03-2016 15:00:00 4.4 C 87 % 2.43 C
2185 03-03-2016 15:05:00 4.3 C 89 % 2.65 C
2186 03-03-2016 15:10:00 4.1 C 89 % 2.45 C
2187 03-03-2016 15:15:00 4.1 C 90 % 2.61 C
2188 03-03-2016 15:20:00 4 C 90 % 2.51 C
2189 03-03-2016 15:25:00 4 C 91 % 2.67 C
2190 03-03-2016 15:30:00 4 C 91 % 2.67 C
2191 03-03-2016 15:35:00 4.1 C 92 % 2.92 C
2192 03-03-2016 15:40:00 4.1 C 92 % 2.92 C
2193 03-03-2016 15:45:00 4.1 C 92 % 2.92 C
2194 03-03-2016 15:50:00 4.2 C 93 % 3.17 C
2195 03-03-2016 15:55:00 4.2 C 92 % 3.02 C
2196 03-03-2016 16:00:00 4.3 C 93 % 3.27 C
2197 03-03-2016 16:05:00 4.3 C 92 % 3.12 C
2198 03-03-2016 16:10:00 4.3 C 92 % 3.12 C
2199 03-03-2016 16:15:00 4.4 C 92 % 3.22 C
2200 03-03-2016 16:20:00 4.5 C 92 % 3.32 C
Sensor: Nr:Datum:Temp:Feuchte:Taupunkt:
Aussen-T/F 2201 03-03-2016 16:25:00 4.6 C 92 % 3.42 C
2202 03-03-2016 16:30:00 4.7 C 92 % 3.51 C
2203 03-03-2016 16:35:00 4.8 C 92 % 3.61 C
2204 03-03-2016 16:40:00 4.9 C 91 % 3.56 C
2205 03-03-2016 16:45:00 4.9 C 91 % 3.56 C
2206 03-03-2016 16:50:00 5 C 91 % 3.66 C
2207 03-03-2016 16:55:00 5.1 C 91 % 3.76 C
2208 03-03-2016 17:00:00 5.1 C 90 % 3.6 C
2209 03-03-2016 17:05:00 5.1 C 89 % 3.44 C
2210 03-03-2016 17:10:00 5 C 89 % 3.34 C
2211 03-03-2016 17:15:00 5 C 90 % 3.5 C
2212 03-03-2016 17:20:00 5 C 90 % 3.5 C
2213 03-03-2016 17:25:00 5 C 90 % 3.5 C
2214 03-03-2016 17:30:00 5.2 C 90 % 3.7 C
2215 03-03-2016 17:35:00 5.3 C 88 % 3.48 C
2216 03-03-2016 17:40:00 5.3 C 88 % 3.48 C
2217 03-03-2016 17:45:00 5.4 C 87 % 3.41 C
2218 03-03-2016 17:50:00 5.6 C 88 % 3.77 C
2219 03-03-2016 17:55:00 5.7 C 88 % 3.87 C
2220 03-03-2016 18:00:00 5.5 C 87 % 3.51 C
2221 03-03-2016 18:05:00 5.3 C 86 % 3.15 C
2222 03-03-2016 18:10:00 5.2 C 87 % 3.22 C
2223 03-03-2016 18:15:00 4.9 C 87 % 2.92 C
2224 03-03-2016 18:20:00 4.6 C 87 % 2.63 C
2225 03-03-2016 18:25:00 4.3 C 88 % 2.49 C
Sensor: Nr:Datum:Temp:Feuchte:Taupunkt:
Aussen-T/F 2226 03-03-2016 18:30:00 4.2 C 89 % 2.55 C
2227 03-03-2016 18:35:00 4.2 C 89 % 2.55 C
2228 03-03-2016 18:40:00 4 C 89 % 2.36 C
2229 03-03-2016 18:45:00 3.8 C 89 % 2.16 C
2230 03-03-2016 18:50:00 3.5 C 90 % 2.02 C
2231 03-03-2016 18:55:00 3.3 C 90 % 1.82 C
2232 03-03-2016 19:00:00 3.2 C 91 % 1.88 C
2233 03-03-2016 19:05:00 3.1 C 92 % 1.93 C
2234 03-03-2016 19:10:00 3.1 C 92 % 1.93 C
2235 03-03-2016 19:15:00 3 C 92 % 1.83 C
2236 03-03-2016 19:20:00 2.9 C 92 % 1.73 C
2237 03-03-2016 19:25:00 2.8 C 92 % 1.63 C
2238 03-03-2016 19:30:00 2.6 C 92 % 1.43 C
2239 03-03-2016 19:35:00 2.5 C 92 % 1.34 C
2240 03-03-2016 19:40:00 2.4 C 93 % 1.39 C
2241 03-03-2016 19:45:00 2.4 C 93 % 1.39 C
2242 03-03-2016 19:50:00 2.3 C 93 % 1.29 C
2243 03-03-2016 19:55:00 2.3 C 93 % 1.29 C
2244 03-03-2016 20:00:00 2.2 C 93 % 1.19 C
2245 03-03-2016 20:05:00 2.1 C 93 % 1.09 C
2246 03-03-2016 20:10:00 2 C 93 % 0.99 C
2247 03-03-2016 20:15:00 1.8 C 93 % 0.79 C
2248 03-03-2016 20:20:00 1.7 C 93 % 0.69 C
2249 03-03-2016 20:25:00 1.6 C 93 % 0.59 C
2250 03-03-2016 20:30:00 1.4 C 93 % 0.4 C
Sensor: Nr:Datum:Temp:Feuchte:Taupunkt:
Aussen-T/F 2251 03-03-2016 20:35:00 1.4 C 94 % 0.54 C
2252 03-03-2016 20:40:00 1.4 C 94 % 0.54 C
2253 03-03-2016 20:45:00 1.4 C 94 % 0.54 C
2254 03-03-2016 20:50:00 1.3 C 94 % 0.44 C
2255 03-03-2016 20:55:00 1.2 C 94 % 0.34 C
2256 03-03-2016 21:00:00 1.2 C 94 % 0.34 C
2257 03-03-2016 21:05:00 1.2 C 94 % 0.34 C
2258 03-03-2016 21:10:00 1.1 C 94 % 0.24 C
2259 03-03-2016 21:15:00 0.9 C 94 % 0.05 C
2260 03-03-2016 21:20:00 0.9 C 94 % 0.05 C
2261 03-03-2016 21:25:00 0.8 C 94 % -0.05 C
2262 03-03-2016 21:30:00 0.8 C 95 % 0.09 C
2263 03-03-2016 21:35:00 0.8 C 94 % -0.05 C
2264 03-03-2016 21:40:00 0.8 C 94 % -0.05 C
2265 03-03-2016 21:45:00 0.8 C 95 % 0.09 C
2266 03-03-2016 21:50:00 0.8 C 95 % 0.09 C
2267 03-03-2016 21:55:00 0.7 C 95 % -0.01 C
2268 03-03-2016 22:00:00 0.7 C 95 % -0.01 C
2269 03-03-2016 22:05:00 0.7 C 95 % -0.01 C
2270 03-03-2016 22:10:00 0.6 C 95 % -0.11 C
2271 03-03-2016 22:15:00 0.6 C 95 % -0.11 C
2272 03-03-2016 22:20:00 0.6 C 95 % -0.11 C
2273 03-03-2016 22:25:00 0.5 C 95 % -0.21 C
2274 03-03-2016 22:30:00 0.4 C 95 % -0.31 C
2275 03-03-2016 22:35:00 0.4 C 95 % -0.31 C
Sensor: Nr:Datum:Temp:Feuchte:Taupunkt:
Aussen-T/F 2276 03-03-2016 22:40:00 0.3 C 95 % -0.4 C
2277 03-03-2016 22:45:00 0.2 C 95 % -0.5 C
2278 03-03-2016 22:50:00 0.2 C 95 % -0.5 C
2279 03-03-2016 22:55:00 0.1 C 95 % -0.6 C
2280 03-03-2016 23:00:00 0.2 C 95 % -0.5 C
2281 03-03-2016 23:05:00 0.3 C 95 % -0.4 C
2282 03-03-2016 23:10:00 0.3 C 95 % -0.4 C
2283 03-03-2016 23:15:00 0.2 C 95 % -0.5 C
2284 03-03-2016 23:20:00 0.1 C 95 % -0.6 C
2285 03-03-2016 23:25:00 0 C 95 % -0.7 C
2286 03-03-2016 23:30:00 -0.1 C 95 % -0.8 C
2287 03-03-2016 23:35:00 -0.2 C 95 % -0.9 C
2288 03-03-2016 23:40:00 -0.2 C 95 % -0.9 C
2289 03-03-2016 23:45:00 -0.3 C 95 % -1 C
2290 03-03-2016 23:50:00 -0.3 C 95 % -1 C
2291 03-03-2016 23:55:00 -0.2 C 95 % -0.9 C
2292 04-03-2016 00:00:00 -0.2 C 95 % -0.9 C
2293 04-03-2016 00:05:00 -0.3 C 95 % -1 C
2294 04-03-2016 00:10:00 -0.2 C 95 % -0.9 C
2295 04-03-2016 00:15:00 -0.3 C 95 % -1 C
2296 04-03-2016 00:20:00 -0.3 C 95 % -1 C
2297 04-03-2016 00:25:00 -0.4 C 95 % -1.1 C
2298 04-03-2016 00:30:00 -0.3 C 95 % -1 C
2299 04-03-2016 00:35:00 -0.3 C 95 % -1 C
2300 04-03-2016 00:40:00 -0.3 C 96 % -0.86 C
Sensor: Nr:Datum:Temp:Feuchte:Taupunkt:
Aussen-T/F 2301 04-03-2016 00:45:00 -0.4 C 96 % -0.96 C
2302 04-03-2016 00:50:00 -0.4 C 95 % -1.1 C
2303 04-03-2016 00:55:00 -0.5 C 95 % -1.2 C
2304 04-03-2016 01:00:00 -0.6 C 95 % -1.3 C
2305 04-03-2016 01:05:00 -0.6 C 95 % -1.3 C
2306 04-03-2016 01:10:00 -0.6 C 95 % -1.3 C
2307 04-03-2016 01:15:00 -0.6 C 96 % -1.16 C
2308 04-03-2016 01:20:00 -0.6 C 96 % -1.16 C
2309 04-03-2016 01:25:00 -0.6 C 96 % -1.16 C
2310 04-03-2016 01:30:00 -0.5 C 96 % -1.06 C
2311 04-03-2016 01:35:00 -0.6 C 96 % -1.16 C
2312 04-03-2016 01:40:00 -0.5 C 96 % -1.06 C
2313 04-03-2016 01:45:00 -0.4 C 96 % -0.96 C
2314 04-03-2016 01:50:00 -0.4 C 96 % -0.96 C
2315 04-03-2016 01:55:00 -0.4 C 96 % -0.96 C
2316 04-03-2016 02:00:00 -0.3 C 96 % -0.86 C
2317 04-03-2016 02:05:00 -0.2 C 96 % -0.76 C
2318 04-03-2016 02:10:00 -0.2 C 96 % -0.76 C
2319 04-03-2016 02:15:00 -0.3 C 96 % -0.86 C
2320 04-03-2016 02:20:00 -0.4 C 96 % -0.96 C
2321 04-03-2016 02:25:00 -0.6 C 96 % -1.16 C
2322 04-03-2016 02:30:00 -0.7 C 96 % -1.26 C
2323 04-03-2016 02:35:00 -0.8 C 95 % -1.5 C
2324 04-03-2016 02:40:00 -0.8 C 95 % -1.5 C
2325 04-03-2016 02:45:00 -0.9 C 96 % -1.46 C
Sensor: Nr:Datum:Temp:Feuchte:Taupunkt:
Aussen-T/F 2326 04-03-2016 02:50:00 -1.1 C 96 % -1.66 C
2327 04-03-2016 02:55:00 -1.1 C 95 % -1.8 C
2328 04-03-2016 03:00:00 -1.2 C 95 % -1.9 C
2329 04-03-2016 03:05:00 -1.2 C 96 % -1.75 C
2330 04-03-2016 03:10:00 -1.2 C 96 % -1.75 C
2331 04-03-2016 03:15:00 -1.3 C 96 % -1.85 C
2332 04-03-2016 03:20:00 -1.3 C 96 % -1.85 C
2333 04-03-2016 03:25:00 -1.3 C 96 % -1.85 C
2334 04-03-2016 03:30:00 -1.3 C 96 % -1.85 C
2335 04-03-2016 03:35:00 -1.4 C 95 % -2.1 C
2336 04-03-2016 03:40:00 -1.4 C 96 % -1.95 C
2337 04-03-2016 03:45:00 -1.4 C 96 % -1.95 C
2338 04-03-2016 03:50:00 -1.4 C 96 % -1.95 C
2339 04-03-2016 03:55:00 -1.5 C 96 % -2.05 C
2340 04-03-2016 04:00:00 -1.5 C 96 % -2.05 C
2341 04-03-2016 04:05:00 -1.6 C 96 % -2.15 C
2342 04-03-2016 04:10:00 -1.5 C 96 % -2.05 C
2343 04-03-2016 04:15:00 -1.4 C 96 % -1.95 C
2344 04-03-2016 04:20:00 -1.4 C 96 % -1.95 C
2345 04-03-2016 04:25:00 -1.4 C 96 % -1.95 C
2346 04-03-2016 04:30:00 -1.4 C 96 % -1.95 C
2347 04-03-2016 04:35:00 -1.5 C 96 % -2.05 C
2348 04-03-2016 04:40:00 -1.5 C 96 % -2.05 C
2349 04-03-2016 04:45:00 -1.6 C 96 % -2.15 C
2350 04-03-2016 04:50:00 -1.5 C 96 % -2.05 C
Sensor: Nr:Datum:Temp:Feuchte:Taupunkt:
Aussen-T/F 2351 04-03-2016 04:55:00 -1.4 C 96 % -1.95 C
2352 04-03-2016 05:00:00 -1.4 C 96 % -1.95 C
2353 04-03-2016 05:05:00 -1.3 C 96 % -1.85 C
2354 04-03-2016 05:10:00 -1.1 C 96 % -1.66 C
2355 04-03-2016 05:15:00 -0.9 C 96 % -1.46 C
2356 04-03-2016 05:20:00 -0.8 C 96 % -1.36 C
2357 04-03-2016 05:25:00 -0.8 C 96 % -1.36 C
2358 04-03-2016 05:30:00 -0.8 C 96 % -1.36 C
2359 04-03-2016 05:35:00 -0.8 C 96 % -1.36 C
2360 04-03-2016 05:40:00 -0.8 C 96 % -1.36 C
2361 04-03-2016 05:45:00 -0.8 C 96 % -1.36 C
2362 04-03-2016 05:50:00 -0.8 C 96 % -1.36 C
2363 04-03-2016 05:55:00 -0.8 C 96 % -1.36 C
2364 04-03-2016 06:00:00 -0.8 C 96 % -1.36 C
2365 04-03-2016 06:05:00 -0.9 C 96 % -1.46 C
2366 04-03-2016 06:10:00 -0.9 C 96 % -1.46 C
2367 04-03-2016 06:15:00 -0.9 C 96 % -1.46 C
2368 04-03-2016 06:20:00 -0.8 C 96 % -1.36 C
2369 04-03-2016 06:25:00 -0.8 C 96 % -1.36 C
2370 04-03-2016 06:30:00 -0.8 C 96 % -1.36 C
2371 04-03-2016 06:35:00 -0.8 C 96 % -1.36 C
2372 04-03-2016 06:40:00 -0.8 C 96 % -1.36 C
2373 04-03-2016 06:45:00 -0.8 C 96 % -1.36 C
2374 04-03-2016 06:50:00 -0.8 C 96 % -1.36 C
2375 04-03-2016 06:55:00 -0.7 C 96 % -1.26 C
Sensor: Nr:Datum:Temp:Feuchte:Taupunkt:
Aussen-T/F 2376 04-03-2016 07:00:00 -0.8 C 96 % -1.36 C
2377 04-03-2016 07:05:00 -0.7 C 96 % -1.26 C
2378 04-03-2016 07:10:00 -0.7 C 96 % -1.26 C
2379 04-03-2016 07:15:00 -0.7 C 96 % -1.26 C
2380 04-03-2016 07:20:00 -0.6 C 96 % -1.16 C
2381 04-03-2016 07:25:00 -0.6 C 96 % -1.16 C
2382 04-03-2016 07:30:00 -0.4 C 96 % -0.96 C
2383 04-03-2016 07:35:00 -0.2 C 96 % -0.76 C
2384 04-03-2016 07:40:00 -0.1 C 96 % -0.66 C
2385 04-03-2016 07:45:00 0.2 C 97 % -0.22 C
2386 04-03-2016 07:50:00 0.3 C 97 % -0.12 C
2387 04-03-2016 07:55:00 0.4 C 97 % -0.02 C
2388 04-03-2016 08:00:00 0.5 C 96 % -0.06 C
2389 04-03-2016 08:05:00 0.6 C 97 % 0.18 C
2390 04-03-2016 08:10:00 0.6 C 96 % 0.04 C
2391 04-03-2016 08:15:00 0.7 C 96 % 0.14 C
2392 04-03-2016 08:20:00 0.7 C 96 % 0.14 C
2393 04-03-2016 08:25:00 0.8 C 96 % 0.24 C
2394 04-03-2016 08:30:00 0.8 C 96 % 0.24 C
2395 04-03-2016 08:35:00 0.9 C 96 % 0.34 C
2396 04-03-2016 08:40:00 0.9 C 96 % 0.34 C
2397 04-03-2016 08:45:00 1 C 96 % 0.44 C
2398 04-03-2016 08:50:00 1.1 C 95 % 0.39 C
2399 04-03-2016 08:55:00 1.2 C 95 % 0.49 C
2400 04-03-2016 09:00:00 1.3 C 95 % 0.59 C
Sensor: Nr:Datum:Temp:Feuchte:Taupunkt:
Aussen-T/F 2401 04-03-2016 09:05:00 1.3 C 95 % 0.59 C
2402 04-03-2016 09:10:00 1.4 C 94 % 0.54 C
2403 04-03-2016 09:15:00 1.5 C 94 % 0.64 C
2404 04-03-2016 09:20:00 1.6 C 94 % 0.74 C
2405 04-03-2016 09:25:00 1.7 C 93 % 0.69 C
2406 04-03-2016 09:30:00 1.7 C 92 % 0.54 C
2407 04-03-2016 09:35:00 1.8 C 92 % 0.64 C
2408 04-03-2016 09:40:00 1.9 C 91 % 0.59 C
2409 04-03-2016 09:45:00 2 C 91 % 0.69 C
2410 04-03-2016 09:50:00 2.1 C 91 % 0.79 C
2411 04-03-2016 09:55:00 2.1 C 90 % 0.64 C
2412 04-03-2016 10:00:00 2.2 C 90 % 0.73 C
2413 04-03-2016 10:05:00 2.3 C 90 % 0.83 C
2414 04-03-2016 10:10:00 2.3 C 90 % 0.83 C
2415 04-03-2016 10:15:00 2.3 C 89 % 0.68 C
2416 04-03-2016 10:20:00 2.3 C 89 % 0.68 C
2417 04-03-2016 10:25:00 2.4 C 89 % 0.78 C
2418 04-03-2016 10:30:00 2.5 C 89 % 0.88 C
2419 04-03-2016 10:35:00 2.6 C 89 % 0.97 C
2420 04-03-2016 10:40:00 2.6 C 88 % 0.82 C
2421 04-03-2016 10:45:00 2.7 C 88 % 0.92 C
2422 04-03-2016 10:50:00 2.7 C 88 % 0.92 C
2423 04-03-2016 10:55:00 2.8 C 88 % 1.02 C
2424 04-03-2016 11:00:00 2.8 C 88 % 1.02 C
2425 04-03-2016 11:05:00 2.8 C 87 % 0.86 C
Sensor: Nr:Datum:Temp:Feuchte:Taupunkt:
Aussen-T/F 2426 04-03-2016 11:10:00 2.9 C 87 % 0.96 C
2427 04-03-2016 11:15:00 3 C 87 % 1.05 C
2428 04-03-2016 11:20:00 3.1 C 88 % 1.31 C
2429 04-03-2016 11:25:00 3.2 C 88 % 1.41 C
2430 04-03-2016 11:30:00 3.3 C 87 % 1.35 C
2431 04-03-2016 11:35:00 3.4 C 87 % 1.45 C
2432 04-03-2016 11:40:00 3.6 C 87 % 1.64 C
2433 04-03-2016 11:45:00 3.6 C 85 % 1.32 C
2434 04-03-2016 11:50:00 3.7 C 85 % 1.42 C
2435 04-03-2016 11:55:00 3.7 C 84 % 1.25 C
2436 04-03-2016 12:00:00 3.7 C 84 % 1.25 C
2437 04-03-2016 12:05:00 3.8 C 84 % 1.35 C
2438 04-03-2016 12:10:00 3.8 C 84 % 1.35 C
2439 04-03-2016 12:15:00 3.8 C 84 % 1.35 C
2440 04-03-2016 12:20:00 3.8 C 85 % 1.52 C
2441 04-03-2016 12:25:00 3.8 C 85 % 1.52 C
2442 04-03-2016 12:30:00 3.9 C 86 % 1.78 C
2443 04-03-2016 12:35:00 3.9 C 85 % 1.61 C
2444 04-03-2016 12:40:00 4 C 85 % 1.71 C
2445 04-03-2016 12:45:00 4.1 C 85 % 1.81 C
2446 04-03-2016 12:50:00 4.1 C 84 % 1.65 C
2447 04-03-2016 12:55:00 4.1 C 85 % 1.81 C
2448 04-03-2016 13:00:00 4.2 C 85 % 1.91 C
2449 04-03-2016 13:05:00 4.2 C 84 % 1.74 C
2450 04-03-2016 13:10:00 4.2 C 84 % 1.74 C
Sensor: Nr:Datum:Temp:Feuchte:Taupunkt:
Aussen-T/F 2451 04-03-2016 13:15:00 4.2 C 83 % 1.58 C
2452 04-03-2016 13:20:00 4.2 C 84 % 1.74 C
2453 04-03-2016 13:25:00 4.2 C 84 % 1.74 C
2454 04-03-2016 13:30:00 4.2 C 83 % 1.58 C
2455 04-03-2016 13:35:00 4.2 C 84 % 1.74 C
2456 04-03-2016 13:40:00 4.2 C 84 % 1.74 C
2457 04-03-2016 13:45:00 4.2 C 84 % 1.74 C
2458 04-03-2016 13:50:00 4.2 C 84 % 1.74 C
2459 04-03-2016 13:55:00 4.2 C 84 % 1.74 C
2460 04-03-2016 14:00:00 4.2 C 85 % 1.91 C
2461 04-03-2016 14:05:00 4.1 C 86 % 1.97 C
2462 04-03-2016 14:10:00 3.9 C 87 % 1.94 C
2463 04-03-2016 14:15:00 3.8 C 88 % 2 C
2464 04-03-2016 14:20:00 3.7 C 89 % 2.06 C
2465 04-03-2016 14:25:00 3.7 C 90 % 2.22 C
2466 04-03-2016 14:30:00 3.6 C 90 % 2.12 C
2467 04-03-2016 14:35:00 3.6 C 90 % 2.12 C
2468 04-03-2016 14:40:00 3.5 C 91 % 2.17 C
2469 04-03-2016 14:45:00 3.5 C 91 % 2.17 C
2470 04-03-2016 14:50:00 3.5 C 92 % 2.33 C
2471 04-03-2016 14:55:00 3.4 C 92 % 2.23 C
2472 04-03-2016 15:00:00 3.4 C 92 % 2.23 C
2473 04-03-2016 15:05:00 3.3 C 92 % 2.13 C
2474 04-03-2016 15:10:00 3.3 C 92 % 2.13 C
2475 04-03-2016 15:15:00 3.2 C 93 % 2.18 C
Sensor: Nr:Datum:Temp:Feuchte:Taupunkt:
Aussen-T/F 2476 04-03-2016 15:20:00 3.2 C 93 % 2.18 C
2477 04-03-2016 15:25:00 3.1 C 93 % 2.08 C
2478 04-03-2016 15:30:00 3.1 C 93 % 2.08 C
2479 04-03-2016 15:35:00 2.9 C 93 % 1.88 C
2480 04-03-2016 15:40:00 2.8 C 93 % 1.78 C
2481 04-03-2016 15:45:00 2.8 C 93 % 1.78 C
2482 04-03-2016 15:50:00 2.8 C 93 % 1.78 C
2483 04-03-2016 15:55:00 2.7 C 93 % 1.68 C
2484 04-03-2016 16:00:00 2.7 C 94 % 1.83 C
2485 04-03-2016 16:05:00 2.7 C 94 % 1.83 C
2486 04-03-2016 16:10:00 2.8 C 94 % 1.93 C
2487 04-03-2016 16:15:00 2.8 C 94 % 1.93 C
2488 04-03-2016 16:20:00 2.8 C 94 % 1.93 C
2489 04-03-2016 16:25:00 2.9 C 94 % 2.03 C
2490 04-03-2016 16:30:00 2.9 C 94 % 2.03 C
2491 04-03-2016 16:35:00 2.9 C 94 % 2.03 C
2492 04-03-2016 16:40:00 3 C 94 % 2.13 C
2493 04-03-2016 16:45:00 3 C 94 % 2.13 C
2494 04-03-2016 16:50:00 3.1 C 94 % 2.23 C
2495 04-03-2016 16:55:00 3.1 C 94 % 2.23 C
2496 04-03-2016 17:00:00 3.1 C 94 % 2.23 C
2497 04-03-2016 17:05:00 3.2 C 94 % 2.33 C
2498 04-03-2016 17:10:00 3.2 C 94 % 2.33 C
2499 04-03-2016 17:15:00 3.2 C 94 % 2.33 C
2500 04-03-2016 17:20:00 3.2 C 94 % 2.33 C
Sensor: Nr:Datum:Temp:Feuchte:Taupunkt:
Aussen-T/F 2501 04-03-2016 17:25:00 3.3 C 94 % 2.43 C
2502 04-03-2016 17:30:00 3.3 C 94 % 2.43 C
2503 04-03-2016 17:35:00 3.3 C 94 % 2.43 C
2504 04-03-2016 17:40:00 3.3 C 94 % 2.43 C
2505 04-03-2016 17:45:00 3.3 C 94 % 2.43 C
2506 04-03-2016 17:50:00 3.3 C 94 % 2.43 C
2507 04-03-2016 17:55:00 3.3 C 94 % 2.43 C
2508 04-03-2016 18:00:00 3.3 C 94 % 2.43 C
2509 04-03-2016 18:05:00 3.2 C 94 % 2.33 C
2510 04-03-2016 18:10:00 3.2 C 94 % 2.33 C
2511 04-03-2016 18:15:00 3.2 C 94 % 2.33 C
2512 04-03-2016 18:20:00 3.2 C 95 % 2.48 C
2513 04-03-2016 18:25:00 3.2 C 95 % 2.48 C
2514 04-03-2016 18:30:00 3.2 C 95 % 2.48 C
2515 04-03-2016 18:35:00 3.2 C 95 % 2.48 C
2516 04-03-2016 18:40:00 3.2 C 95 % 2.48 C
2517 04-03-2016 18:45:00 3.2 C 95 % 2.48 C
2518 04-03-2016 18:50:00 3.2 C 95 % 2.48 C
2519 04-03-2016 18:55:00 3.1 C 95 % 2.38 C
2520 04-03-2016 19:00:00 3.1 C 95 % 2.38 C
2521 04-03-2016 19:05:00 3.2 C 95 % 2.48 C
2522 04-03-2016 19:10:00 3.2 C 95 % 2.48 C
2523 04-03-2016 19:15:00 3.2 C 95 % 2.48 C
2524 04-03-2016 19:20:00 3.2 C 95 % 2.48 C
2525 04-03-2016 19:25:00 3.2 C 95 % 2.48 C
Sensor: Nr:Datum:Temp:Feuchte:Taupunkt:
Aussen-T/F 2526 04-03-2016 19:30:00 3.2 C 95 % 2.48 C
2527 04-03-2016 19:35:00 3.2 C 95 % 2.48 C
2528 04-03-2016 19:40:00 3.2 C 95 % 2.48 C
2529 04-03-2016 19:45:00 3.2 C 95 % 2.48 C
2530 04-03-2016 19:50:00 3.2 C 95 % 2.48 C
2531 04-03-2016 19:55:00 3.2 C 96 % 2.63 C
2532 04-03-2016 20:00:00 3.2 C 96 % 2.63 C
2533 04-03-2016 20:05:00 3.1 C 96 % 2.53 C
2534 04-03-2016 20:10:00 3.1 C 95 % 2.38 C
2535 04-03-2016 20:15:00 3.2 C 95 % 2.48 C
2536 04-03-2016 20:20:00 3.2 C 96 % 2.63 C
2537 04-03-2016 20:25:00 3.2 C 96 % 2.63 C
2538 04-03-2016 20:30:00 3.2 C 96 % 2.63 C
2539 04-03-2016 20:35:00 3.2 C 96 % 2.63 C
2540 04-03-2016 20:40:00 3.2 C 96 % 2.63 C
2541 04-03-2016 20:45:00 3.2 C 96 % 2.63 C
2542 04-03-2016 20:50:00 3.2 C 96 % 2.63 C
2543 04-03-2016 20:55:00 3.2 C 96 % 2.63 C
2544 04-03-2016 21:00:00 3.2 C 96 % 2.63 C
2545 04-03-2016 21:05:00 3.2 C 96 % 2.63 C
2546 04-03-2016 21:10:00 3.2 C 96 % 2.63 C
2547 04-03-2016 21:15:00 3.2 C 96 % 2.63 C
2548 04-03-2016 21:20:00 3.2 C 96 % 2.63 C
2549 04-03-2016 21:25:00 3.2 C 96 % 2.63 C
2550 04-03-2016 21:30:00 3.2 C 96 % 2.63 C
Sensor: Nr:Datum:Temp:Feuchte:Taupunkt:
Aussen-T/F 2551 04-03-2016 21:35:00 3.2 C 96 % 2.63 C
2552 04-03-2016 21:40:00 3.2 C 96 % 2.63 C
2553 04-03-2016 21:45:00 3.3 C 96 % 2.72 C
2554 04-03-2016 21:50:00 3.3 C 96 % 2.72 C
2555 04-03-2016 21:55:00 3.3 C 96 % 2.72 C
2556 04-03-2016 22:00:00 3.3 C 96 % 2.72 C
2557 04-03-2016 22:05:00 3.3 C 96 % 2.72 C
2558 04-03-2016 22:10:00 3.3 C 96 % 2.72 C
2559 04-03-2016 22:15:00 3.3 C 96 % 2.72 C
2560 04-03-2016 22:20:00 3.3 C 96 % 2.72 C
2561 04-03-2016 22:25:00 3.3 C 96 % 2.72 C
2562 04-03-2016 22:30:00 3.3 C 96 % 2.72 C
2563 04-03-2016 22:35:00 3.3 C 96 % 2.72 C
2564 04-03-2016 22:40:00 3.3 C 96 % 2.72 C
2565 04-03-2016 22:45:00 3.3 C 96 % 2.72 C
2566 04-03-2016 22:50:00 3.3 C 96 % 2.72 C
2567 04-03-2016 22:55:00 3.3 C 96 % 2.72 C
2568 04-03-2016 23:00:00 3.3 C 96 % 2.72 C
2569 04-03-2016 23:05:00 3.3 C 96 % 2.72 C
2570 04-03-2016 23:10:00 3.3 C 96 % 2.72 C
2571 04-03-2016 23:15:00 3.4 C 96 % 2.82 C
2572 04-03-2016 23:20:00 3.4 C 96 % 2.82 C
2573 04-03-2016 23:25:00 3.4 C 96 % 2.82 C
2574 04-03-2016 23:30:00 3.3 C 96 % 2.72 C
2575 04-03-2016 23:35:00 3.3 C 96 % 2.72 C
Sensor: Nr:Datum:Temp:Feuchte:Taupunkt:
Aussen-T/F 2576 04-03-2016 23:40:00 3.4 C 96 % 2.82 C
2577 04-03-2016 23:45:00 3.4 C 97 % 2.97 C
2578 04-03-2016 23:50:00 3.4 C 97 % 2.97 C
2579 04-03-2016 23:55:00 3.4 C 97 % 2.97 C
2580 05-03-2016 00:00:00 3.3 C 97 % 2.87 C
2581 05-03-2016 00:05:00 3.4 C 97 % 2.97 C
2582 05-03-2016 00:10:00 3.4 C 96 % 2.82 C
2583 05-03-2016 00:15:00 3.4 C 96 % 2.82 C
2584 05-03-2016 00:20:00 3.4 C 96 % 2.82 C
2585 05-03-2016 00:25:00 3.4 C 96 % 2.82 C
2586 05-03-2016 00:30:00 3.4 C 96 % 2.82 C
2587 05-03-2016 00:35:00 3.4 C 96 % 2.82 C
2588 05-03-2016 00:40:00 3.4 C 96 % 2.82 C
2589 05-03-2016 00:45:00 3.4 C 96 % 2.82 C
2590 05-03-2016 00:50:00 3.4 C 97 % 2.97 C
2591 05-03-2016 00:55:00 3.4 C 97 % 2.97 C
2592 05-03-2016 01:00:00 3.4 C 97 % 2.97 C
2593 05-03-2016 01:05:00 3.4 C 97 % 2.97 C
2594 05-03-2016 01:10:00 3.4 C 97 % 2.97 C
2595 05-03-2016 01:15:00 3.4 C 96 % 2.82 C
2596 05-03-2016 01:20:00 3.4 C 96 % 2.82 C
2597 05-03-2016 01:25:00 3.4 C 96 % 2.82 C
2598 05-03-2016 01:30:00 3.4 C 96 % 2.82 C
2599 05-03-2016 01:35:00 3.4 C 96 % 2.82 C
2600 05-03-2016 01:40:00 3.3 C 96 % 2.72 C
Sensor: Nr:Datum:Temp:Feuchte:Taupunkt:
Aussen-T/F 2601 05-03-2016 01:45:00 3.3 C 96 % 2.72 C
2602 05-03-2016 01:50:00 3.3 C 96 % 2.72 C
2603 05-03-2016 01:55:00 3.3 C 96 % 2.72 C
2604 05-03-2016 02:00:00 3.3 C 96 % 2.72 C
2605 05-03-2016 02:05:00 3.3 C 96 % 2.72 C
2606 05-03-2016 02:10:00 3.3 C 97 % 2.87 C
2607 05-03-2016 02:15:00 3.3 C 97 % 2.87 C
2608 05-03-2016 02:20:00 3.3 C 97 % 2.87 C
2609 05-03-2016 02:25:00 3.3 C 97 % 2.87 C
2610 05-03-2016 02:30:00 3.2 C 97 % 2.77 C
2611 05-03-2016 02:35:00 3.2 C 97 % 2.77 C
2612 05-03-2016 02:40:00 3.2 C 97 % 2.77 C
2613 05-03-2016 02:45:00 3.2 C 97 % 2.77 C
2614 05-03-2016 02:50:00 3.2 C 97 % 2.77 C
2615 05-03-2016 02:55:00 3.2 C 97 % 2.77 C
2616 05-03-2016 03:00:00 3.2 C 97 % 2.77 C
2617 05-03-2016 03:05:00 3.2 C 97 % 2.77 C
2618 05-03-2016 03:10:00 3.2 C 97 % 2.77 C
2619 05-03-2016 03:15:00 3.2 C 97 % 2.77 C
2620 05-03-2016 03:20:00 3.2 C 97 % 2.77 C
2621 05-03-2016 03:25:00 3.2 C 97 % 2.77 C
2622 05-03-2016 03:30:00 3.2 C 97 % 2.77 C
2623 05-03-2016 03:35:00 3.2 C 97 % 2.77 C
2624 05-03-2016 03:40:00 3.2 C 97 % 2.77 C
2625 05-03-2016 03:45:00 3.2 C 97 % 2.77 C
Sensor: Nr:Datum:Temp:Feuchte:Taupunkt:
Aussen-T/F 2626 05-03-2016 03:50:00 3.2 C 97 % 2.77 C
2627 05-03-2016 03:55:00 3.2 C 97 % 2.77 C
2628 05-03-2016 04:00:00 3.2 C 97 % 2.77 C
2629 05-03-2016 04:05:00 3.2 C 97 % 2.77 C
2630 05-03-2016 04:10:00 3.3 C 97 % 2.87 C
2631 05-03-2016 04:15:00 3.3 C 97 % 2.87 C
2632 05-03-2016 04:20:00 3.3 C 97 % 2.87 C
2633 05-03-2016 04:25:00 3.3 C 97 % 2.87 C
2634 05-03-2016 04:30:00 3.3 C 97 % 2.87 C
2635 05-03-2016 04:35:00 3.3 C 97 % 2.87 C
2636 05-03-2016 04:40:00 3.3 C 97 % 2.87 C
2637 05-03-2016 04:45:00 3.3 C 97 % 2.87 C
2638 05-03-2016 04:50:00 3.3 C 97 % 2.87 C
2639 05-03-2016 04:55:00 3.3 C 97 % 2.87 C
2640 05-03-2016 05:00:00 3.3 C 97 % 2.87 C
2641 05-03-2016 05:05:00 3.3 C 97 % 2.87 C
2642 05-03-2016 05:10:00 3.3 C 97 % 2.87 C
2643 05-03-2016 05:15:00 3.3 C 97 % 2.87 C
2644 05-03-2016 05:20:00 3.3 C 97 % 2.87 C
2645 05-03-2016 05:25:00 3.4 C 97 % 2.97 C
2646 05-03-2016 05:30:00 3.4 C 97 % 2.97 C
2647 05-03-2016 05:35:00 3.4 C 97 % 2.97 C
2648 05-03-2016 05:40:00 3.4 C 97 % 2.97 C
2649 05-03-2016 05:45:00 3.4 C 97 % 2.97 C
2650 05-03-2016 05:50:00 3.4 C 97 % 2.97 C
Sensor: Nr:Datum:Temp:Feuchte:Taupunkt:
Aussen-T/F 2651 05-03-2016 05:55:00 3.3 C 97 % 2.87 C
2652 05-03-2016 06:00:00 3.3 C 97 % 2.87 C
2653 05-03-2016 06:05:00 3.3 C 97 % 2.87 C
2654 05-03-2016 06:10:00 3.3 C 97 % 2.87 C
2655 05-03-2016 06:15:00 3.3 C 97 % 2.87 C
2656 05-03-2016 06:20:00 3.3 C 97 % 2.87 C
2657 05-03-2016 06:25:00 3.3 C 97 % 2.87 C
2658 05-03-2016 06:30:00 3.3 C 97 % 2.87 C
2659 05-03-2016 06:35:00 3.3 C 97 % 2.87 C
2660 05-03-2016 06:40:00 3.3 C 97 % 2.87 C
2661 05-03-2016 06:45:00 3.3 C 97 % 2.87 C
2662 05-03-2016 06:50:00 3.3 C 97 % 2.87 C
2663 05-03-2016 06:55:00 3.2 C 97 % 2.77 C
2664 05-03-2016 07:00:00 3.2 C 97 % 2.77 C
2665 05-03-2016 07:05:00 3.2 C 97 % 2.77 C
2666 05-03-2016 07:10:00 3.2 C 97 % 2.77 C
2667 05-03-2016 07:15:00 3.2 C 97 % 2.77 C
2668 05-03-2016 07:20:00 3.2 C 97 % 2.77 C
2669 05-03-2016 07:25:00 3.2 C 97 % 2.77 C
2670 05-03-2016 07:30:00 3.2 C 97 % 2.77 C
2671 05-03-2016 07:35:00 3.2 C 97 % 2.77 C
2672 05-03-2016 07:40:00 3.2 C 97 % 2.77 C
2673 05-03-2016 07:45:00 3.2 C 97 % 2.77 C
2674 05-03-2016 07:50:00 3.2 C 97 % 2.77 C
2675 05-03-2016 07:55:00 3.2 C 97 % 2.77 C
Sensor: Nr:Datum:Temp:Feuchte:Taupunkt:
Aussen-T/F 2676 05-03-2016 08:00:00 3.2 C 97 % 2.77 C
2677 05-03-2016 08:05:00 3.2 C 97 % 2.77 C
2678 05-03-2016 08:10:00 3.2 C 97 % 2.77 C
2679 05-03-2016 08:15:00 3.2 C 97 % 2.77 C
2680 05-03-2016 08:20:00 3.2 C 97 % 2.77 C
2681 05-03-2016 08:25:00 3.2 C 97 % 2.77 C
2682 05-03-2016 08:30:00 3.2 C 97 % 2.77 C
2683 05-03-2016 08:35:00 3.2 C 97 % 2.77 C
2684 05-03-2016 08:40:00 3.2 C 97 % 2.77 C
2685 05-03-2016 08:45:00 3.2 C 97 % 2.77 C
2686 05-03-2016 08:50:00 3.2 C 97 % 2.77 C
2687 05-03-2016 08:55:00 3.2 C 97 % 2.77 C
2688 05-03-2016 09:00:00 3.2 C 97 % 2.77 C
2689 05-03-2016 09:05:00 3.3 C 97 % 2.87 C
2690 05-03-2016 09:10:00 3.3 C 97 % 2.87 C
2691 05-03-2016 09:15:00 3.3 C 97 % 2.87 C
2692 05-03-2016 09:20:00 3.3 C 97 % 2.87 C
2693 05-03-2016 09:25:00 3.3 C 97 % 2.87 C
2694 05-03-2016 09:30:00 3.3 C 97 % 2.87 C
2695 05-03-2016 09:35:00 3.4 C 97 % 2.97 C
2696 05-03-2016 09:40:00 3.4 C 97 % 2.97 C
2697 05-03-2016 09:45:00 3.5 C 97 % 3.07 C
2698 05-03-2016 09:50:00 3.5 C 97 % 3.07 C
2699 05-03-2016 09:55:00 3.6 C 97 % 3.17 C
2700 05-03-2016 10:00:00 3.6 C 97 % 3.17 C
Sensor: Nr:Datum:Temp:Feuchte:Taupunkt:
Aussen-T/F 2701 05-03-2016 10:05:00 3.6 C 97 % 3.17 C
2702 05-03-2016 10:10:00 3.7 C 97 % 3.27 C
2703 05-03-2016 10:15:00 3.7 C 97 % 3.27 C
2704 05-03-2016 10:20:00 3.8 C 97 % 3.37 C
2705 05-03-2016 10:25:00 4 C 97 % 3.57 C
2706 05-03-2016 10:30:00 4.1 C 97 % 3.67 C
2707 05-03-2016 10:35:00 4.2 C 97 % 3.77 C
2708 05-03-2016 10:40:00 4.2 C 97 % 3.77 C
2709 05-03-2016 10:45:00 4.2 C 97 % 3.77 C
2710 05-03-2016 10:50:00 4.2 C 97 % 3.77 C
2711 05-03-2016 10:55:00 4.2 C 97 % 3.77 C
2712 05-03-2016 11:00:00 4.2 C 96 % 3.62 C
2713 05-03-2016 11:05:00 4.3 C 96 % 3.72 C
2714 05-03-2016 11:10:00 4.3 C 97 % 3.87 C
2715 05-03-2016 11:15:00 4.4 C 96 % 3.82 C
2716 05-03-2016 11:20:00 4.5 C 96 % 3.92 C
2717 05-03-2016 11:25:00 4.5 C 96 % 3.92 C
2718 05-03-2016 11:30:00 4.6 C 96 % 4.02 C
2719 05-03-2016 11:35:00 4.7 C 96 % 4.12 C
2720 05-03-2016 11:40:00 4.8 C 96 % 4.22 C
2721 05-03-2016 11:45:00 5.1 C 96 % 4.52 C
2722 05-03-2016 11:50:00 5.3 C 96 % 4.72 C
2723 05-03-2016 11:55:00 5.4 C 96 % 4.81 C
2724 05-03-2016 12:00:00 5.6 C 95 % 4.86 C
2725 05-03-2016 12:05:00 5.7 C 95 % 4.96 C
Sensor: Nr:Datum:Temp:Feuchte:Taupunkt:
Aussen-T/F 2726 05-03-2016 12:10:00 5.8 C 94 % 4.91 C
2727 05-03-2016 12:15:00 6 C 93 % 4.96 C
2728 05-03-2016 12:20:00 6.2 C 92 % 5 C
2729 05-03-2016 12:25:00 6.2 C 92 % 5 C
2730 05-03-2016 12:30:00 6.3 C 91 % 4.94 C
2731 05-03-2016 12:35:00 6.3 C 90 % 4.78 C
2732 05-03-2016 12:40:00 6.4 C 90 % 4.88 C
2733 05-03-2016 12:45:00 6.4 C 89 % 4.72 C
2734 05-03-2016 12:50:00 6.5 C 89 % 4.82 C
2735 05-03-2016 12:55:00 6.6 C 89 % 4.92 C
2736 05-03-2016 13:00:00 6.8 C 89 % 5.12 C
2737 05-03-2016 13:05:00 6.8 C 88 % 4.96 C
2738 05-03-2016 13:10:00 6.8 C 88 % 4.96 C
2739 05-03-2016 13:15:00 6.9 C 87 % 4.89 C
2740 05-03-2016 13:20:00 6.9 C 87 % 4.89 C
2741 05-03-2016 13:25:00 7 C 87 % 4.99 C
2742 05-03-2016 13:30:00 7 C 87 % 4.99 C
2743 05-03-2016 13:35:00 7 C 86 % 4.82 C
2744 05-03-2016 13:40:00 7.1 C 87 % 5.09 C
2745 05-03-2016 13:45:00 7.1 C 87 % 5.09 C
2746 05-03-2016 13:50:00 7.1 C 86 % 4.92 C
2747 05-03-2016 13:55:00 6.9 C 85 % 4.56 C
2748 05-03-2016 14:00:00 6.9 C 85 % 4.56 C
2749 05-03-2016 14:05:00 7 C 86 % 4.82 C
2750 05-03-2016 14:10:00 6.9 C 85 % 4.56 C
Sensor: Nr:Datum:Temp:Feuchte:Taupunkt:
Aussen-T/F 2751 05-03-2016 14:15:00 7 C 84 % 4.49 C
2752 05-03-2016 14:20:00 7.1 C 85 % 4.75 C
2753 05-03-2016 14:25:00 7.2 C 84 % 4.68 C
2754 05-03-2016 14:30:00 7.2 C 83 % 4.51 C
2755 05-03-2016 14:35:00 7.2 C 82 % 4.34 C
2756 05-03-2016 14:40:00 7.1 C 82 % 4.24 C
2757 05-03-2016 14:45:00 7.1 C 83 % 4.41 C
2758 05-03-2016 14:50:00 7.2 C 82 % 4.34 C
2759 05-03-2016 14:55:00 7.3 C 83 % 4.61 C
2760 05-03-2016 15:00:00 7.4 C 82 % 4.53 C
2761 05-03-2016 15:05:00 7.5 C 83 % 4.81 C
2762 05-03-2016 15:10:00 7.6 C 82 % 4.73 C
2763 05-03-2016 15:15:00 7.5 C 81 % 4.46 C
2764 05-03-2016 15:20:00 7.4 C 81 % 4.36 C
2765 05-03-2016 15:25:00 7.4 C 82 % 4.53 C
2766 05-03-2016 15:30:00 7.5 C 82 % 4.63 C
2767 05-03-2016 15:35:00 7.6 C 80 % 4.38 C
2768 05-03-2016 15:40:00 7.8 C 79 % 4.39 C
2769 05-03-2016 15:45:00 7.9 C 77 % 4.12 C
2770 05-03-2016 15:50:00 8.1 C 78 % 4.5 C
2771 05-03-2016 15:55:00 8.2 C 76 % 4.23 C
2772 05-03-2016 16:00:00 8.3 C 74 % 3.95 C
2773 05-03-2016 16:05:00 8.2 C 75 % 4.04 C
2774 05-03-2016 16:10:00 7.9 C 76 % 3.94 C
2775 05-03-2016 16:15:00 7.8 C 77 % 4.03 C
Sensor: Nr:Datum:Temp:Feuchte:Taupunkt:
Aussen-T/F 2776 05-03-2016 16:20:00 7.7 C 78 % 4.11 C
2777 05-03-2016 16:25:00 7.7 C 78 % 4.11 C
2778 05-03-2016 16:30:00 7.8 C 77 % 4.03 C
2779 05-03-2016 16:35:00 7.9 C 77 % 4.12 C
2780 05-03-2016 16:40:00 8 C 75 % 3.85 C
2781 05-03-2016 16:45:00 7.8 C 75 % 3.65 C
2782 05-03-2016 16:50:00 7.7 C 76 % 3.75 C
2783 05-03-2016 16:55:00 7.5 C 78 % 3.92 C
2784 05-03-2016 17:00:00 7.3 C 77 % 3.54 C
2785 05-03-2016 17:05:00 7.2 C 78 % 3.63 C
2786 05-03-2016 17:10:00 7.1 C 78 % 3.53 C
2787 05-03-2016 17:15:00 7 C 78 % 3.43 C
2788 05-03-2016 17:20:00 6.9 C 78 % 3.34 C
2789 05-03-2016 17:25:00 6.9 C 79 % 3.52 C
2790 05-03-2016 17:30:00 6.9 C 77 % 3.16 C
2791 05-03-2016 17:35:00 7.1 C 78 % 3.53 C
2792 05-03-2016 17:40:00 7.1 C 75 % 2.98 C
2793 05-03-2016 17:45:00 7.1 C 75 % 2.98 C
2794 05-03-2016 17:50:00 7.1 C 80 % 3.89 C
2795 05-03-2016 17:55:00 6.8 C 80 % 3.6 C
2796 05-03-2016 18:00:00 6.4 C 82 % 3.56 C
2797 05-03-2016 18:05:00 6.1 C 83 % 3.44 C
2798 05-03-2016 18:10:00 5.7 C 84 % 3.21 C
2799 05-03-2016 18:15:00 5.3 C 85 % 2.99 C
2800 05-03-2016 18:20:00 5.1 C 86 % 2.96 C
Sensor: Nr:Datum:Temp:Feuchte:Taupunkt:
Aussen-T/F 2801 05-03-2016 18:25:00 4.8 C 87 % 2.82 C
2802 05-03-2016 18:30:00 4.7 C 88 % 2.89 C
2803 05-03-2016 18:35:00 4.6 C 88 % 2.79 C
2804 05-03-2016 18:40:00 4.6 C 89 % 2.95 C
2805 05-03-2016 18:45:00 4.5 C 89 % 2.85 C
2806 05-03-2016 18:50:00 4.4 C 90 % 2.91 C
2807 05-03-2016 18:55:00 4.4 C 90 % 2.91 C
2808 05-03-2016 19:00:00 4.3 C 90 % 2.81 C
2809 05-03-2016 19:05:00 4.3 C 90 % 2.81 C
2810 05-03-2016 19:10:00 4.2 C 91 % 2.87 C
2811 05-03-2016 19:15:00 4.1 C 91 % 2.77 C
2812 05-03-2016 19:20:00 4 C 90 % 2.51 C
2813 05-03-2016 19:25:00 3.8 C 91 % 2.47 C
2814 05-03-2016 19:30:00 3.8 C 91 % 2.47 C
2815 05-03-2016 19:35:00 3.7 C 91 % 2.37 C
2816 05-03-2016 19:40:00 3.7 C 91 % 2.37 C
2817 05-03-2016 19:45:00 3.6 C 91 % 2.27 C
2818 05-03-2016 19:50:00 3.5 C 92 % 2.33 C
2819 05-03-2016 19:55:00 3.4 C 92 % 2.23 C
2820 05-03-2016 20:00:00 3.4 C 92 % 2.23 C
2821 05-03-2016 20:05:00 3.3 C 92 % 2.13 C
2822 05-03-2016 20:10:00 3.2 C 92 % 2.03 C
2823 05-03-2016 20:15:00 3.2 C 92 % 2.03 C
2824 05-03-2016 20:20:00 3.1 C 92 % 1.93 C
2825 05-03-2016 20:25:00 3 C 92 % 1.83 C
Sensor: Nr:Datum:Temp:Feuchte:Taupunkt:
Aussen-T/F 2826 05-03-2016 20:30:00 2.9 C 93 % 1.88 C
2827 05-03-2016 20:35:00 2.8 C 92 % 1.63 C
2828 05-03-2016 20:40:00 2.7 C 93 % 1.68 C
2829 05-03-2016 20:45:00 2.7 C 93 % 1.68 C
2830 05-03-2016 20:50:00 2.6 C 93 % 1.59 C
2831 05-03-2016 20:55:00 2.5 C 93 % 1.49 C
2832 05-03-2016 21:00:00 2.5 C 93 % 1.49 C
2833 05-03-2016 21:05:00 2.4 C 93 % 1.39 C
2834 05-03-2016 21:10:00 2.3 C 93 % 1.29 C
2835 05-03-2016 21:15:00 2.3 C 94 % 1.44 C
2836 05-03-2016 21:20:00 2.4 C 94 % 1.54 C
2837 05-03-2016 21:25:00 2.5 C 94 % 1.63 C
2838 05-03-2016 21:30:00 2.6 C 94 % 1.73 C
2839 05-03-2016 21:35:00 2.6 C 94 % 1.73 C
2840 05-03-2016 21:40:00 2.6 C 94 % 1.73 C
2841 05-03-2016 21:45:00 2.7 C 94 % 1.83 C
2842 05-03-2016 21:50:00 2.7 C 94 % 1.83 C
2843 05-03-2016 21:55:00 2.7 C 94 % 1.83 C
2844 05-03-2016 22:00:00 2.7 C 94 % 1.83 C
2845 05-03-2016 22:05:00 2.7 C 94 % 1.83 C
2846 05-03-2016 22:10:00 2.7 C 94 % 1.83 C
2847 05-03-2016 22:15:00 2.6 C 94 % 1.73 C
2848 05-03-2016 22:20:00 2.7 C 94 % 1.83 C
2849 05-03-2016 22:25:00 2.7 C 94 % 1.83 C
2850 05-03-2016 22:30:00 2.8 C 95 % 2.08 C
Sensor: Nr:Datum:Temp:Feuchte:Taupunkt:
Aussen-T/F 2851 05-03-2016 22:35:00 2.8 C 94 % 1.93 C
2852 05-03-2016 22:40:00 2.8 C 95 % 2.08 C
2853 05-03-2016 22:45:00 2.7 C 94 % 1.83 C
2854 05-03-2016 22:50:00 2.7 C 94 % 1.83 C
2855 05-03-2016 22:55:00 2.6 C 94 % 1.73 C
2856 05-03-2016 23:00:00 2.4 C 94 % 1.54 C
2857 05-03-2016 23:05:00 2.3 C 94 % 1.44 C
2858 05-03-2016 23:10:00 2.3 C 94 % 1.44 C
2859 05-03-2016 23:15:00 2.3 C 94 % 1.44 C
2860 05-03-2016 23:20:00 2.3 C 94 % 1.44 C
2861 05-03-2016 23:25:00 2.3 C 94 % 1.44 C
2862 05-03-2016 23:30:00 2.3 C 94 % 1.44 C
2863 05-03-2016 23:35:00 2.3 C 95 % 1.58 C
2864 05-03-2016 23:40:00 2.3 C 95 % 1.58 C
2865 05-03-2016 23:45:00 2.3 C 95 % 1.58 C
2866 05-03-2016 23:50:00 2.3 C 95 % 1.58 C
2867 05-03-2016 23:55:00 2.3 C 95 % 1.58 C
2868 06-03-2016 00:00:00 2.3 C 95 % 1.58 C
2869 06-03-2016 00:05:00 2.3 C 95 % 1.58 C
2870 06-03-2016 00:10:00 2.4 C 95 % 1.68 C
2871 06-03-2016 00:15:00 2.3 C 95 % 1.58 C
2872 06-03-2016 00:20:00 2.3 C 94 % 1.44 C
2873 06-03-2016 00:25:00 2.3 C 94 % 1.44 C
2874 06-03-2016 00:30:00 2.3 C 94 % 1.44 C
2875 06-03-2016 00:35:00 2.3 C 94 % 1.44 C
Sensor: Nr:Datum:Temp:Feuchte:Taupunkt:
Aussen-T/F 2876 06-03-2016 00:40:00 2.3 C 95 % 1.58 C
2877 06-03-2016 00:45:00 2.3 C 95 % 1.58 C
2878 06-03-2016 00:50:00 2.3 C 95 % 1.58 C
2879 06-03-2016 00:55:00 2.3 C 95 % 1.58 C
2880 06-03-2016 01:00:00 2.3 C 94 % 1.44 C
2881 06-03-2016 01:05:00 2.3 C 94 % 1.44 C
2882 06-03-2016 01:10:00 2.2 C 94 % 1.34 C
2883 06-03-2016 01:15:00 2.2 C 94 % 1.34 C
2884 06-03-2016 01:20:00 2.2 C 94 % 1.34 C
2885 06-03-2016 01:25:00 2.2 C 94 % 1.34 C
2886 06-03-2016 01:30:00 2.2 C 94 % 1.34 C
2887 06-03-2016 01:35:00 2.2 C 94 % 1.34 C
2888 06-03-2016 01:40:00 2.2 C 94 % 1.34 C
2889 06-03-2016 01:45:00 2.2 C 94 % 1.34 C
2890 06-03-2016 01:50:00 2.2 C 94 % 1.34 C
2891 06-03-2016 01:55:00 2.2 C 94 % 1.34 C
2892 06-03-2016 02:00:00 2.2 C 94 % 1.34 C
2893 06-03-2016 02:05:00 2.3 C 94 % 1.44 C
2894 06-03-2016 02:10:00 2.3 C 94 % 1.44 C
2895 06-03-2016 02:15:00 2.3 C 94 % 1.44 C
2896 06-03-2016 02:20:00 2.3 C 94 % 1.44 C
2897 06-03-2016 02:25:00 2.3 C 94 % 1.44 C
2898 06-03-2016 02:30:00 2.3 C 94 % 1.44 C
2899 06-03-2016 02:35:00 2.3 C 94 % 1.44 C
2900 06-03-2016 02:40:00 2.3 C 94 % 1.44 C
Sensor: Nr:Datum:Temp:Feuchte:Taupunkt:
Aussen-T/F 2901 06-03-2016 02:45:00 2.3 C 94 % 1.44 C
2902 06-03-2016 02:50:00 2.4 C 94 % 1.54 C
2903 06-03-2016 02:55:00 2.4 C 94 % 1.54 C
2904 06-03-2016 03:00:00 2.3 C 94 % 1.44 C
2905 06-03-2016 03:05:00 2.3 C 94 % 1.44 C
2906 06-03-2016 03:10:00 2.3 C 94 % 1.44 C
2907 06-03-2016 03:15:00 2.3 C 94 % 1.44 C
2908 06-03-2016 03:20:00 2.3 C 94 % 1.44 C
2909 06-03-2016 03:25:00 2.3 C 94 % 1.44 C
2910 06-03-2016 03:30:00 2.3 C 94 % 1.44 C
2911 06-03-2016 03:35:00 2.3 C 94 % 1.44 C
2912 06-03-2016 03:40:00 2.3 C 94 % 1.44 C
2913 06-03-2016 03:45:00 2.3 C 94 % 1.44 C
2914 06-03-2016 03:50:00 2.3 C 94 % 1.44 C
2915 06-03-2016 03:55:00 2.3 C 95 % 1.58 C
2916 06-03-2016 04:00:00 2.3 C 95 % 1.58 C
2917 06-03-2016 04:05:00 2.3 C 95 % 1.58 C
2918 06-03-2016 04:10:00 2.3 C 95 % 1.58 C
2919 06-03-2016 04:15:00 2.3 C 95 % 1.58 C
2920 06-03-2016 04:20:00 2.3 C 95 % 1.58 C
2921 06-03-2016 04:25:00 2.3 C 95 % 1.58 C
2922 06-03-2016 04:30:00 2.3 C 95 % 1.58 C
2923 06-03-2016 04:35:00 2.3 C 95 % 1.58 C
2924 06-03-2016 04:40:00 2.3 C 95 % 1.58 C
2925 06-03-2016 04:45:00 2.3 C 95 % 1.58 C
Sensor: Nr:Datum:Temp:Feuchte:Taupunkt:
Aussen-T/F 2926 06-03-2016 04:50:00 2.3 C 95 % 1.58 C
2927 06-03-2016 04:55:00 2.3 C 95 % 1.58 C
2928 06-03-2016 05:00:00 2.3 C 95 % 1.58 C
2929 06-03-2016 05:05:00 2.4 C 95 % 1.68 C
2930 06-03-2016 05:10:00 2.4 C 95 % 1.68 C
2931 06-03-2016 05:15:00 2.4 C 95 % 1.68 C
2932 06-03-2016 05:20:00 2.4 C 95 % 1.68 C
2933 06-03-2016 05:25:00 2.4 C 94 % 1.54 C
2934 06-03-2016 05:30:00 2.4 C 94 % 1.54 C
2935 06-03-2016 05:35:00 2.4 C 94 % 1.54 C
2936 06-03-2016 05:40:00 2.4 C 94 % 1.54 C
2937 06-03-2016 05:45:00 2.3 C 94 % 1.44 C
2938 06-03-2016 05:50:00 2.3 C 94 % 1.44 C
2939 06-03-2016 05:55:00 2.2 C 93 % 1.19 C
2940 06-03-2016 06:00:00 2.1 C 93 % 1.09 C
2941 06-03-2016 06:05:00 2 C 94 % 1.14 C
2942 06-03-2016 06:10:00 1.9 C 94 % 1.04 C
2943 06-03-2016 06:15:00 1.9 C 94 % 1.04 C
2944 06-03-2016 06:20:00 1.9 C 94 % 1.04 C
2945 06-03-2016 06:25:00 1.9 C 94 % 1.04 C
2946 06-03-2016 06:30:00 1.9 C 94 % 1.04 C
2947 06-03-2016 06:35:00 1.9 C 94 % 1.04 C
2948 06-03-2016 06:40:00 1.9 C 94 % 1.04 C
2949 06-03-2016 06:45:00 1.9 C 94 % 1.04 C
2950 06-03-2016 06:50:00 1.9 C 94 % 1.04 C
Sensor: Nr:Datum:Temp:Feuchte:Taupunkt:
Aussen-T/F 2951 06-03-2016 06:55:00 1.9 C 94 % 1.04 C
2952 06-03-2016 07:00:00 2 C 94 % 1.14 C
2953 06-03-2016 07:05:00 2 C 94 % 1.14 C
2954 06-03-2016 07:10:00 2 C 94 % 1.14 C
2955 06-03-2016 07:15:00 2 C 94 % 1.14 C
2956 06-03-2016 07:20:00 2 C 94 % 1.14 C
2957 06-03-2016 07:25:00 2.1 C 94 % 1.24 C
2958 06-03-2016 07:30:00 2.1 C 94 % 1.24 C
2959 06-03-2016 07:35:00 2.2 C 94 % 1.34 C
2960 06-03-2016 07:40:00 2.2 C 93 % 1.19 C
2961 06-03-2016 07:45:00 2.2 C 93 % 1.19 C
2962 06-03-2016 07:50:00 2.2 C 93 % 1.19 C
2963 06-03-2016 07:55:00 2.3 C 93 % 1.29 C
2964 06-03-2016 08:00:00 2.3 C 93 % 1.29 C
2965 06-03-2016 08:05:00 2.4 C 92 % 1.24 C
2966 06-03-2016 08:10:00 2.5 C 92 % 1.34 C
2967 06-03-2016 08:15:00 2.6 C 92 % 1.43 C
2968 06-03-2016 08:20:00 2.6 C 91 % 1.28 C
2969 06-03-2016 08:25:00 2.6 C 91 % 1.28 C
2970 06-03-2016 08:30:00 2.7 C 91 % 1.38 C
2971 06-03-2016 08:35:00 2.7 C 91 % 1.38 C
2972 06-03-2016 08:40:00 2.8 C 91 % 1.48 C
2973 06-03-2016 08:45:00 2.8 C 92 % 1.63 C
2974 06-03-2016 08:50:00 2.9 C 92 % 1.73 C
2975 06-03-2016 08:55:00 2.9 C 92 % 1.73 C
Sensor: Nr:Datum:Temp:Feuchte:Taupunkt:
Aussen-T/F 2976 06-03-2016 09:00:00 2.9 C 92 % 1.73 C
2977 06-03-2016 09:05:00 3 C 92 % 1.83 C
2978 06-03-2016 09:10:00 3.1 C 92 % 1.93 C
2979 06-03-2016 09:15:00 3.2 C 92 % 2.03 C
2980 06-03-2016 09:20:00 3.3 C 93 % 2.28 C
2981 06-03-2016 09:25:00 3.3 C 93 % 2.28 C
2982 06-03-2016 09:30:00 3.4 C 93 % 2.38 C
2983 06-03-2016 09:35:00 3.4 C 93 % 2.38 C
2984 06-03-2016 09:40:00 3.4 C 93 % 2.38 C
2985 06-03-2016 09:45:00 3.4 C 93 % 2.38 C
2986 06-03-2016 09:50:00 3.4 C 93 % 2.38 C
2987 06-03-2016 09:55:00 3.4 C 93 % 2.38 C
2988 06-03-2016 10:00:00 3.4 C 93 % 2.38 C
2989 06-03-2016 10:05:00 3.3 C 93 % 2.28 C
2990 06-03-2016 10:10:00 3.3 C 94 % 2.43 C
2991 06-03-2016 10:15:00 3.3 C 94 % 2.43 C
2992 06-03-2016 10:20:00 3.3 C 94 % 2.43 C
2993 06-03-2016 10:25:00 3.4 C 94 % 2.53 C
2994 06-03-2016 10:30:00 3.4 C 94 % 2.53 C
2995 06-03-2016 10:35:00 3.4 C 94 % 2.53 C
2996 06-03-2016 10:40:00 3.5 C 94 % 2.63 C
2997 06-03-2016 10:45:00 3.6 C 94 % 2.73 C
2998 06-03-2016 10:50:00 3.6 C 94 % 2.73 C
2999 06-03-2016 10:55:00 3.6 C 94 % 2.73 C
3000 06-03-2016 11:00:00 3.6 C 93 % 2.58 C
Sensor: Nr:Datum:Temp:Feuchte:Taupunkt:
Aussen-T/F 3001 06-03-2016 11:05:00 3.4 C 93 % 2.38 C
3002 06-03-2016 11:10:00 3.3 C 93 % 2.28 C
3003 06-03-2016 11:15:00 3.3 C 94 % 2.43 C
3004 06-03-2016 11:20:00 3.4 C 94 % 2.53 C
3005 06-03-2016 11:25:00 3.4 C 94 % 2.53 C
3006 06-03-2016 11:30:00 3.6 C 95 % 2.88 C
3007 06-03-2016 11:35:00 3.7 C 95 % 2.98 C
3008 06-03-2016 11:40:00 3.8 C 95 % 3.07 C
3009 06-03-2016 11:45:00 3.8 C 95 % 3.07 C
3010 06-03-2016 11:50:00 3.8 C 95 % 3.07 C
3011 06-03-2016 11:55:00 3.9 C 95 % 3.17 C
3012 06-03-2016 12:00:00 3.9 C 94 % 3.02 C
3013 06-03-2016 12:05:00 3.9 C 94 % 3.02 C
3014 06-03-2016 12:10:00 3.9 C 94 % 3.02 C
3015 06-03-2016 12:15:00 3.8 C 94 % 2.93 C
3016 06-03-2016 12:20:00 3.9 C 94 % 3.02 C
3017 06-03-2016 12:25:00 4 C 94 % 3.12 C
3018 06-03-2016 12:30:00 4.1 C 94 % 3.22 C
3019 06-03-2016 12:35:00 4.2 C 95 % 3.47 C
3020 06-03-2016 12:40:00 4.3 C 95 % 3.57 C
3021 06-03-2016 12:45:00 4.4 C 94 % 3.52 C
3022 06-03-2016 12:50:00 4.6 C 94 % 3.72 C
3023 06-03-2016 12:55:00 4.6 C 94 % 3.72 C
3024 06-03-2016 13:00:00 4.7 C 94 % 3.82 C
3025 06-03-2016 13:05:00 4.7 C 93 % 3.67 C
Sensor: Nr:Datum:Temp:Feuchte:Taupunkt:
Aussen-T/F 3026 06-03-2016 13:10:00 4.8 C 94 % 3.92 C
3027 06-03-2016 13:15:00 4.9 C 93 % 3.87 C
3028 06-03-2016 13:20:00 5 C 93 % 3.96 C
3029 06-03-2016 13:25:00 5 C 92 % 3.81 C
3030 06-03-2016 13:30:00 4.9 C 91 % 3.56 C
3031 06-03-2016 13:35:00 4.7 C 90 % 3.2 C
3032 06-03-2016 13:40:00 4.3 C 90 % 2.81 C
3033 06-03-2016 13:45:00 4.1 C 91 % 2.77 C
3034 06-03-2016 13:50:00 3.9 C 91 % 2.57 C
3035 06-03-2016 13:55:00 3.8 C 91 % 2.47 C
3036 06-03-2016 14:00:00 3.7 C 92 % 2.52 C
3037 06-03-2016 14:05:00 3.6 C 92 % 2.42 C
3038 06-03-2016 14:10:00 3.5 C 92 % 2.33 C
3039 06-03-2016 14:15:00 3.3 C 93 % 2.28 C
3040 06-03-2016 14:20:00 3.2 C 93 % 2.18 C
3041 06-03-2016 14:25:00 3.3 C 94 % 2.43 C
3042 06-03-2016 14:30:00 3.4 C 94 % 2.53 C
3043 06-03-2016 14:35:00 3.6 C 95 % 2.88 C
3044 06-03-2016 14:40:00 3.7 C 95 % 2.98 C
3045 06-03-2016 14:45:00 3.8 C 95 % 3.07 C
3046 06-03-2016 14:50:00 3.9 C 95 % 3.17 C
3047 06-03-2016 14:55:00 4.1 C 95 % 3.37 C
3048 06-03-2016 15:00:00 4.2 C 95 % 3.47 C
3049 06-03-2016 15:05:00 4.3 C 95 % 3.57 C
3050 06-03-2016 15:10:00 4.2 C 95 % 3.47 C
Sensor: Nr:Datum:Temp:Feuchte:Taupunkt:
Aussen-T/F 3051 06-03-2016 15:15:00 4.2 C 95 % 3.47 C
3052 06-03-2016 15:20:00 4.1 C 95 % 3.37 C
3053 06-03-2016 15:25:00 4.1 C 94 % 3.22 C
3054 06-03-2016 15:30:00 4.1 C 94 % 3.22 C
3055 06-03-2016 15:35:00 4.1 C 95 % 3.37 C
3056 06-03-2016 15:40:00 4.2 C 95 % 3.47 C
3057 06-03-2016 15:45:00 4.4 C 95 % 3.67 C
3058 06-03-2016 15:50:00 4.5 C 95 % 3.77 C
3059 06-03-2016 15:55:00 4.6 C 95 % 3.87 C
3060 06-03-2016 16:00:00 4.7 C 95 % 3.97 C
3061 06-03-2016 16:05:00 4.7 C 95 % 3.97 C
3062 06-03-2016 16:10:00 4.8 C 95 % 4.07 C
3063 06-03-2016 16:15:00 4.8 C 95 % 4.07 C
3064 06-03-2016 16:20:00 4.8 C 94 % 3.92 C
3065 06-03-2016 16:25:00 4.8 C 94 % 3.92 C
3066 06-03-2016 16:30:00 4.8 C 94 % 3.92 C
3067 06-03-2016 16:35:00 4.8 C 94 % 3.92 C
3068 06-03-2016 16:40:00 4.7 C 93 % 3.67 C
3069 06-03-2016 16:45:00 4.4 C 91 % 3.06 C
3070 06-03-2016 16:50:00 4 C 91 % 2.67 C
3071 06-03-2016 16:55:00 3.8 C 91 % 2.47 C
3072 06-03-2016 17:00:00 3.7 C 92 % 2.52 C
3073 06-03-2016 17:05:00 3.6 C 92 % 2.42 C
3074 06-03-2016 17:10:00 3.6 C 93 % 2.58 C
3075 06-03-2016 17:15:00 3.6 C 93 % 2.58 C
Sensor: Nr:Datum:Temp:Feuchte:Taupunkt:
Aussen-T/F 3076 06-03-2016 17:20:00 3.4 C 93 % 2.38 C
3077 06-03-2016 17:25:00 3.4 C 93 % 2.38 C
3078 06-03-2016 17:30:00 3.3 C 94 % 2.43 C
3079 06-03-2016 17:35:00 3.4 C 94 % 2.53 C
3080 06-03-2016 17:40:00 3.3 C 94 % 2.43 C
3081 06-03-2016 17:45:00 3.3 C 94 % 2.43 C
3082 06-03-2016 17:50:00 3.3 C 94 % 2.43 C
3083 06-03-2016 17:55:00 3.3 C 95 % 2.58 C
3084 06-03-2016 18:00:00 3.3 C 95 % 2.58 C
3085 06-03-2016 18:05:00 3.3 C 95 % 2.58 C
3086 06-03-2016 18:10:00 3.2 C 95 % 2.48 C
3087 06-03-2016 18:15:00 3.2 C 95 % 2.48 C
3088 06-03-2016 18:20:00 3.2 C 95 % 2.48 C
3089 06-03-2016 18:25:00 3.1 C 95 % 2.38 C
3090 06-03-2016 18:30:00 3.1 C 95 % 2.38 C
3091 06-03-2016 18:35:00 3.1 C 95 % 2.38 C
3092 06-03-2016 18:40:00 3.1 C 95 % 2.38 C
3093 06-03-2016 18:45:00 3.1 C 95 % 2.38 C
3094 06-03-2016 18:50:00 3.1 C 95 % 2.38 C
3095 06-03-2016 18:55:00 3.1 C 96 % 2.53 C
3096 06-03-2016 19:00:00 3.1 C 95 % 2.38 C
3097 06-03-2016 19:05:00 3.2 C 96 % 2.63 C
3098 06-03-2016 19:10:00 3.2 C 96 % 2.63 C
3099 06-03-2016 19:15:00 3.2 C 96 % 2.63 C
3100 06-03-2016 19:20:00 3.2 C 96 % 2.63 C
Sensor: Nr:Datum:Temp:Feuchte:Taupunkt:
Aussen-T/F 3101 06-03-2016 19:25:00 3.3 C 96 % 2.72 C
3102 06-03-2016 19:30:00 3.3 C 96 % 2.72 C
3103 06-03-2016 19:35:00 3.3 C 96 % 2.72 C
3104 06-03-2016 19:40:00 3.3 C 96 % 2.72 C
3105 06-03-2016 19:45:00 3.3 C 96 % 2.72 C
3106 06-03-2016 19:50:00 3.3 C 96 % 2.72 C
3107 06-03-2016 19:55:00 3.3 C 96 % 2.72 C
3108 06-03-2016 20:00:00 3.3 C 96 % 2.72 C
3109 06-03-2016 20:05:00 3.3 C 96 % 2.72 C
3110 06-03-2016 20:10:00 3.3 C 96 % 2.72 C
3111 06-03-2016 20:15:00 3.3 C 96 % 2.72 C
3112 06-03-2016 20:20:00 3.2 C 96 % 2.63 C
3113 06-03-2016 20:25:00 3.2 C 96 % 2.63 C
3114 06-03-2016 20:30:00 3.2 C 96 % 2.63 C
3115 06-03-2016 20:35:00 3.2 C 96 % 2.63 C
3116 06-03-2016 20:40:00 3.2 C 96 % 2.63 C
3117 06-03-2016 20:45:00 3.1 C 95 % 2.38 C
3118 06-03-2016 20:50:00 2.9 C 95 % 2.18 C
3119 06-03-2016 20:55:00 2.8 C 95 % 2.08 C
3120 06-03-2016 21:00:00 2.8 C 95 % 2.08 C
3121 06-03-2016 21:05:00 2.7 C 95 % 1.98 C
3122 06-03-2016 21:10:00 2.6 C 95 % 1.88 C
3123 06-03-2016 21:15:00 2.6 C 95 % 1.88 C
3124 06-03-2016 21:20:00 2.6 C 96 % 2.03 C
3125 06-03-2016 21:25:00 2.6 C 96 % 2.03 C
Sensor: Nr:Datum:Temp:Feuchte:Taupunkt:
Aussen-T/F 3126 06-03-2016 21:30:00 2.7 C 96 % 2.13 C
3127 06-03-2016 21:35:00 2.7 C 96 % 2.13 C
3128 06-03-2016 21:40:00 2.8 C 96 % 2.23 C
3129 06-03-2016 21:45:00 2.8 C 96 % 2.23 C
3130 06-03-2016 21:50:00 2.8 C 96 % 2.23 C
3131 06-03-2016 21:55:00 2.8 C 96 % 2.23 C
3132 06-03-2016 22:00:00 2.7 C 96 % 2.13 C
3133 06-03-2016 22:05:00 2.7 C 96 % 2.13 C
3134 06-03-2016 22:10:00 2.6 C 96 % 2.03 C
3135 06-03-2016 22:15:00 2.6 C 96 % 2.03 C
3136 06-03-2016 22:20:00 2.6 C 96 % 2.03 C
3137 06-03-2016 22:25:00 2.6 C 96 % 2.03 C
3138 06-03-2016 22:30:00 2.6 C 96 % 2.03 C
3139 06-03-2016 22:35:00 2.7 C 96 % 2.13 C
3140 06-03-2016 22:40:00 2.7 C 96 % 2.13 C
3141 06-03-2016 22:45:00 2.7 C 96 % 2.13 C
3142 06-03-2016 22:50:00 2.8 C 96 % 2.23 C
3143 06-03-2016 22:55:00 2.8 C 96 % 2.23 C
3144 06-03-2016 23:00:00 2.8 C 96 % 2.23 C
3145 06-03-2016 23:05:00 2.8 C 96 % 2.23 C
3146 06-03-2016 23:10:00 2.8 C 96 % 2.23 C
3147 06-03-2016 23:15:00 2.8 C 96 % 2.23 C
3148 06-03-2016 23:20:00 2.8 C 96 % 2.23 C
3149 06-03-2016 23:25:00 2.8 C 96 % 2.23 C
3150 06-03-2016 23:30:00 2.8 C 96 % 2.23 C
Sensor: Nr:Datum:Temp:Feuchte:Taupunkt:
Aussen-T/F 3151 06-03-2016 23:35:00 2.8 C 96 % 2.23 C
3152 06-03-2016 23:40:00 2.7 C 96 % 2.13 C
3153 06-03-2016 23:45:00 2.7 C 96 % 2.13 C
3154 06-03-2016 23:50:00 2.7 C 96 % 2.13 C
3155 06-03-2016 23:55:00 2.7 C 96 % 2.13 C
3156 07-03-2016 00:00:00 2.7 C 96 % 2.13 C
3157 07-03-2016 00:05:00 2.7 C 96 % 2.13 C
3158 07-03-2016 00:10:00 2.7 C 96 % 2.13 C
3159 07-03-2016 00:15:00 2.7 C 96 % 2.13 C
3160 07-03-2016 00:20:00 2.7 C 96 % 2.13 C
3161 07-03-2016 00:25:00 2.7 C 96 % 2.13 C
3162 07-03-2016 00:30:00 2.7 C 96 % 2.13 C
3163 07-03-2016 00:35:00 2.6 C 96 % 2.03 C
3164 07-03-2016 00:40:00 2.6 C 96 % 2.03 C
3165 07-03-2016 00:45:00 2.6 C 96 % 2.03 C
3166 07-03-2016 00:50:00 2.6 C 96 % 2.03 C
3167 07-03-2016 00:55:00 2.5 C 96 % 1.93 C
3168 07-03-2016 01:00:00 2.5 C 96 % 1.93 C
3169 07-03-2016 01:05:00 2.5 C 96 % 1.93 C
3170 07-03-2016 01:10:00 2.5 C 96 % 1.93 C
3171 07-03-2016 01:15:00 2.4 C 96 % 1.83 C
3172 07-03-2016 01:20:00 2.4 C 96 % 1.83 C
3173 07-03-2016 01:25:00 2.4 C 96 % 1.83 C
3174 07-03-2016 01:30:00 2.3 C 96 % 1.73 C
3175 07-03-2016 01:35:00 2.2 C 96 % 1.63 C
Sensor: Nr:Datum:Temp:Feuchte:Taupunkt:
Aussen-T/F 3176 07-03-2016 01:40:00 2.1 C 96 % 1.53 C
3177 07-03-2016 01:45:00 2.1 C 96 % 1.53 C
3178 07-03-2016 01:50:00 2.1 C 96 % 1.53 C
3179 07-03-2016 01:55:00 2.1 C 96 % 1.53 C
3180 07-03-2016 02:00:00 2.1 C 96 % 1.53 C
3181 07-03-2016 02:05:00 2.1 C 96 % 1.53 C
3182 07-03-2016 02:10:00 2.1 C 96 % 1.53 C
3183 07-03-2016 02:15:00 2.1 C 96 % 1.53 C
3184 07-03-2016 02:20:00 2.1 C 96 % 1.53 C
3185 07-03-2016 02:25:00 2.1 C 96 % 1.53 C
3186 07-03-2016 02:30:00 2.1 C 96 % 1.53 C
3187 07-03-2016 02:35:00 2.1 C 96 % 1.53 C
3188 07-03-2016 02:40:00 1.9 C 96 % 1.33 C
3189 07-03-2016 02:45:00 1.8 C 96 % 1.23 C
3190 07-03-2016 02:50:00 1.8 C 96 % 1.23 C
3191 07-03-2016 02:55:00 1.7 C 96 % 1.13 C
3192 07-03-2016 03:00:00 1.7 C 96 % 1.13 C
3193 07-03-2016 03:05:00 1.7 C 96 % 1.13 C
3194 07-03-2016 03:10:00 1.7 C 96 % 1.13 C
3195 07-03-2016 03:15:00 1.7 C 96 % 1.13 C
3196 07-03-2016 03:20:00 1.7 C 96 % 1.13 C
3197 07-03-2016 03:25:00 1.8 C 96 % 1.23 C
3198 07-03-2016 03:30:00 1.8 C 97 % 1.38 C
3199 07-03-2016 03:35:00 1.8 C 97 % 1.38 C
3200 07-03-2016 03:40:00 1.9 C 97 % 1.48 C
Sensor: Nr:Datum:Temp:Feuchte:Taupunkt:
Aussen-T/F 3201 07-03-2016 03:45:00 1.9 C 97 % 1.48 C
3202 07-03-2016 03:50:00 1.9 C 97 % 1.48 C
3203 07-03-2016 03:55:00 2 C 97 % 1.58 C
3204 07-03-2016 04:00:00 2 C 97 % 1.58 C
3205 07-03-2016 04:05:00 2.1 C 97 % 1.67 C
3206 07-03-2016 04:10:00 2.1 C 97 % 1.67 C
3207 07-03-2016 04:15:00 2.1 C 97 % 1.67 C
3208 07-03-2016 04:20:00 2.1 C 97 % 1.67 C
3209 07-03-2016 04:25:00 2.1 C 97 % 1.67 C
3210 07-03-2016 04:30:00 2.1 C 97 % 1.67 C
3211 07-03-2016 04:35:00 2 C 97 % 1.58 C
3212 07-03-2016 04:40:00 2 C 97 % 1.58 C
3213 07-03-2016 04:45:00 2 C 97 % 1.58 C
3214 07-03-2016 04:50:00 2 C 97 % 1.58 C
3215 07-03-2016 04:55:00 2 C 97 % 1.58 C
3216 07-03-2016 05:00:00 1.9 C 97 % 1.48 C
3217 07-03-2016 05:05:00 1.9 C 97 % 1.48 C
3218 07-03-2016 05:10:00 1.9 C 97 % 1.48 C
3219 07-03-2016 05:15:00 1.8 C 97 % 1.38 C
3220 07-03-2016 05:20:00 1.8 C 96 % 1.23 C
3221 07-03-2016 05:25:00 1.7 C 96 % 1.13 C
3222 07-03-2016 05:30:00 1.6 C 96 % 1.03 C
3223 07-03-2016 05:35:00 1.4 C 96 % 0.83 C
3224 07-03-2016 05:40:00 1.3 C 96 % 0.73 C
3225 07-03-2016 05:45:00 1.3 C 96 % 0.73 C
Sensor: Nr:Datum:Temp:Feuchte:Taupunkt:
Aussen-T/F 3226 07-03-2016 05:50:00 1.3 C 96 % 0.73 C
3227 07-03-2016 05:55:00 1.2 C 97 % 0.78 C
3228 07-03-2016 06:00:00 1.3 C 97 % 0.88 C
3229 07-03-2016 06:05:00 1.3 C 97 % 0.88 C
3230 07-03-2016 06:10:00 1.4 C 97 % 0.98 C
3231 07-03-2016 06:15:00 1.4 C 97 % 0.98 C
3232 07-03-2016 06:20:00 1.5 C 97 % 1.08 C
3233 07-03-2016 06:25:00 1.6 C 97 % 1.18 C
3234 07-03-2016 06:30:00 1.6 C 97 % 1.18 C
3235 07-03-2016 06:35:00 1.7 C 97 % 1.28 C
3236 07-03-2016 06:40:00 1.7 C 97 % 1.28 C
3237 07-03-2016 06:45:00 1.7 C 97 % 1.28 C
3238 07-03-2016 06:50:00 1.7 C 97 % 1.28 C
3239 07-03-2016 06:55:00 1.7 C 97 % 1.28 C
3240 07-03-2016 07:00:00 1.7 C 97 % 1.28 C
3241 07-03-2016 07:05:00 1.8 C 97 % 1.38 C
3242 07-03-2016 07:10:00 1.8 C 97 % 1.38 C
3243 07-03-2016 07:15:00 1.8 C 97 % 1.38 C
3244 07-03-2016 07:20:00 1.8 C 97 % 1.38 C
3245 07-03-2016 07:25:00 1.8 C 97 % 1.38 C
3246 07-03-2016 07:30:00 1.8 C 97 % 1.38 C
3247 07-03-2016 07:35:00 1.8 C 97 % 1.38 C
3248 07-03-2016 07:40:00 1.8 C 97 % 1.38 C
3249 07-03-2016 07:45:00 1.8 C 97 % 1.38 C
3250 07-03-2016 07:50:00 1.9 C 97 % 1.48 C
Sensor: Nr:Datum:Temp:Feuchte:Taupunkt:
Aussen-T/F 3251 07-03-2016 07:55:00 1.9 C 97 % 1.48 C
3252 07-03-2016 08:00:00 1.9 C 97 % 1.48 C
3253 07-03-2016 08:05:00 2 C 97 % 1.58 C
3254 07-03-2016 08:10:00 2.1 C 97 % 1.67 C
3255 07-03-2016 08:15:00 2.1 C 97 % 1.67 C
3256 07-03-2016 08:20:00 2.1 C 97 % 1.67 C
3257 07-03-2016 08:25:00 2.1 C 97 % 1.67 C
3258 07-03-2016 08:30:00 2.2 C 97 % 1.77 C
3259 07-03-2016 08:35:00 2.2 C 97 % 1.77 C
3260 07-03-2016 08:40:00 2.3 C 97 % 1.87 C
3261 07-03-2016 08:45:00 2.4 C 97 % 1.97 C
3262 07-03-2016 08:50:00 2.4 C 97 % 1.97 C
3263 07-03-2016 08:55:00 2.6 C 97 % 2.17 C
3264 07-03-2016 09:00:00 2.7 C 97 % 2.27 C
3265 07-03-2016 09:05:00 2.7 C 97 % 2.27 C
3266 07-03-2016 09:10:00 2.8 C 97 % 2.37 C
3267 07-03-2016 09:15:00 2.9 C 97 % 2.47 C
3268 07-03-2016 09:20:00 2.9 C 97 % 2.47 C
3269 07-03-2016 09:25:00 3 C 97 % 2.57 C
3270 07-03-2016 09:30:00 3.2 C 97 % 2.77 C
3271 07-03-2016 09:35:00 3.3 C 97 % 2.87 C
3272 07-03-2016 09:40:00 3.4 C 97 % 2.97 C
3273 07-03-2016 09:45:00 3.4 C 97 % 2.97 C
3274 07-03-2016 09:50:00 3.5 C 96 % 2.92 C
3275 07-03-2016 09:55:00 3.4 C 96 % 2.82 C
Sensor: Nr:Datum:Temp:Feuchte:Taupunkt:
Aussen-T/F 3276 07-03-2016 10:00:00 3.4 C 95 % 2.68 C
3277 07-03-2016 10:05:00 3.4 C 95 % 2.68 C
3278 07-03-2016 10:10:00 3.5 C 95 % 2.78 C
3279 07-03-2016 10:15:00 3.6 C 95 % 2.88 C
3280 07-03-2016 10:20:00 3.7 C 95 % 2.98 C
3281 07-03-2016 10:25:00 3.8 C 95 % 3.07 C
3282 07-03-2016 10:30:00 3.9 C 94 % 3.02 C
3283 07-03-2016 10:35:00 3.9 C 92 % 2.72 C
3284 07-03-2016 10:40:00 3.9 C 92 % 2.72 C
3285 07-03-2016 10:45:00 3.9 C 91 % 2.57 C
3286 07-03-2016 10:50:00 4.1 C 92 % 2.92 C
3287 07-03-2016 10:55:00 4.2 C 90 % 2.71 C
3288 07-03-2016 11:00:00 4.3 C 91 % 2.96 C
3289 07-03-2016 11:05:00 4.4 C 89 % 2.75 C
3290 07-03-2016 11:10:00 4.4 C 88 % 2.59 C
3291 07-03-2016 11:15:00 4.3 C 89 % 2.65 C
3292 07-03-2016 11:20:00 4.1 C 90 % 2.61 C
3293 07-03-2016 11:25:00 3.9 C 90 % 2.41 C
3294 07-03-2016 11:30:00 3.7 C 91 % 2.37 C
3295 07-03-2016 11:35:00 3.6 C 91 % 2.27 C
3296 07-03-2016 11:40:00 3.4 C 91 % 2.07 C
3297 07-03-2016 11:45:00 3.3 C 91 % 1.98 C
3298 07-03-2016 11:50:00 3.3 C 91 % 1.98 C
3299 07-03-2016 11:55:00 3.3 C 92 % 2.13 C
3300 07-03-2016 12:00:00 3.3 C 92 % 2.13 C
Sensor: Nr:Datum:Temp:Feuchte:Taupunkt:
Aussen-T/F 3301 07-03-2016 12:05:00 3.2 C 92 % 2.03 C
3302 07-03-2016 12:10:00 3.2 C 92 % 2.03 C
3303 07-03-2016 12:15:00 3.2 C 93 % 2.18 C
3304 07-03-2016 12:20:00 3.3 C 93 % 2.28 C
3305 07-03-2016 12:25:00 3.4 C 93 % 2.38 C
3306 07-03-2016 12:30:00 3.4 C 93 % 2.38 C
3307 07-03-2016 12:35:00 3.4 C 93 % 2.38 C
3308 07-03-2016 12:40:00 3.5 C 93 % 2.48 C
3309 07-03-2016 12:45:00 3.6 C 93 % 2.58 C
3310 07-03-2016 12:50:00 3.4 C 92 % 2.23 C
3311 07-03-2016 12:55:00 3.4 C 93 % 2.38 C
3312 07-03-2016 13:00:00 3.4 C 93 % 2.38 C
3313 07-03-2016 13:05:00 3.4 C 93 % 2.38 C
3314 07-03-2016 13:10:00 3.4 C 93 % 2.38 C
3315 07-03-2016 13:15:00 3.4 C 93 % 2.38 C
3316 07-03-2016 13:20:00 3.5 C 92 % 2.33 C
3317 07-03-2016 13:25:00 3.6 C 92 % 2.42 C
3318 07-03-2016 13:30:00 3.6 C 92 % 2.42 C
3319 07-03-2016 13:35:00 3.7 C 92 % 2.52 C
3320 07-03-2016 13:40:00 3.7 C 92 % 2.52 C
3321 07-03-2016 13:45:00 3.8 C 91 % 2.47 C
3322 07-03-2016 13:50:00 3.9 C 90 % 2.41 C
3323 07-03-2016 13:55:00 3.9 C 90 % 2.41 C
3324 07-03-2016 14:00:00 4 C 89 % 2.36 C
3325 07-03-2016 14:05:00 4.2 C 90 % 2.71 C
Sensor: Nr:Datum:Temp:Feuchte:Taupunkt:
Aussen-T/F 3326 07-03-2016 14:10:00 4.2 C 89 % 2.55 C
3327 07-03-2016 14:15:00 4.3 C 89 % 2.65 C
3328 07-03-2016 14:20:00 4.4 C 89 % 2.75 C
3329 07-03-2016 14:25:00 4.6 C 89 % 2.95 C
3330 07-03-2016 14:30:00 4.7 C 86 % 2.56 C
3331 07-03-2016 14:35:00 4.7 C 86 % 2.56 C
3332 07-03-2016 14:40:00 4.7 C 85 % 2.4 C
3333 07-03-2016 14:45:00 4.7 C 85 % 2.4 C
3334 07-03-2016 14:50:00 4.8 C 84 % 2.33 C
3335 07-03-2016 14:55:00 4.8 C 83 % 2.16 C
3336 07-03-2016 15:00:00 4.8 C 83 % 2.16 C
3337 07-03-2016 15:05:00 4.8 C 83 % 2.16 C
3338 07-03-2016 15:10:00 4.7 C 83 % 2.07 C
3339 07-03-2016 15:15:00 4.7 C 84 % 2.23 C
3340 07-03-2016 15:20:00 4.7 C 82 % 1.9 C
3341 07-03-2016 15:25:00 4.7 C 81 % 1.73 C
3342 07-03-2016 15:30:00 4.7 C 81 % 1.73 C
3343 07-03-2016 15:35:00 4.7 C 81 % 1.73 C
3344 07-03-2016 15:40:00 4.7 C 82 % 1.9 C
3345 07-03-2016 15:45:00 4.8 C 84 % 2.33 C
3346 07-03-2016 15:50:00 4.7 C 86 % 2.56 C
3347 07-03-2016 15:55:00 4.6 C 86 % 2.47 C
3348 07-03-2016 16:00:00 4.4 C 86 % 2.27 C
3349 07-03-2016 16:05:00 4.3 C 88 % 2.49 C
3350 07-03-2016 16:10:00 4.3 C 89 % 2.65 C
Sensor: Nr:Datum:Temp:Feuchte:Taupunkt:
Aussen-T/F 3351 07-03-2016 16:15:00 4.3 C 89 % 2.65 C
3352 07-03-2016 16:20:00 4.3 C 90 % 2.81 C
3353 07-03-2016 16:25:00 4.4 C 87 % 2.43 C
3354 07-03-2016 16:30:00 4.7 C 86 % 2.56 C
3355 07-03-2016 16:35:00 5 C 83 % 2.36 C
3356 07-03-2016 16:40:00 5 C 83 % 2.36 C
3357 07-03-2016 16:45:00 4.7 C 85 % 2.4 C
3358 07-03-2016 16:50:00 4.4 C 86 % 2.27 C
3359 07-03-2016 16:55:00 4.2 C 87 % 2.23 C
3360 07-03-2016 17:00:00 4 C 88 % 2.2 C
3361 07-03-2016 17:05:00 3.8 C 89 % 2.16 C
3362 07-03-2016 17:10:00 3.7 C 89 % 2.06 C
3363 07-03-2016 17:15:00 3.6 C 90 % 2.12 C
3364 07-03-2016 17:20:00 3.5 C 90 % 2.02 C
3365 07-03-2016 17:25:00 3.5 C 90 % 2.02 C
3366 07-03-2016 17:30:00 3.5 C 91 % 2.17 C
3367 07-03-2016 17:35:00 3.4 C 91 % 2.07 C
3368 07-03-2016 17:40:00 3.4 C 91 % 2.07 C
3369 07-03-2016 17:45:00 3.3 C 91 % 1.98 C
3370 07-03-2016 17:50:00 3.2 C 91 % 1.88 C
3371 07-03-2016 17:55:00 3.1 C 92 % 1.93 C
3372 07-03-2016 18:00:00 2.9 C 91 % 1.58 C
3373 07-03-2016 18:05:00 2.8 C 92 % 1.63 C
3374 07-03-2016 18:10:00 2.7 C 92 % 1.53 C
3375 07-03-2016 18:15:00 2.5 C 92 % 1.34 C
Sensor: Nr:Datum:Temp:Feuchte:Taupunkt:
Aussen-T/F 3376 07-03-2016 18:20:00 2.3 C 92 % 1.14 C
3377 07-03-2016 18:25:00 2.2 C 92 % 1.04 C
3378 07-03-2016 18:30:00 2 C 92 % 0.84 C
3379 07-03-2016 18:35:00 1.9 C 93 % 0.89 C
3380 07-03-2016 18:40:00 1.8 C 93 % 0.79 C
3381 07-03-2016 18:45:00 1.7 C 93 % 0.69 C
3382 07-03-2016 18:50:00 1.6 C 93 % 0.59 C
3383 07-03-2016 18:55:00 1.6 C 94 % 0.74 C
3384 07-03-2016 19:00:00 1.6 C 94 % 0.74 C
3385 07-03-2016 19:05:00 1.6 C 94 % 0.74 C
3386 07-03-2016 19:10:00 1.6 C 94 % 0.74 C
3387 07-03-2016 19:15:00 1.6 C 94 % 0.74 C
3388 07-03-2016 19:20:00 1.6 C 94 % 0.74 C
3389 07-03-2016 19:25:00 1.6 C 94 % 0.74 C
3390 07-03-2016 19:30:00 1.6 C 95 % 0.89 C
3391 07-03-2016 19:35:00 1.6 C 95 % 0.89 C
3392 07-03-2016 19:40:00 1.5 C 94 % 0.64 C
3393 07-03-2016 19:45:00 1.5 C 94 % 0.64 C
3394 07-03-2016 19:50:00 1.5 C 95 % 0.79 C
3395 07-03-2016 19:55:00 1.5 C 95 % 0.79 C
3396 07-03-2016 20:00:00 1.5 C 95 % 0.79 C
3397 07-03-2016 20:05:00 1.4 C 95 % 0.69 C
3398 07-03-2016 20:10:00 1.3 C 95 % 0.59 C
3399 07-03-2016 20:15:00 1.3 C 95 % 0.59 C
3400 07-03-2016 20:20:00 1.2 C 95 % 0.49 C
Sensor: Nr:Datum:Temp:Feuchte:Taupunkt:
Aussen-T/F 3401 07-03-2016 20:25:00 1.2 C 95 % 0.49 C
3402 07-03-2016 20:30:00 1.1 C 95 % 0.39 C
3403 07-03-2016 20:35:00 1.1 C 95 % 0.39 C
3404 07-03-2016 20:40:00 0.9 C 95 % 0.19 C
3405 07-03-2016 20:45:00 0.8 C 95 % 0.09 C
3406 07-03-2016 20:50:00 0.8 C 95 % 0.09 C
3407 07-03-2016 20:55:00 0.8 C 95 % 0.09 C
3408 07-03-2016 21:00:00 0.7 C 95 % -0.01 C
3409 07-03-2016 21:05:00 0.6 C 95 % -0.11 C
3410 07-03-2016 21:10:00 0.6 C 95 % -0.11 C
3411 07-03-2016 21:15:00 0.5 C 95 % -0.21 C
3412 07-03-2016 21:20:00 0.5 C 95 % -0.21 C
3413 07-03-2016 21:25:00 0.4 C 95 % -0.31 C
3414 07-03-2016 21:30:00 0.6 C 95 % -0.11 C
3415 07-03-2016 21:35:00 0.6 C 95 % -0.11 C
3416 07-03-2016 21:40:00 0.5 C 95 % -0.21 C
3417 07-03-2016 21:45:00 0.4 C 95 % -0.31 C
3418 07-03-2016 21:50:00 0.4 C 95 % -0.31 C
3419 07-03-2016 21:55:00 0.4 C 95 % -0.31 C
3420 07-03-2016 22:00:00 0.3 C 95 % -0.4 C
3421 07-03-2016 22:05:00 0.3 C 95 % -0.4 C
3422 07-03-2016 22:10:00 0.2 C 95 % -0.5 C
3423 07-03-2016 22:15:00 0.2 C 95 % -0.5 C
3424 07-03-2016 22:20:00 0.1 C 95 % -0.6 C
3425 07-03-2016 22:25:00 0.1 C 95 % -0.6 C
Sensor: Nr:Datum:Temp:Feuchte:Taupunkt:
Aussen-T/F 3426 07-03-2016 22:30:00 0 C 96 % -0.56 C
3427 07-03-2016 22:35:00 -0.1 C 96 % -0.66 C
3428 07-03-2016 22:40:00 -0.1 C 95 % -0.8 C
3429 07-03-2016 22:45:00 -0.2 C 95 % -0.9 C
3430 07-03-2016 22:50:00 -0.2 C 96 % -0.76 C
3431 07-03-2016 22:55:00 -0.2 C 96 % -0.76 C
3432 07-03-2016 23:00:00 -0.3 C 96 % -0.86 C
3433 07-03-2016 23:05:00 -0.3 C 96 % -0.86 C
3434 07-03-2016 23:10:00 -0.4 C 96 % -0.96 C
3435 07-03-2016 23:15:00 -0.5 C 95 % -1.2 C
3436 07-03-2016 23:20:00 -0.6 C 96 % -1.16 C
3437 07-03-2016 23:25:00 -0.6 C 96 % -1.16 C
3438 07-03-2016 23:30:00 -0.6 C 96 % -1.16 C
3439 07-03-2016 23:35:00 -0.7 C 96 % -1.26 C
3440 07-03-2016 23:40:00 -0.7 C 96 % -1.26 C
3441 07-03-2016 23:45:00 -0.7 C 96 % -1.26 C
3442 07-03-2016 23:50:00 -0.7 C 96 % -1.26 C
3443 07-03-2016 23:55:00 -0.7 C 96 % -1.26 C
3444 08-03-2016 00:00:00 -0.7 C 96 % -1.26 C
3445 08-03-2016 00:05:00 -0.7 C 96 % -1.26 C
3446 08-03-2016 00:10:00 -0.8 C 96 % -1.36 C
3447 08-03-2016 00:15:00 -0.8 C 96 % -1.36 C
3448 08-03-2016 00:20:00 -0.8 C 96 % -1.36 C
3449 08-03-2016 00:25:00 -0.8 C 96 % -1.36 C
3450 08-03-2016 00:30:00 -0.8 C 96 % -1.36 C
Sensor: Nr:Datum:Temp:Feuchte:Taupunkt:
Aussen-T/F 3451 08-03-2016 00:35:00 -0.8 C 96 % -1.36 C
3452 08-03-2016 00:40:00 -0.8 C 96 % -1.36 C
3453 08-03-2016 00:45:00 -0.8 C 96 % -1.36 C
3454 08-03-2016 00:50:00 -0.9 C 96 % -1.46 C
3455 08-03-2016 00:55:00 -1 C 96 % -1.56 C
3456 08-03-2016 01:00:00 -1.1 C 96 % -1.66 C
3457 08-03-2016 01:05:00 -1.1 C 96 % -1.66 C
3458 08-03-2016 01:10:00 -1.1 C 96 % -1.66 C
3459 08-03-2016 01:15:00 -1.1 C 96 % -1.66 C
3460 08-03-2016 01:20:00 -1.1 C 96 % -1.66 C
3461 08-03-2016 01:25:00 -1.1 C 96 % -1.66 C
3462 08-03-2016 01:30:00 -1.1 C 96 % -1.66 C
3463 08-03-2016 01:35:00 -1 C 96 % -1.56 C
3464 08-03-2016 01:40:00 -0.9 C 96 % -1.46 C
3465 08-03-2016 01:45:00 -0.9 C 96 % -1.46 C
3466 08-03-2016 01:50:00 -0.9 C 96 % -1.46 C
3467 08-03-2016 01:55:00 -1 C 96 % -1.56 C
3468 08-03-2016 02:00:00 -1 C 96 % -1.56 C
3469 08-03-2016 02:05:00 -1 C 96 % -1.56 C
3470 08-03-2016 02:10:00 -0.9 C 96 % -1.46 C
3471 08-03-2016 02:15:00 -0.9 C 96 % -1.46 C
3472 08-03-2016 02:20:00 -0.9 C 96 % -1.46 C
3473 08-03-2016 02:25:00 -0.9 C 96 % -1.46 C
3474 08-03-2016 02:30:00 -0.9 C 96 % -1.46 C
3475 08-03-2016 02:35:00 -0.9 C 96 % -1.46 C
Sensor: Nr:Datum:Temp:Feuchte:Taupunkt:
Aussen-T/F 3476 08-03-2016 02:40:00 -0.9 C 96 % -1.46 C
3477 08-03-2016 02:45:00 -0.9 C 96 % -1.46 C
3478 08-03-2016 02:50:00 -0.8 C 96 % -1.36 C
3479 08-03-2016 02:55:00 -0.9 C 96 % -1.46 C
3480 08-03-2016 03:00:00 -0.8 C 96 % -1.36 C
3481 08-03-2016 03:05:00 -0.8 C 97 % -1.22 C
3482 08-03-2016 03:10:00 -0.8 C 97 % -1.22 C
3483 08-03-2016 03:15:00 -0.8 C 96 % -1.36 C
3484 08-03-2016 03:20:00 -0.7 C 96 % -1.26 C
3485 08-03-2016 03:25:00 -0.7 C 96 % -1.26 C
3486 08-03-2016 03:30:00 -0.7 C 96 % -1.26 C
3487 08-03-2016 03:35:00 -0.7 C 96 % -1.26 C
3488 08-03-2016 03:40:00 -0.6 C 97 % -1.02 C
3489 08-03-2016 03:45:00 -0.6 C 97 % -1.02 C
3490 08-03-2016 03:50:00 -0.6 C 97 % -1.02 C
3491 08-03-2016 03:55:00 -0.6 C 97 % -1.02 C
3492 08-03-2016 04:00:00 -0.5 C 97 % -0.92 C
3493 08-03-2016 04:05:00 -0.5 C 97 % -0.92 C
3494 08-03-2016 04:10:00 -0.4 C 97 % -0.82 C
3495 08-03-2016 04:15:00 -0.4 C 97 % -0.82 C
3496 08-03-2016 04:20:00 -0.4 C 97 % -0.82 C
3497 08-03-2016 04:25:00 -0.4 C 97 % -0.82 C
3498 08-03-2016 04:30:00 -0.4 C 97 % -0.82 C
3499 08-03-2016 04:35:00 -0.3 C 97 % -0.72 C
3500 08-03-2016 04:40:00 -0.3 C 97 % -0.72 C
Sensor: Nr:Datum:Temp:Feuchte:Taupunkt:
Aussen-T/F 3501 08-03-2016 04:45:00 -0.3 C 97 % -0.72 C
3502 08-03-2016 04:50:00 -0.3 C 97 % -0.72 C
3503 08-03-2016 04:55:00 -0.2 C 97 % -0.62 C
3504 08-03-2016 05:00:00 -0.2 C 97 % -0.62 C
3505 08-03-2016 05:05:00 -0.2 C 97 % -0.62 C
3506 08-03-2016 05:10:00 -0.1 C 97 % -0.52 C
3507 08-03-2016 05:15:00 -0.1 C 97 % -0.52 C
3508 08-03-2016 05:20:00 -0.2 C 97 % -0.62 C
3509 08-03-2016 05:25:00 -0.2 C 97 % -0.62 C
3510 08-03-2016 05:30:00 -0.2 C 97 % -0.62 C
3511 08-03-2016 05:35:00 -0.2 C 97 % -0.62 C
3512 08-03-2016 05:40:00 -0.2 C 97 % -0.62 C
3513 08-03-2016 05:45:00 -0.2 C 97 % -0.62 C
3514 08-03-2016 05:50:00 -0.2 C 97 % -0.62 C
3515 08-03-2016 05:55:00 -0.2 C 97 % -0.62 C
3516 08-03-2016 06:00:00 -0.2 C 97 % -0.62 C
3517 08-03-2016 06:05:00 -0.2 C 97 % -0.62 C
3518 08-03-2016 06:10:00 -0.2 C 97 % -0.62 C
3519 08-03-2016 06:15:00 -0.1 C 97 % -0.52 C
3520 08-03-2016 06:20:00 -0.1 C 97 % -0.52 C
3521 08-03-2016 06:25:00 -0.1 C 97 % -0.52 C
3522 08-03-2016 06:30:00 -0.1 C 97 % -0.52 C
3523 08-03-2016 06:35:00 -0.1 C 97 % -0.52 C
3524 08-03-2016 06:40:00 -0.1 C 97 % -0.52 C
3525 08-03-2016 06:45:00 -0.1 C 97 % -0.52 C
Sensor: Nr:Datum:Temp:Feuchte:Taupunkt:
Aussen-T/F 3526 08-03-2016 06:50:00 -0.1 C 97 % -0.52 C
3527 08-03-2016 06:55:00 -0.1 C 97 % -0.52 C
3528 08-03-2016 07:00:00 -0.2 C 97 % -0.62 C
3529 08-03-2016 07:05:00 -0.1 C 97 % -0.52 C
3530 08-03-2016 07:10:00 -0.1 C 97 % -0.52 C
3531 08-03-2016 07:15:00 -0.1 C 97 % -0.52 C
3532 08-03-2016 07:20:00 -0.1 C 97 % -0.52 C
3533 08-03-2016 07:25:00 -0.1 C 97 % -0.52 C
3534 08-03-2016 07:30:00 -0.1 C 97 % -0.52 C
3535 08-03-2016 07:35:00 -0.1 C 97 % -0.52 C
3536 08-03-2016 07:40:00 -0.1 C 97 % -0.52 C
3537 08-03-2016 07:45:00 -0.1 C 97 % -0.52 C
3538 08-03-2016 07:50:00 0 C 97 % -0.42 C
3539 08-03-2016 07:55:00 0 C 97 % -0.42 C
3540 08-03-2016 08:00:00 0 C 97 % -0.42 C
3541 08-03-2016 08:05:00 0 C 97 % -0.42 C
3542 08-03-2016 08:10:00 0.1 C 97 % -0.32 C
3543 08-03-2016 08:15:00 0.1 C 97 % -0.32 C
3544 08-03-2016 08:20:00 0.1 C 97 % -0.32 C
3545 08-03-2016 08:25:00 0.1 C 97 % -0.32 C
3546 08-03-2016 08:30:00 0.2 C 97 % -0.22 C
3547 08-03-2016 08:35:00 0.2 C 97 % -0.22 C
3548 08-03-2016 08:40:00 0.2 C 97 % -0.22 C
3549 08-03-2016 08:45:00 0.3 C 97 % -0.12 C
3550 08-03-2016 08:50:00 0.3 C 97 % -0.12 C
Sensor: Nr:Datum:Temp:Feuchte:Taupunkt:
Aussen-T/F 3551 08-03-2016 08:55:00 0.3 C 97 % -0.12 C
3552 08-03-2016 09:00:00 0.3 C 97 % -0.12 C
3553 08-03-2016 09:05:00 0.3 C 97 % -0.12 C
3554 08-03-2016 09:10:00 0.3 C 97 % -0.12 C
3555 08-03-2016 09:15:00 0.3 C 97 % -0.12 C
3556 08-03-2016 09:20:00 0.3 C 97 % -0.12 C
3557 08-03-2016 09:25:00 0.3 C 97 % -0.12 C
3558 08-03-2016 09:30:00 0.3 C 97 % -0.12 C
3559 08-03-2016 09:35:00 0.3 C 97 % -0.12 C
3560 08-03-2016 09:40:00 0.4 C 97 % -0.02 C
3561 08-03-2016 09:45:00 0.4 C 97 % -0.02 C
3562 08-03-2016 09:50:00 0.4 C 97 % -0.02 C
3563 08-03-2016 09:55:00 0.5 C 97 % 0.08 C
3564 08-03-2016 10:00:00 0.6 C 97 % 0.18 C
3565 08-03-2016 10:05:00 0.7 C 97 % 0.28 C
3566 08-03-2016 10:10:00 0.8 C 97 % 0.38 C
3567 08-03-2016 10:15:00 0.7 C 97 % 0.28 C
3568 08-03-2016 10:20:00 0.7 C 97 % 0.28 C
3569 08-03-2016 10:25:00 0.7 C 97 % 0.28 C
3570 08-03-2016 10:30:00 0.8 C 97 % 0.38 C
3571 08-03-2016 10:35:00 0.8 C 97 % 0.38 C
3572 08-03-2016 10:40:00 0.8 C 97 % 0.38 C
3573 08-03-2016 10:45:00 0.8 C 97 % 0.38 C
3574 08-03-2016 10:50:00 0.9 C 97 % 0.48 C
3575 08-03-2016 10:55:00 0.9 C 97 % 0.48 C
Sensor: Nr:Datum:Temp:Feuchte:Taupunkt:
Aussen-T/F 3576 08-03-2016 11:00:00 1 C 97 % 0.58 C
3577 08-03-2016 11:05:00 1.1 C 97 % 0.68 C
3578 08-03-2016 11:10:00 1.1 C 97 % 0.68 C
3579 08-03-2016 11:15:00 1.3 C 97 % 0.88 C
3580 08-03-2016 11:20:00 1.5 C 97 % 1.08 C
3581 08-03-2016 11:25:00 1.5 C 97 % 1.08 C
3582 08-03-2016 11:30:00 1.6 C 97 % 1.18 C
3583 08-03-2016 11:35:00 1.7 C 97 % 1.28 C
3584 08-03-2016 11:40:00 1.7 C 97 % 1.28 C
3585 08-03-2016 11:45:00 1.8 C 97 % 1.38 C
3586 08-03-2016 11:50:00 1.9 C 97 % 1.48 C
3587 08-03-2016 11:55:00 1.8 C 96 % 1.23 C
3588 08-03-2016 12:00:00 1.8 C 96 % 1.23 C
3589 08-03-2016 12:05:00 2.1 C 96 % 1.53 C
3590 08-03-2016 12:10:00 2.2 C 96 % 1.63 C
3591 08-03-2016 12:15:00 2.3 C 96 % 1.73 C
3592 08-03-2016 12:20:00 2.3 C 96 % 1.73 C
3593 08-03-2016 12:25:00 2.3 C 95 % 1.58 C
3594 08-03-2016 12:30:00 2.3 C 95 % 1.58 C
3595 08-03-2016 12:35:00 2.4 C 95 % 1.68 C
3596 08-03-2016 12:40:00 2.6 C 95 % 1.88 C
3597 08-03-2016 12:45:00 2.7 C 94 % 1.83 C
3598 08-03-2016 12:50:00 2.9 C 94 % 2.03 C
3599 08-03-2016 12:55:00 3.1 C 93 % 2.08 C
3600 08-03-2016 13:00:00 3.4 C 91 % 2.07 C
Sensor: Nr:Datum:Temp:Feuchte:Taupunkt:
Aussen-T/F 3601 08-03-2016 13:05:00 3.6 C 89 % 1.96 C
3602 08-03-2016 13:10:00 3.8 C 88 % 2 C
3603 08-03-2016 13:15:00 4.1 C 88 % 2.3 C
3604 08-03-2016 13:20:00 4.3 C 87 % 2.33 C
3605 08-03-2016 13:25:00 4.6 C 84 % 2.14 C
3606 08-03-2016 13:30:00 4.6 C 83 % 1.97 C
3607 08-03-2016 13:35:00 4.7 C 82 % 1.9 C
3608 08-03-2016 13:40:00 4.7 C 82 % 1.9 C
3609 08-03-2016 13:45:00 4.8 C 81 % 1.82 C
3610 08-03-2016 13:50:00 4.8 C 80 % 1.65 C
3611 08-03-2016 13:55:00 4.9 C 81 % 1.92 C
3612 08-03-2016 14:00:00 5.2 C 80 % 2.04 C
3613 08-03-2016 14:05:00 5.4 C 78 % 1.88 C
3614 08-03-2016 14:10:00 5.6 C 76 % 1.71 C
3615 08-03-2016 14:15:00 5.7 C 77 % 1.99 C
3616 08-03-2016 14:20:00 5.8 C 75 % 1.72 C
3617 08-03-2016 14:25:00 5.7 C 75 % 1.62 C
3618 08-03-2016 14:30:00 5.6 C 76 % 1.71 C
3619 08-03-2016 14:35:00 5.6 C 75 % 1.53 C
3620 08-03-2016 14:40:00 5.6 C 76 % 1.71 C
3621 08-03-2016 14:45:00 5.6 C 76 % 1.71 C
3622 08-03-2016 14:50:00 5.5 C 75 % 1.43 C
3623 08-03-2016 14:55:00 5.6 C 75 % 1.53 C
3624 08-03-2016 15:00:00 5.7 C 75 % 1.62 C
3625 08-03-2016 15:05:00 5.7 C 74 % 1.44 C
Sensor: Nr:Datum:Temp:Feuchte:Taupunkt:
Aussen-T/F 3626 08-03-2016 15:10:00 5.7 C 75 % 1.62 C
3627 08-03-2016 15:15:00 5.8 C 74 % 1.53 C
3628 08-03-2016 15:20:00 5.9 C 74 % 1.63 C
3629 08-03-2016 15:25:00 6 C 74 % 1.73 C
3630 08-03-2016 15:30:00 6.2 C 74 % 1.92 C
3631 08-03-2016 15:35:00 6.3 C 73 % 1.83 C
3632 08-03-2016 15:40:00 6.5 C 71 % 1.63 C
3633 08-03-2016 15:45:00 6.6 C 70 % 1.53 C
3634 08-03-2016 15:50:00 6.7 C 70 % 1.63 C
3635 08-03-2016 15:55:00 6.8 C 69 % 1.52 C
3636 08-03-2016 16:00:00 6.7 C 69 % 1.43 C
3637 08-03-2016 16:05:00 6.7 C 71 % 1.82 C
3638 08-03-2016 16:10:00 6.6 C 69 % 1.33 C
3639 08-03-2016 16:15:00 6.4 C 70 % 1.34 C
3640 08-03-2016 16:20:00 6.4 C 70 % 1.34 C
3641 08-03-2016 16:25:00 6.4 C 69 % 1.14 C
3642 08-03-2016 16:30:00 6.4 C 70 % 1.34 C
3643 08-03-2016 16:35:00 6.4 C 71 % 1.54 C
3644 08-03-2016 16:40:00 6.3 C 70 % 1.24 C
3645 08-03-2016 16:45:00 6.3 C 72 % 1.63 C
3646 08-03-2016 16:50:00 6.3 C 72 % 1.63 C
3647 08-03-2016 16:55:00 6.5 C 72 % 1.83 C
3648 08-03-2016 17:00:00 6.8 C 72 % 2.12 C
3649 08-03-2016 17:05:00 6.9 C 71 % 2.02 C
3650 08-03-2016 17:10:00 6.8 C 71 % 1.92 C
Sensor: Nr:Datum:Temp:Feuchte:Taupunkt:
Aussen-T/F 3651 08-03-2016 17:15:00 6.7 C 70 % 1.63 C
3652 08-03-2016 17:20:00 6.8 C 71 % 1.92 C
3653 08-03-2016 17:25:00 6.7 C 75 % 2.59 C
3654 08-03-2016 17:30:00 6.3 C 76 % 2.39 C
3655 08-03-2016 17:35:00 5.8 C 78 % 2.27 C
3656 08-03-2016 17:40:00 5.3 C 80 % 2.14 C
3657 08-03-2016 17:45:00 4.9 C 82 % 2.09 C
3658 08-03-2016 17:50:00 4.5 C 83 % 1.87 C
3659 08-03-2016 17:55:00 4.2 C 84 % 1.74 C
3660 08-03-2016 18:00:00 3.9 C 85 % 1.61 C
3661 08-03-2016 18:05:00 3.7 C 86 % 1.58 C
3662 08-03-2016 18:10:00 3.6 C 87 % 1.64 C
3663 08-03-2016 18:15:00 3.4 C 87 % 1.45 C
3664 08-03-2016 18:20:00 3.4 C 88 % 1.61 C
3665 08-03-2016 18:25:00 3.4 C 88 % 1.61 C
3666 08-03-2016 18:30:00 3.4 C 88 % 1.61 C
3667 08-03-2016 18:35:00 3.4 C 89 % 1.76 C
3668 08-03-2016 18:40:00 3.3 C 89 % 1.67 C
3669 08-03-2016 18:45:00 3.3 C 89 % 1.67 C
3670 08-03-2016 18:50:00 3.2 C 89 % 1.57 C
3671 08-03-2016 18:55:00 3 C 88 % 1.21 C
3672 08-03-2016 19:00:00 2.8 C 89 % 1.17 C
3673 08-03-2016 19:05:00 2.6 C 88 % 0.82 C
3674 08-03-2016 19:10:00 2.4 C 89 % 0.78 C
3675 08-03-2016 19:15:00 2.3 C 89 % 0.68 C
Sensor: Nr:Datum:Temp:Feuchte:Taupunkt:
Aussen-T/F 3676 08-03-2016 19:20:00 2.2 C 90 % 0.73 C
3677 08-03-2016 19:25:00 2.1 C 90 % 0.64 C
3678 08-03-2016 19:30:00 2 C 90 % 0.54 C
3679 08-03-2016 19:35:00 1.9 C 90 % 0.44 C
3680 08-03-2016 19:40:00 1.9 C 90 % 0.44 C
3681 08-03-2016 19:45:00 1.8 C 90 % 0.34 C
3682 08-03-2016 19:50:00 1.8 C 91 % 0.49 C
3683 08-03-2016 19:55:00 1.8 C 91 % 0.49 C
3684 08-03-2016 20:00:00 1.7 C 91 % 0.39 C
3685 08-03-2016 20:05:00 1.7 C 91 % 0.39 C
3686 08-03-2016 20:10:00 1.8 C 91 % 0.49 C
3687 08-03-2016 20:15:00 1.8 C 92 % 0.64 C
3688 08-03-2016 20:20:00 1.8 C 92 % 0.64 C
3689 08-03-2016 20:25:00 1.9 C 92 % 0.74 C
3690 08-03-2016 20:30:00 1.9 C 92 % 0.74 C
3691 08-03-2016 20:35:00 1.9 C 92 % 0.74 C
3692 08-03-2016 20:40:00 1.9 C 92 % 0.74 C
3693 08-03-2016 20:45:00 1.9 C 92 % 0.74 C
3694 08-03-2016 20:50:00 2 C 92 % 0.84 C
3695 08-03-2016 20:55:00 2 C 92 % 0.84 C
3696 08-03-2016 21:00:00 2.1 C 91 % 0.79 C
3697 08-03-2016 21:05:00 2.1 C 91 % 0.79 C
3698 08-03-2016 21:10:00 2.2 C 91 % 0.89 C
3699 08-03-2016 21:15:00 2.2 C 90 % 0.73 C
3700 08-03-2016 21:20:00 2.2 C 90 % 0.73 C
Sensor: Nr:Datum:Temp:Feuchte:Taupunkt:
Aussen-T/F 3701 08-03-2016 21:25:00 2.3 C 90 % 0.83 C
3702 08-03-2016 21:30:00 2.4 C 91 % 1.08 C
3703 08-03-2016 21:35:00 2.4 C 90 % 0.93 C
3704 08-03-2016 21:40:00 2.6 C 89 % 0.97 C
3705 08-03-2016 21:45:00 2.7 C 89 % 1.07 C
3706 08-03-2016 21:50:00 2.7 C 88 % 0.92 C
3707 08-03-2016 21:55:00 2.7 C 88 % 0.92 C
3708 08-03-2016 22:00:00 2.6 C 88 % 0.82 C
3709 08-03-2016 22:05:00 2.5 C 87 % 0.56 C
3710 08-03-2016 22:10:00 2.5 C 87 % 0.56 C
3711 08-03-2016 22:15:00 2.4 C 87 % 0.46 C
3712 08-03-2016 22:20:00 2.4 C 87 % 0.46 C
3713 08-03-2016 22:25:00 2.3 C 87 % 0.36 C
3714 08-03-2016 22:30:00 2.2 C 88 % 0.42 C
3715 08-03-2016 22:35:00 2.1 C 88 % 0.33 C
3716 08-03-2016 22:40:00 1.9 C 88 % 0.13 C
3717 08-03-2016 22:45:00 1.7 C 89 % 0.09 C
3718 08-03-2016 22:50:00 1.6 C 89 % -0.01 C
3719 08-03-2016 22:55:00 1.4 C 90 % -0.06 C
3720 08-03-2016 23:00:00 1.2 C 90 % -0.25 C
3721 08-03-2016 23:05:00 1.2 C 91 % -0.1 C
3722 08-03-2016 23:10:00 1 C 91 % -0.3 C
3723 08-03-2016 23:15:00 0.9 C 91 % -0.4 C
3724 08-03-2016 23:20:00 0.8 C 92 % -0.35 C
3725 08-03-2016 23:25:00 0.8 C 92 % -0.35 C
Sensor: Nr:Datum:Temp:Feuchte:Taupunkt:
Aussen-T/F 3726 08-03-2016 23:30:00 0.7 C 92 % -0.45 C
3727 08-03-2016 23:35:00 0.6 C 92 % -0.55 C
3728 08-03-2016 23:40:00 0.4 C 92 % -0.74 C
3729 08-03-2016 23:45:00 0.4 C 92 % -0.74 C
3730 08-03-2016 23:50:00 0.3 C 93 % -0.7 C
3731 08-03-2016 23:55:00 0.3 C 93 % -0.7 C
3732 09-03-2016 00:00:00 0.2 C 93 % -0.79 C
3733 09-03-2016 00:05:00 0.2 C 93 % -0.79 C
3734 09-03-2016 00:10:00 0.2 C 93 % -0.79 C
3735 09-03-2016 00:15:00 0.1 C 93 % -0.89 C
3736 09-03-2016 00:20:00 0.1 C 93 % -0.89 C
3737 09-03-2016 00:25:00 0.1 C 94 % -0.75 C
3738 09-03-2016 00:30:00 0 C 93 % -0.99 C
3739 09-03-2016 00:35:00 -0.1 C 94 % -0.95 C
3740 09-03-2016 00:40:00 0 C 94 % -0.85 C
3741 09-03-2016 00:45:00 -0.1 C 94 % -0.95 C
3742 09-03-2016 00:50:00 -0.1 C 94 % -0.95 C
3743 09-03-2016 00:55:00 -0.1 C 94 % -0.95 C
3744 09-03-2016 01:00:00 -0.2 C 94 % -1.05 C
3745 09-03-2016 01:05:00 -0.2 C 94 % -1.05 C
3746 09-03-2016 01:10:00 -0.2 C 94 % -1.05 C
3747 09-03-2016 01:15:00 -0.2 C 94 % -1.05 C
3748 09-03-2016 01:20:00 -0.2 C 94 % -1.05 C
3749 09-03-2016 01:25:00 -0.2 C 94 % -1.05 C
3750 09-03-2016 01:30:00 -0.2 C 94 % -1.05 C
Sensor: Nr:Datum:Temp:Feuchte:Taupunkt:
Aussen-T/F 3751 09-03-2016 01:35:00 -0.2 C 94 % -1.05 C
3752 09-03-2016 01:40:00 -0.2 C 94 % -1.05 C
3753 09-03-2016 01:45:00 -0.2 C 94 % -1.05 C
3754 09-03-2016 01:50:00 -0.1 C 94 % -0.95 C
3755 09-03-2016 01:55:00 -0.1 C 94 % -0.95 C
3756 09-03-2016 02:00:00 -0.1 C 94 % -0.95 C
3757 09-03-2016 02:05:00 -0.1 C 94 % -0.95 C
3758 09-03-2016 02:10:00 0 C 94 % -0.85 C
3759 09-03-2016 02:15:00 0.1 C 94 % -0.75 C
3760 09-03-2016 02:20:00 0.2 C 94 % -0.65 C
3761 09-03-2016 02:25:00 0.2 C 94 % -0.65 C
3762 09-03-2016 02:30:00 0.3 C 94 % -0.55 C
3763 09-03-2016 02:35:00 0.3 C 93 % -0.7 C
3764 09-03-2016 02:40:00 0.4 C 93 % -0.6 C
3765 09-03-2016 02:45:00 0.5 C 93 % -0.5 C
3766 09-03-2016 02:50:00 0.6 C 93 % -0.4 C
3767 09-03-2016 02:55:00 0.7 C 93 % -0.3 C
3768 09-03-2016 03:00:00 0.8 C 93 % -0.2 C
3769 09-03-2016 03:05:00 0.8 C 92 % -0.35 C
3770 09-03-2016 03:10:00 0.8 C 92 % -0.35 C
3771 09-03-2016 03:15:00 0.8 C 92 % -0.35 C
3772 09-03-2016 03:20:00 0.7 C 91 % -0.6 C
3773 09-03-2016 03:25:00 0.6 C 91 % -0.7 C
3774 09-03-2016 03:30:00 0.5 C 90 % -0.95 C
3775 09-03-2016 03:35:00 0.4 C 91 % -0.89 C
Sensor: Nr:Datum:Temp:Feuchte:Taupunkt:
Aussen-T/F 3776 09-03-2016 03:40:00 0.4 C 91 % -0.89 C
3777 09-03-2016 03:45:00 0.3 C 91 % -0.99 C
3778 09-03-2016 03:50:00 0.3 C 91 % -0.99 C
3779 09-03-2016 03:55:00 0.1 C 90 % -1.34 C
3780 09-03-2016 04:00:00 -0.1 C 91 % -1.39 C
3781 09-03-2016 04:05:00 -0.2 C 91 % -1.49 C
3782 09-03-2016 04:10:00 -0.2 C 91 % -1.49 C
3783 09-03-2016 04:15:00 -0.2 C 92 % -1.34 C
3784 09-03-2016 04:20:00 -0.2 C 92 % -1.34 C
3785 09-03-2016 04:25:00 -0.3 C 91 % -1.59 C
3786 09-03-2016 04:30:00 -0.4 C 92 % -1.54 C
3787 09-03-2016 04:35:00 -0.3 C 92 % -1.44 C
3788 09-03-2016 04:40:00 -0.3 C 92 % -1.44 C
3789 09-03-2016 04:45:00 -0.3 C 92 % -1.44 C
3790 09-03-2016 04:50:00 -0.3 C 92 % -1.44 C
3791 09-03-2016 04:55:00 -0.3 C 92 % -1.44 C
3792 09-03-2016 05:00:00 -0.4 C 92 % -1.54 C
3793 09-03-2016 05:05:00 -0.4 C 93 % -1.39 C
3794 09-03-2016 05:10:00 -0.3 C 93 % -1.29 C
3795 09-03-2016 05:15:00 -0.2 C 93 % -1.19 C
3796 09-03-2016 05:20:00 -0.2 C 93 % -1.19 C
3797 09-03-2016 05:25:00 -0.2 C 93 % -1.19 C
3798 09-03-2016 05:30:00 -0.1 C 93 % -1.09 C
3799 09-03-2016 05:35:00 -0.1 C 93 % -1.09 C
3800 09-03-2016 05:40:00 0 C 93 % -0.99 C
Sensor: Nr:Datum:Temp:Feuchte:Taupunkt:
Aussen-T/F 3801 09-03-2016 05:45:00 0.1 C 92 % -1.04 C
3802 09-03-2016 05:50:00 0.2 C 92 % -0.94 C
3803 09-03-2016 05:55:00 0.2 C 91 % -1.09 C
3804 09-03-2016 06:00:00 0.2 C 90 % -1.24 C
3805 09-03-2016 06:05:00 0.1 C 90 % -1.34 C
3806 09-03-2016 06:10:00 -0.1 C 91 % -1.39 C
3807 09-03-2016 06:15:00 -0.2 C 91 % -1.49 C
3808 09-03-2016 06:20:00 -0.1 C 91 % -1.39 C
3809 09-03-2016 06:25:00 -0.2 C 91 % -1.49 C
3810 09-03-2016 06:30:00 -0.2 C 91 % -1.49 C
3811 09-03-2016 06:35:00 -0.2 C 91 % -1.49 C
3812 09-03-2016 06:40:00 -0.3 C 91 % -1.59 C
3813 09-03-2016 06:45:00 -0.2 C 92 % -1.34 C
3814 09-03-2016 06:50:00 -0.1 C 91 % -1.39 C
3815 09-03-2016 06:55:00 0.2 C 91 % -1.09 C
3816 09-03-2016 07:00:00 0.4 C 90 % -1.04 C
3817 09-03-2016 07:05:00 0.6 C 89 % -1 C
3818 09-03-2016 07:10:00 0.6 C 89 % -1 C
3819 09-03-2016 07:15:00 0.6 C 89 % -1 C
3820 09-03-2016 07:20:00 0.6 C 89 % -1 C
3821 09-03-2016 07:25:00 0.6 C 89 % -1 C
3822 09-03-2016 07:30:00 0.6 C 89 % -1 C
3823 09-03-2016 07:35:00 0.6 C 89 % -1 C
3824 09-03-2016 07:40:00 0.6 C 89 % -1 C
3825 09-03-2016 07:45:00 0.7 C 89 % -0.9 C
Sensor: Nr:Datum:Temp:Feuchte:Taupunkt:
Aussen-T/F 3826 09-03-2016 07:50:00 0.7 C 89 % -0.9 C
3827 09-03-2016 07:55:00 0.7 C 89 % -0.9 C
3828 09-03-2016 08:00:00 0.7 C 89 % -0.9 C
3829 09-03-2016 08:05:00 0.7 C 89 % -0.9 C
3830 09-03-2016 08:10:00 0.7 C 89 % -0.9 C
3831 09-03-2016 08:15:00 0.6 C 89 % -1 C
3832 09-03-2016 08:20:00 0.6 C 89 % -1 C
3833 09-03-2016 08:25:00 0.6 C 90 % -0.85 C
3834 09-03-2016 08:30:00 0.5 C 90 % -0.95 C
3835 09-03-2016 08:35:00 0.5 C 90 % -0.95 C
3836 09-03-2016 08:40:00 0.6 C 90 % -0.85 C
3837 09-03-2016 08:45:00 0.6 C 90 % -0.85 C
3838 09-03-2016 08:50:00 0.7 C 90 % -0.75 C
3839 09-03-2016 08:55:00 0.7 C 90 % -0.75 C
3840 09-03-2016 09:00:00 0.7 C 90 % -0.75 C
3841 09-03-2016 09:05:00 0.7 C 90 % -0.75 C
3842 09-03-2016 09:10:00 0.7 C 90 % -0.75 C
3843 09-03-2016 09:15:00 0.7 C 90 % -0.75 C
3844 09-03-2016 09:20:00 0.6 C 91 % -0.7 C
3845 09-03-2016 09:25:00 0.7 C 91 % -0.6 C
3846 09-03-2016 09:30:00 0.7 C 91 % -0.6 C
3847 09-03-2016 09:35:00 0.8 C 91 % -0.5 C
3848 09-03-2016 09:40:00 1 C 91 % -0.3 C
3849 09-03-2016 09:45:00 1.2 C 90 % -0.25 C
3850 09-03-2016 09:50:00 1.3 C 89 % -0.31 C
Sensor: Nr:Datum:Temp:Feuchte:Taupunkt:
Aussen-T/F 3851 09-03-2016 09:55:00 1.6 C 88 % -0.17 C
3852 09-03-2016 10:00:00 1.7 C 87 % -0.23 C
3853 09-03-2016 10:05:00 1.8 C 87 % -0.13 C
3854 09-03-2016 10:10:00 1.8 C 86 % -0.29 C
3855 09-03-2016 10:15:00 1.9 C 87 % -0.03 C
3856 09-03-2016 10:20:00 1.9 C 86 % -0.19 C
3857 09-03-2016 10:25:00 2 C 86 % -0.09 C
3858 09-03-2016 10:30:00 2.1 C 86 % 0.01 C
3859 09-03-2016 10:35:00 2.1 C 86 % 0.01 C
3860 09-03-2016 10:40:00 2.2 C 86 % 0.11 C
3861 09-03-2016 10:45:00 2.2 C 86 % 0.11 C
3862 09-03-2016 10:50:00 2.3 C 85 % 0.04 C
3863 09-03-2016 10:55:00 2.3 C 86 % 0.21 C
3864 09-03-2016 11:00:00 2.3 C 85 % 0.04 C
3865 09-03-2016 11:05:00 2.3 C 85 % 0.04 C
3866 09-03-2016 11:10:00 2.3 C 86 % 0.21 C
3867 09-03-2016 11:15:00 2.4 C 85 % 0.14 C
3868 09-03-2016 11:20:00 2.5 C 85 % 0.24 C
3869 09-03-2016 11:25:00 2.6 C 85 % 0.34 C
3870 09-03-2016 11:30:00 2.7 C 84 % 0.27 C
3871 09-03-2016 11:35:00 2.8 C 84 % 0.37 C
3872 09-03-2016 11:40:00 3 C 83 % 0.4 C
3873 09-03-2016 11:45:00 3.2 C 83 % 0.6 C
3874 09-03-2016 11:50:00 3.3 C 82 % 0.53 C
3875 09-03-2016 11:55:00 3.4 C 82 % 0.63 C
Sensor: Nr:Datum:Temp:Feuchte:Taupunkt:
Aussen-T/F 3876 09-03-2016 12:00:00 3.4 C 82 % 0.63 C
3877 09-03-2016 12:05:00 3.6 C 81 % 0.65 C
3878 09-03-2016 12:10:00 3.7 C 82 % 0.92 C
3879 09-03-2016 12:15:00 3.8 C 81 % 0.85 C
3880 09-03-2016 12:20:00 3.8 C 81 % 0.85 C
3881 09-03-2016 12:25:00 4 C 81 % 1.04 C
3882 09-03-2016 12:30:00 4.2 C 80 % 1.07 C
3883 09-03-2016 12:35:00 4.3 C 79 % 0.99 C
3884 09-03-2016 12:40:00 4.6 C 78 % 1.1 C
3885 09-03-2016 12:45:00 4.7 C 78 % 1.2 C
3886 09-03-2016 12:50:00 4.8 C 77 % 1.12 C
3887 09-03-2016 12:55:00 4.9 C 77 % 1.22 C
3888 09-03-2016 13:00:00 5 C 77 % 1.31 C
3889 09-03-2016 13:05:00 5.1 C 76 % 1.23 C
3890 09-03-2016 13:10:00 5.2 C 75 % 1.14 C
3891 09-03-2016 13:15:00 5.2 C 76 % 1.32 C
3892 09-03-2016 13:20:00 5.4 C 76 % 1.52 C
3893 09-03-2016 13:25:00 5.6 C 76 % 1.71 C
3894 09-03-2016 13:30:00 5.7 C 75 % 1.62 C
3895 09-03-2016 13:35:00 5.8 C 74 % 1.53 C
3896 09-03-2016 13:40:00 6.1 C 74 % 1.82 C
3897 09-03-2016 13:45:00 6.3 C 72 % </